Darstellungsparameter: Aktuell verwendete Einstellungen:
Skalierung der Graphiken ... ?
xyx+y,   Skalierungsfaktor:      Skalierung: Modus: x, Faktor: 1
Darstellungszeitraum ... ?
Vom - - bis: - -   Zeitraum: 23.11.2013 - 23.05.2014
Min/Max/Avg-Anzeige ... ?
Zeige MMA aktuell
Zeige MMA Monat
Zeige MMA alles
Zeige --A aktuell
Zeige --A Monat
Zeige --A alles
Keine MMA-Anzeige
MMA:
Keine MMA-Graphiken
MMA-Basis: 23.11.2013 - 23.05.2014
Quicknavigation für Darstellung... ?
Tage:      1T, 2T, 3T, 5T -1T -2T -3T -5T +1T +2T +3T +5T
Wochen: 1W, 2W, 3W -1W -2W -3W +1W +2W +3W
Monate: 1M, 3M, 6M -1M -3M -6M +1M +3M +6M
Jahre:    1J, 3J, 5J, 10J -1J -3J -5J -10J +1J +3J +5J +10J
Nutze für die Darstellung ... ?
Originaldaten oder Mittelwerte auf ...
Stundenbasis Tagesbasis Wochenbasis
Monatsbasis Jahresbasis      Datenbasis: Original-Daten
Darstellen als:
Statistik (Auto) Statistik J:M      Darstellung:
Zur Graphik,    zurück zur Übersicht aller Sensoren.
 
Tabellarische Datenbersicht: ?
 
Sensor: Nr:Datum:Temp:Abs-Feuchte:Windchill:Wind:
Aussen-T/F 1 23-11-2013 08:30:00 5.2 C 6.27 g/m*3 5.2 C 4.8 km/h
2 23-11-2013 08:35:00 5.2 C 6.27 g/m*3 5.2 C 3.2 km/h
3 23-11-2013 08:40:00 5.2 C 6.27 g/m*3 5.2 C 3.2 km/h
4 23-11-2013 11:15:00 6.7 C 7.6 g/m*3 6.7 C 4.8 km/h
5 23-11-2013 11:20:00 6.7 C 6.53 g/m*3 5.56 C 6.4 km/h
6 23-11-2013 11:25:00 6.7 C 6.61 g/m*3 6.7 C 4.8 km/h
7 23-11-2013 11:30:00 6.7 C 6.61 g/m*3 6.7 C 3.2 km/h
8 23-11-2013 11:35:00 6.8 C 6.58 g/m*3 5.22 C 8.1 km/h
9 23-11-2013 11:40:00 6.8 C 6.58 g/m*3 4.56 C 11.3 km/h
10 23-11-2013 11:45:00 6.8 C 6.58 g/m*3 4.56 C 11.3 km/h
11 23-11-2013 11:50:00 6.9 C 6.62 g/m*3 5.34 C 8.1 km/h
12 23-11-2013 11:55:00 6.9 C 6.62 g/m*3 6.9 C 4.8 km/h
13 23-11-2013 12:00:00 7 C 6.66 g/m*3 7 C 4.8 km/h
14 23-11-2013 12:05:00 7 C 6.66 g/m*3 5.46 C 8.1 km/h
15 23-11-2013 12:10:00 7 C 6.66 g/m*3 5.46 C 8.1 km/h
16 23-11-2013 12:15:00 7 C 6.66 g/m*3 4.8 C 11.3 km/h
17 23-11-2013 12:40:00 7.7 C 8.11 g/m*3 5.65 C 11.3 km/h
18 23-11-2013 12:45:00 7.7 C 6.65 g/m*3 6.71 C 6.4 km/h
19 23-11-2013 12:50:00 7.7 C 6.65 g/m*3 5.38 C 12.9 km/h
20 23-11-2013 12:55:00 7.7 C 6.65 g/m*3 5.65 C 11.3 km/h
21 23-11-2013 13:00:00 7.6 C 6.61 g/m*3 5.82 C 9.7 km/h
22 23-11-2013 13:05:00 7.7 C 6.65 g/m*3 5.15 C 14.5 km/h
23 23-11-2013 13:10:00 7.7 C 6.65 g/m*3 5.15 C 14.5 km/h
24 23-11-2013 13:15:00 7.7 C 6.65 g/m*3 5.38 C 12.9 km/h
25 23-11-2013 13:20:00 7.7 C 6.57 g/m*3 5.38 C 12.9 km/h
Sensor: Nr:Datum:Temp:Abs-Feuchte:Windchill:Wind:
Aussen-T/F 26 23-11-2013 13:25:00 7.7 C 6.49 g/m*3 5.15 C 14.5 km/h
27 23-11-2013 13:30:00 7.7 C 6.57 g/m*3 5.65 C 11.3 km/h
28 23-11-2013 13:35:00 7.7 C 6.57 g/m*3 5.94 C 9.7 km/h
29 23-11-2013 13:40:00 7.8 C 6.61 g/m*3 5.51 C 12.9 km/h
30 23-11-2013 13:45:00 7.7 C 6.57 g/m*3 5.38 C 12.9 km/h
31 23-11-2013 13:50:00 7.7 C 6.49 g/m*3 5.38 C 12.9 km/h
32 23-11-2013 13:55:00 7.7 C 6.49 g/m*3 5.65 C 11.3 km/h
33 23-11-2013 14:00:00 7.7 C 6.57 g/m*3 5.38 C 12.9 km/h
34 23-11-2013 14:05:00 7.7 C 6.57 g/m*3 5.94 C 9.7 km/h
35 23-11-2013 14:10:00 7.7 C 6.57 g/m*3 6.28 C 8.1 km/h
36 23-11-2013 14:15:00 7.7 C 6.57 g/m*3 5.38 C 12.9 km/h
37 23-11-2013 14:20:00 7.7 C 6.57 g/m*3 5.65 C 11.3 km/h
38 23-11-2013 14:25:00 7.7 C 6.57 g/m*3 5.15 C 14.5 km/h
39 23-11-2013 14:30:00 7.7 C 6.57 g/m*3 5.38 C 12.9 km/h
40 23-11-2013 14:35:00 7.7 C 6.49 g/m*3 5.94 C 9.7 km/h
41 23-11-2013 14:40:00 7.7 C 6.49 g/m*3 5.94 C 9.7 km/h
42 23-11-2013 14:45:00 7.7 C 6.49 g/m*3 6.71 C 6.4 km/h
43 23-11-2013 14:50:00 7.7 C 6.49 g/m*3 5.94 C 9.7 km/h
44 23-11-2013 14:55:00 7.7 C 6.49 g/m*3 5.65 C 11.3 km/h
45 23-11-2013 15:00:00 7.7 C 6.49 g/m*3 5.65 C 11.3 km/h
46 23-11-2013 15:05:00 7.7 C 6.49 g/m*3 5.94 C 9.7 km/h
47 23-11-2013 15:10:00 7.7 C 6.49 g/m*3 5.65 C 11.3 km/h
48 23-11-2013 15:15:00 7.7 C 6.57 g/m*3 5.94 C 9.7 km/h
49 23-11-2013 15:20:00 7.6 C 6.53 g/m*3 6.16 C 8.1 km/h
50 23-11-2013 15:25:00 7.6 C 6.53 g/m*3 6.6 C 6.4 km/h
Sensor: Nr:Datum:Temp:Abs-Feuchte:Windchill:Wind:
Aussen-T/F 51 23-11-2013 15:30:00 7.6 C 6.61 g/m*3 5.53 C 11.3 km/h
52 23-11-2013 15:35:00 7.5 C 6.56 g/m*3 5.41 C 11.3 km/h
53 23-11-2013 15:40:00 7.4 C 6.6 g/m*3 5.93 C 8.1 km/h
54 23-11-2013 15:45:00 7.4 C 6.6 g/m*3 5.02 C 12.9 km/h
55 23-11-2013 15:50:00 7.4 C 6.6 g/m*3 7.4 C 4.8 km/h
56 23-11-2013 15:55:00 7.4 C 6.6 g/m*3 5.93 C 8.1 km/h
57 23-11-2013 16:00:00 7.3 C 6.64 g/m*3 5.47 C 9.7 km/h
58 23-11-2013 16:05:00 7.3 C 6.64 g/m*3 5.47 C 9.7 km/h
59 23-11-2013 16:10:00 7.3 C 6.64 g/m*3 5.81 C 8.1 km/h
60 23-11-2013 16:15:00 7.3 C 6.72 g/m*3 5.47 C 9.7 km/h
61 23-11-2013 16:20:00 7.3 C 6.72 g/m*3 5.16 C 11.3 km/h
62 23-11-2013 16:25:00 7.3 C 6.79 g/m*3 5.81 C 8.1 km/h
63 23-11-2013 16:30:00 7.2 C 6.75 g/m*3 6.13 C 6.4 km/h
64 23-11-2013 16:35:00 7.2 C 6.75 g/m*3 5.69 C 8.1 km/h
65 23-11-2013 16:40:00 7.2 C 6.75 g/m*3 5.35 C 9.7 km/h
66 23-11-2013 16:45:00 7.1 C 6.79 g/m*3 6.02 C 6.4 km/h
67 23-11-2013 16:50:00 7.1 C 6.79 g/m*3 5.58 C 8.1 km/h
68 23-11-2013 16:55:00 7.1 C 6.79 g/m*3 5.23 C 9.7 km/h
69 23-11-2013 17:00:00 7.1 C 6.79 g/m*3 6.02 C 6.4 km/h
70 23-11-2013 17:05:00 7 C 6.74 g/m*3 7 C 4.8 km/h
71 23-11-2013 17:10:00 7 C 6.82 g/m*3 7 C 4.8 km/h
72 23-11-2013 17:15:00 6.9 C 6.77 g/m*3 6.9 C 4.8 km/h
73 23-11-2013 17:20:00 6.9 C 6.77 g/m*3 5.79 C 6.4 km/h
74 23-11-2013 17:25:00 6.9 C 6.77 g/m*3 4.99 C 9.7 km/h
75 23-11-2013 17:30:00 6.9 C 6.77 g/m*3 4.99 C 9.7 km/h
Sensor: Nr:Datum:Temp:Abs-Feuchte:Windchill:Wind:
Aussen-T/F 76 23-11-2013 17:35:00 6.9 C 6.77 g/m*3 6.9 C 4.8 km/h
77 23-11-2013 17:40:00 6.9 C 6.77 g/m*3 5.34 C 8.1 km/h
78 23-11-2013 17:45:00 6.9 C 6.85 g/m*3 5.79 C 6.4 km/h
79 23-11-2013 17:50:00 6.9 C 6.85 g/m*3 4.68 C 11.3 km/h
80 23-11-2013 17:55:00 6.9 C 6.85 g/m*3 4.68 C 11.3 km/h
81 23-11-2013 18:00:00 6.9 C 6.85 g/m*3 5.79 C 6.4 km/h
82 23-11-2013 18:05:00 6.9 C 6.85 g/m*3 5.79 C 6.4 km/h
83 23-11-2013 18:10:00 6.8 C 6.81 g/m*3 5.22 C 8.1 km/h
84 23-11-2013 18:15:00 6.8 C 6.81 g/m*3 6.8 C 4.8 km/h
85 23-11-2013 18:20:00 6.8 C 6.81 g/m*3 5.22 C 8.1 km/h
86 23-11-2013 18:25:00 6.8 C 6.81 g/m*3 5.67 C 6.4 km/h
87 23-11-2013 18:30:00 6.8 C 6.81 g/m*3 6.8 C 4.8 km/h
88 23-11-2013 18:35:00 6.8 C 6.81 g/m*3 5.22 C 8.1 km/h
89 23-11-2013 18:40:00 6.8 C 6.81 g/m*3 5.67 C 6.4 km/h
90 23-11-2013 18:45:00 6.8 C 6.88 g/m*3 5.22 C 8.1 km/h
91 23-11-2013 18:50:00 6.8 C 6.88 g/m*3 6.8 C 4.8 km/h
92 23-11-2013 18:55:00 6.8 C 6.88 g/m*3 6.8 C 4.8 km/h
93 23-11-2013 19:00:00 6.8 C 6.88 g/m*3 4.56 C 11.3 km/h
94 23-11-2013 19:05:00 6.8 C 6.88 g/m*3 4.87 C 9.7 km/h
95 23-11-2013 19:10:00 6.8 C 6.88 g/m*3 5.67 C 6.4 km/h
96 23-11-2013 19:15:00 6.7 C 6.84 g/m*3 5.56 C 6.4 km/h
97 23-11-2013 19:20:00 6.7 C 6.84 g/m*3 5.11 C 8.1 km/h
98 23-11-2013 19:25:00 6.7 C 6.84 g/m*3 5.56 C 6.4 km/h
99 23-11-2013 19:30:00 6.7 C 6.84 g/m*3 5.56 C 6.4 km/h
100 23-11-2013 19:35:00 6.7 C 6.84 g/m*3 5.56 C 6.4 km/h
Sensor: Nr:Datum:Temp:Abs-Feuchte:Windchill:Wind:
Aussen-T/F 101 23-11-2013 19:40:00 6.7 C 6.84 g/m*3 6.7 C 4.8 km/h
102 23-11-2013 19:45:00 6.7 C 6.84 g/m*3 5.11 C 8.1 km/h
103 23-11-2013 19:50:00 6.7 C 6.84 g/m*3 6.7 C 4.8 km/h
104 23-11-2013 19:55:00 6.7 C 6.84 g/m*3 6.7 C 1.6 km/h
105 23-11-2013 20:00:00 6.7 C 6.84 g/m*3 5.56 C 6.4 km/h
106 23-11-2013 20:05:00 6.7 C 6.84 g/m*3 5.11 C 8.1 km/h
107 23-11-2013 20:10:00 6.7 C 6.84 g/m*3 5.56 C 6.4 km/h
108 23-11-2013 20:15:00 6.7 C 6.84 g/m*3 5.11 C 8.1 km/h
109 23-11-2013 20:20:00 6.7 C 6.84 g/m*3 5.56 C 6.4 km/h
110 23-11-2013 20:25:00 6.7 C 6.84 g/m*3 5.11 C 8.1 km/h
111 23-11-2013 20:30:00 6.7 C 6.84 g/m*3 4.75 C 9.7 km/h
112 23-11-2013 20:35:00 6.7 C 6.84 g/m*3 5.56 C 6.4 km/h
113 23-11-2013 20:40:00 6.7 C 6.84 g/m*3 4.75 C 9.7 km/h
114 23-11-2013 20:45:00 6.7 C 6.84 g/m*3 5.11 C 8.1 km/h
115 23-11-2013 20:50:00 6.8 C 6.88 g/m*3 5.67 C 6.4 km/h
116 23-11-2013 20:55:00 6.8 C 6.88 g/m*3 5.67 C 6.4 km/h
117 23-11-2013 21:00:00 6.8 C 6.88 g/m*3 6.8 C 4.8 km/h
118 23-11-2013 21:05:00 6.8 C 6.88 g/m*3 5.67 C 6.4 km/h
119 23-11-2013 21:10:00 6.8 C 6.88 g/m*3 6.8 C 3.2 km/h
120 23-11-2013 21:15:00 6.8 C 6.88 g/m*3 5.67 C 6.4 km/h
121 23-11-2013 21:20:00 6.8 C 6.88 g/m*3 4.56 C 11.3 km/h
122 23-11-2013 21:25:00 6.8 C 6.88 g/m*3 6.8 C 4.8 km/h
123 23-11-2013 21:30:00 6.8 C 6.88 g/m*3 4.56 C 11.3 km/h
124 23-11-2013 21:35:00 6.8 C 6.88 g/m*3 5.22 C 8.1 km/h
125 23-11-2013 21:40:00 6.8 C 6.81 g/m*3 4.87 C 9.7 km/h
Sensor: Nr:Datum:Temp:Abs-Feuchte:Windchill:Wind:
Aussen-T/F 126 23-11-2013 21:45:00 6.8 C 6.81 g/m*3 5.67 C 6.4 km/h
127 23-11-2013 21:50:00 6.8 C 6.81 g/m*3 4.87 C 9.7 km/h
128 23-11-2013 21:55:00 6.8 C 6.88 g/m*3 5.67 C 6.4 km/h
129 23-11-2013 22:00:00 6.8 C 6.88 g/m*3 5.22 C 8.1 km/h
130 23-11-2013 22:05:00 6.8 C 6.88 g/m*3 4.87 C 9.7 km/h
131 23-11-2013 22:10:00 6.8 C 6.88 g/m*3 5.67 C 6.4 km/h
132 23-11-2013 22:15:00 6.8 C 6.88 g/m*3 4.56 C 11.3 km/h
133 23-11-2013 22:20:00 6.8 C 6.88 g/m*3 5.67 C 6.4 km/h
134 23-11-2013 22:25:00 6.8 C 6.88 g/m*3 6.8 C 3.2 km/h
135 23-11-2013 22:30:00 6.8 C 6.88 g/m*3 6.8 C 4.8 km/h
136 23-11-2013 22:35:00 6.8 C 6.88 g/m*3 6.8 C 4.8 km/h
137 23-11-2013 22:40:00 6.8 C 6.88 g/m*3 5.22 C 8.1 km/h
138 23-11-2013 22:45:00 6.8 C 6.88 g/m*3 6.8 C 3.2 km/h
139 23-11-2013 22:50:00 6.8 C 6.88 g/m*3 5.67 C 6.4 km/h
140 23-11-2013 22:55:00 6.8 C 6.88 g/m*3 6.8 C 3.2 km/h
141 23-11-2013 23:00:00 6.8 C 6.88 g/m*3 6.8 C 1.6 km/h
142 23-11-2013 23:05:00 6.8 C 6.88 g/m*3 6.8 C 4.8 km/h
143 23-11-2013 23:10:00 6.8 C 6.88 g/m*3 6.8 C 4.8 km/h
144 23-11-2013 23:15:00 6.8 C 6.88 g/m*3 6.8 C 3.2 km/h
145 23-11-2013 23:20:00 6.8 C 6.88 g/m*3 6.8 C 3.2 km/h
146 23-11-2013 23:25:00 6.8 C 6.88 g/m*3 6.8 C 1.6 km/h
147 23-11-2013 23:30:00 6.8 C 6.88 g/m*3 6.8 C 3.2 km/h
148 23-11-2013 23:35:00 6.8 C 6.88 g/m*3 6.8 C 0 km/h
149 23-11-2013 23:40:00 6.8 C 6.88 g/m*3 6.8 C 0 km/h
150 23-11-2013 23:45:00 6.8 C 6.88 g/m*3 6.8 C 1.6 km/h
Sensor: Nr:Datum:Temp:Abs-Feuchte:Windchill:Wind:
Aussen-T/F 151 23-11-2013 23:50:00 6.8 C 6.88 g/m*3 6.8 C 1.6 km/h
152 23-11-2013 23:55:00 6.8 C 6.88 g/m*3 5.22 C 8.1 km/h
153 24-11-2013 00:00:00 6.8 C 6.88 g/m*3 6.8 C 1.6 km/h
154 24-11-2013 00:05:00 6.8 C 6.88 g/m*3 6.8 C 3.2 km/h
155 24-11-2013 00:10:00 6.8 C 6.88 g/m*3 6.8 C 4.8 km/h
156 24-11-2013 00:15:00 6.8 C 6.88 g/m*3 6.8 C 3.2 km/h
157 24-11-2013 00:20:00 6.8 C 6.88 g/m*3 6.8 C 4.8 km/h
158 24-11-2013 00:25:00 6.8 C 6.88 g/m*3 5.67 C 6.4 km/h
159 24-11-2013 00:30:00 6.8 C 6.88 g/m*3 6.8 C 3.2 km/h
160 24-11-2013 00:35:00 6.8 C 6.88 g/m*3 5.67 C 6.4 km/h
161 24-11-2013 00:40:00 6.8 C 6.88 g/m*3 6.8 C 4.8 km/h
162 24-11-2013 00:45:00 6.8 C 6.88 g/m*3 6.8 C 3.2 km/h
163 24-11-2013 00:50:00 6.8 C 6.88 g/m*3 5.67 C 6.4 km/h
164 24-11-2013 00:55:00 6.8 C 6.88 g/m*3 6.8 C 4.8 km/h
165 24-11-2013 01:00:00 6.8 C 6.88 g/m*3 6.8 C 0 km/h
166 24-11-2013 01:05:00 6.8 C 6.88 g/m*3 6.8 C 1.6 km/h
167 24-11-2013 01:10:00 6.8 C 6.88 g/m*3 6.8 C 1.6 km/h
168 24-11-2013 01:15:00 6.8 C 6.88 g/m*3 6.8 C 4.8 km/h
169 24-11-2013 01:20:00 6.8 C 6.88 g/m*3 6.8 C 3.2 km/h
170 24-11-2013 01:25:00 6.8 C 6.88 g/m*3 6.8 C 1.6 km/h
171 24-11-2013 01:30:00 6.8 C 6.81 g/m*3 6.8 C 1.6 km/h
172 24-11-2013 01:35:00 6.8 C 6.88 g/m*3 6.8 C 4.8 km/h
173 24-11-2013 01:40:00 6.8 C 6.88 g/m*3 5.22 C 8.1 km/h
174 24-11-2013 01:45:00 6.8 C 6.88 g/m*3 5.22 C 8.1 km/h
175 24-11-2013 01:50:00 6.8 C 6.81 g/m*3 6.8 C 1.6 km/h
Sensor: Nr:Datum:Temp:Abs-Feuchte:Windchill:Wind:
Aussen-T/F 176 24-11-2013 01:55:00 6.8 C 6.81 g/m*3 5.67 C 6.4 km/h
177 24-11-2013 02:00:00 6.8 C 6.81 g/m*3 6.8 C 4.8 km/h
178 24-11-2013 02:05:00 6.7 C 6.76 g/m*3 5.56 C 6.4 km/h
179 24-11-2013 02:10:00 6.7 C 6.76 g/m*3 5.56 C 6.4 km/h
180 24-11-2013 02:15:00 6.7 C 6.76 g/m*3 4.75 C 9.7 km/h
181 24-11-2013 02:20:00 6.7 C 6.76 g/m*3 4.75 C 9.7 km/h
182 24-11-2013 02:25:00 6.8 C 6.81 g/m*3 6.8 C 4.8 km/h
183 24-11-2013 02:30:00 6.7 C 6.76 g/m*3 6.7 C 4.8 km/h
184 24-11-2013 02:35:00 6.7 C 6.76 g/m*3 6.7 C 4.8 km/h
185 24-11-2013 02:40:00 6.7 C 6.76 g/m*3 6.7 C 1.6 km/h
186 24-11-2013 02:45:00 6.7 C 6.76 g/m*3 6.7 C 4.8 km/h
187 24-11-2013 02:50:00 6.7 C 6.69 g/m*3 6.7 C 1.6 km/h
188 24-11-2013 02:55:00 6.7 C 6.69 g/m*3 6.7 C 4.8 km/h
189 24-11-2013 03:00:00 6.7 C 6.69 g/m*3 6.7 C 4.8 km/h
190 24-11-2013 03:05:00 6.7 C 6.69 g/m*3 5.11 C 8.1 km/h
191 24-11-2013 03:10:00 6.7 C 6.61 g/m*3 5.56 C 6.4 km/h
192 24-11-2013 03:15:00 6.7 C 6.61 g/m*3 6.7 C 3.2 km/h
193 24-11-2013 03:20:00 6.6 C 6.57 g/m*3 6.6 C 4.8 km/h
194 24-11-2013 03:25:00 6.6 C 6.64 g/m*3 5.44 C 6.4 km/h
195 24-11-2013 03:30:00 6.6 C 6.57 g/m*3 6.6 C 3.2 km/h
196 24-11-2013 03:35:00 6.6 C 6.57 g/m*3 6.6 C 4.8 km/h
197 24-11-2013 03:40:00 6.5 C 6.6 g/m*3 4.87 C 8.1 km/h
198 24-11-2013 03:45:00 6.5 C 6.6 g/m*3 4.87 C 8.1 km/h
199 24-11-2013 03:50:00 6.4 C 6.56 g/m*3 5.21 C 6.4 km/h
200 24-11-2013 03:55:00 6.4 C 6.48 g/m*3 4.75 C 8.1 km/h
Sensor: Nr:Datum:Temp:Abs-Feuchte:Windchill:Wind:
Aussen-T/F 201 24-11-2013 04:00:00 6.4 C 6.48 g/m*3 5.21 C 6.4 km/h
202 24-11-2013 04:05:00 6.4 C 6.48 g/m*3 4.75 C 8.1 km/h
203 24-11-2013 04:10:00 6.5 C 6.52 g/m*3 6.5 C 4.8 km/h
204 24-11-2013 04:15:00 6.5 C 6.52 g/m*3 6.5 C 4.8 km/h
205 24-11-2013 04:20:00 6.4 C 6.48 g/m*3 6.4 C 3.2 km/h
206 24-11-2013 04:25:00 6.4 C 6.48 g/m*3 6.4 C 4.8 km/h
207 24-11-2013 04:30:00 6.4 C 6.48 g/m*3 5.21 C 6.4 km/h
208 24-11-2013 04:35:00 6.3 C 6.51 g/m*3 5.1 C 6.4 km/h
209 24-11-2013 04:40:00 6.2 C 6.47 g/m*3 4.98 C 6.4 km/h
210 24-11-2013 04:45:00 6.2 C 6.47 g/m*3 4.52 C 8.1 km/h
211 24-11-2013 04:50:00 6.1 C 6.5 g/m*3 3.43 C 12.9 km/h
212 24-11-2013 04:55:00 6.1 C 6.5 g/m*3 3.43 C 12.9 km/h
213 24-11-2013 05:00:00 6 C 6.46 g/m*3 3.31 C 12.9 km/h
214 24-11-2013 05:05:00 5.9 C 6.42 g/m*3 3.48 C 11.3 km/h
215 24-11-2013 05:10:00 5.8 C 6.45 g/m*3 3.68 C 9.7 km/h
216 24-11-2013 05:15:00 5.8 C 6.45 g/m*3 3.68 C 9.7 km/h
217 24-11-2013 05:20:00 5.7 C 6.4 g/m*3 3.93 C 8.1 km/h
218 24-11-2013 05:25:00 5.7 C 6.4 g/m*3 3.93 C 8.1 km/h
219 24-11-2013 05:30:00 5.6 C 6.36 g/m*3 5.6 C 4.8 km/h
220 24-11-2013 05:35:00 5.6 C 6.36 g/m*3 5.6 C 3.2 km/h
221 24-11-2013 05:40:00 5.6 C 6.36 g/m*3 4.29 C 6.4 km/h
222 24-11-2013 05:45:00 5.6 C 6.43 g/m*3 3.81 C 8.1 km/h
223 24-11-2013 05:50:00 5.5 C 6.39 g/m*3 5.5 C 3.2 km/h
224 24-11-2013 05:55:00 5.4 C 6.35 g/m*3 4.06 C 6.4 km/h
225 24-11-2013 06:00:00 5.4 C 6.28 g/m*3 3.58 C 8.1 km/h
Sensor: Nr:Datum:Temp:Abs-Feuchte:Windchill:Wind:
Aussen-T/F 226 24-11-2013 06:05:00 5.4 C 6.35 g/m*3 3.2 C 9.7 km/h
227 24-11-2013 06:10:00 5.4 C 6.35 g/m*3 4.06 C 6.4 km/h
228 24-11-2013 06:15:00 5.3 C 6.31 g/m*3 5.3 C 4.8 km/h
229 24-11-2013 06:20:00 5.3 C 6.31 g/m*3 3.94 C 6.4 km/h
230 24-11-2013 06:25:00 5.3 C 6.31 g/m*3 3.94 C 6.4 km/h
231 24-11-2013 06:30:00 5.3 C 6.31 g/m*3 5.3 C 4.8 km/h
232 24-11-2013 06:35:00 5.3 C 6.31 g/m*3 3.46 C 8.1 km/h
233 24-11-2013 06:40:00 5.2 C 6.27 g/m*3 3.34 C 8.1 km/h
234 24-11-2013 06:45:00 5.2 C 6.27 g/m*3 3.82 C 6.4 km/h
235 24-11-2013 06:50:00 5.2 C 6.27 g/m*3 5.2 C 4.8 km/h
236 24-11-2013 06:55:00 5.2 C 6.27 g/m*3 3.34 C 8.1 km/h
237 24-11-2013 07:00:00 5.1 C 6.22 g/m*3 3.71 C 6.4 km/h
238 24-11-2013 07:05:00 5.1 C 6.16 g/m*3 3.23 C 8.1 km/h
239 24-11-2013 07:10:00 5.1 C 6.22 g/m*3 3.71 C 6.4 km/h
240 24-11-2013 07:15:00 5.1 C 6.22 g/m*3 3.71 C 6.4 km/h
241 24-11-2013 07:20:00 5.1 C 6.16 g/m*3 3.71 C 6.4 km/h
242 24-11-2013 07:25:00 5.1 C 6.16 g/m*3 3.71 C 6.4 km/h
243 24-11-2013 07:30:00 5.1 C 6.16 g/m*3 5.1 C 4.8 km/h
244 24-11-2013 07:35:00 5 C 6.12 g/m*3 5 C 4.8 km/h
245 24-11-2013 07:40:00 5 C 6.12 g/m*3 5 C 1.6 km/h
246 24-11-2013 07:45:00 5 C 6.12 g/m*3 5 C 0 km/h
247 24-11-2013 07:50:00 4.9 C 6.08 g/m*3 4.9 C 3.2 km/h
248 24-11-2013 07:55:00 4.9 C 6.08 g/m*3 4.9 C 3.2 km/h
249 24-11-2013 08:00:00 4.9 C 6.08 g/m*3 4.9 C 3.2 km/h
250 24-11-2013 08:05:00 4.8 C 6.04 g/m*3 4.8 C 4.8 km/h
Sensor: Nr:Datum:Temp:Abs-Feuchte:Windchill:Wind:
Aussen-T/F 251 24-11-2013 08:10:00 4.8 C 6.04 g/m*3 4.8 C 3.2 km/h
252 24-11-2013 08:15:00 4.7 C 6 g/m*3 4.7 C 4.8 km/h
253 24-11-2013 08:20:00 4.6 C 5.96 g/m*3 4.6 C 3.2 km/h
254 24-11-2013 08:25:00 4.6 C 5.96 g/m*3 4.6 C 1.6 km/h
255 24-11-2013 08:30:00 4.6 C 5.96 g/m*3 4.6 C 3.2 km/h
256 24-11-2013 08:35:00 4.6 C 5.96 g/m*3 4.6 C 1.6 km/h
257 24-11-2013 09:00:00 4.3 C 5.77 g/m*3 4.3 C 4.8 km/h
258 24-11-2013 09:05:00 4.4 C 5.81 g/m*3 4.4 C 1.6 km/h
259 24-11-2013 09:10:00 4.4 C 5.75 g/m*3 4.4 C 4.8 km/h
260 24-11-2013 09:15:00 4.4 C 5.75 g/m*3 4.4 C 3.2 km/h
261 24-11-2013 09:20:00 4.4 C 5.75 g/m*3 4.4 C 4.8 km/h
262 24-11-2013 09:25:00 4.4 C 5.75 g/m*3 4.4 C 0 km/h
263 24-11-2013 09:30:00 4.4 C 5.75 g/m*3 4.4 C 3.2 km/h
264 24-11-2013 09:35:00 4.2 C 5.73 g/m*3 4.2 C 1.6 km/h
265 24-11-2013 09:40:00 4.2 C 5.8 g/m*3 4.2 C 1.6 km/h
266 24-11-2013 09:45:00 4.4 C 5.88 g/m*3 4.4 C 3.2 km/h
267 24-11-2013 09:50:00 4.6 C 5.89 g/m*3 4.6 C 0 km/h
268 24-11-2013 09:55:00 4.7 C 5.93 g/m*3 4.7 C 3.2 km/h
269 24-11-2013 10:00:00 4.8 C 5.83 g/m*3 4.8 C 3.2 km/h
270 24-11-2013 10:05:00 5.1 C 5.95 g/m*3 5.1 C 3.2 km/h
271 24-11-2013 10:10:00 5.2 C 5.92 g/m*3 5.2 C 0 km/h
272 24-11-2013 10:15:00 5.2 C 5.92 g/m*3 5.2 C 3.2 km/h
273 24-11-2013 10:20:00 5.2 C 5.92 g/m*3 5.2 C 3.2 km/h
274 24-11-2013 10:25:00 5.4 C 6 g/m*3 5.4 C 1.6 km/h
275 24-11-2013 10:30:00 5.5 C 5.97 g/m*3 5.5 C 4.8 km/h
Sensor: Nr:Datum:Temp:Abs-Feuchte:Windchill:Wind:
Aussen-T/F 276 24-11-2013 10:35:00 5.5 C 5.97 g/m*3 5.5 C 4.8 km/h
277 24-11-2013 10:40:00 5.6 C 6.01 g/m*3 5.6 C 3.2 km/h
278 24-11-2013 10:45:00 5.6 C 5.94 g/m*3 5.6 C 3.2 km/h
279 24-11-2013 10:50:00 5.7 C 6.05 g/m*3 5.7 C 3.2 km/h
280 24-11-2013 10:55:00 5.7 C 5.98 g/m*3 5.7 C 1.6 km/h
281 24-11-2013 11:00:00 5.7 C 5.98 g/m*3 3.93 C 8.1 km/h
282 24-11-2013 11:05:00 5.6 C 6.01 g/m*3 4.29 C 6.4 km/h
283 24-11-2013 11:10:00 5.6 C 6.01 g/m*3 3.44 C 9.7 km/h
284 24-11-2013 11:15:00 5.5 C 5.97 g/m*3 4.17 C 6.4 km/h
285 24-11-2013 11:20:00 5.5 C 5.97 g/m*3 4.17 C 6.4 km/h
286 24-11-2013 11:25:00 5.5 C 6.04 g/m*3 4.17 C 6.4 km/h
287 24-11-2013 11:30:00 5.5 C 6.04 g/m*3 3.32 C 9.7 km/h
288 24-11-2013 11:35:00 5.6 C 6.08 g/m*3 3.44 C 9.7 km/h
289 24-11-2013 11:40:00 5.6 C 6.15 g/m*3 5.6 C 4.8 km/h
290 24-11-2013 11:45:00 5.6 C 6.22 g/m*3 2.83 C 12.9 km/h
291 24-11-2013 11:50:00 5.5 C 6.18 g/m*3 3.7 C 8.1 km/h
292 24-11-2013 11:55:00 5.4 C 6.21 g/m*3 3.58 C 8.1 km/h
293 24-11-2013 12:00:00 5.3 C 6.17 g/m*3 3.08 C 9.7 km/h
294 24-11-2013 12:05:00 5.2 C 6.2 g/m*3 2.96 C 9.7 km/h
295 24-11-2013 12:10:00 5 C 6.05 g/m*3 3.59 C 6.4 km/h
296 24-11-2013 12:15:00 4.9 C 6.01 g/m*3 2.99 C 8.1 km/h
297 24-11-2013 12:20:00 4.8 C 5.97 g/m*3 2.15 C 11.3 km/h
298 24-11-2013 12:25:00 4.8 C 6.04 g/m*3 2.49 C 9.7 km/h
299 24-11-2013 12:30:00 4.8 C 6.1 g/m*3 3.36 C 6.4 km/h
300 24-11-2013 12:35:00 4.8 C 6.1 g/m*3 4.8 C 3.2 km/h
Sensor: Nr:Datum:Temp:Abs-Feuchte:Windchill:Wind:
Aussen-T/F 301 24-11-2013 12:40:00 4.9 C 6.14 g/m*3 3.48 C 6.4 km/h
302 24-11-2013 12:45:00 4.9 C 6.14 g/m*3 2.61 C 9.7 km/h
303 24-11-2013 12:50:00 4.9 C 6.14 g/m*3 3.48 C 6.4 km/h
304 24-11-2013 12:55:00 5 C 6.18 g/m*3 3.11 C 8.1 km/h
305 24-11-2013 13:00:00 5.1 C 6.22 g/m*3 3.71 C 6.4 km/h
306 24-11-2013 13:05:00 5.1 C 6.22 g/m*3 2.84 C 9.7 km/h
307 24-11-2013 13:10:00 5.1 C 6.22 g/m*3 3.23 C 8.1 km/h
308 24-11-2013 13:15:00 5.1 C 6.22 g/m*3 3.71 C 6.4 km/h
309 24-11-2013 13:20:00 5.1 C 6.29 g/m*3 3.71 C 6.4 km/h
310 24-11-2013 13:25:00 5.2 C 6.27 g/m*3 5.2 C 3.2 km/h
311 24-11-2013 13:30:00 5.2 C 6.27 g/m*3 3.82 C 6.4 km/h
312 24-11-2013 13:35:00 5.2 C 6.27 g/m*3 5.2 C 4.8 km/h
313 24-11-2013 13:40:00 5.2 C 6.27 g/m*3 5.2 C 3.2 km/h
314 24-11-2013 13:45:00 5.3 C 6.31 g/m*3 3.94 C 6.4 km/h
315 24-11-2013 13:50:00 5.3 C 6.31 g/m*3 5.3 C 4.8 km/h
316 24-11-2013 13:55:00 5.3 C 6.31 g/m*3 5.3 C 3.2 km/h
317 24-11-2013 14:00:00 5.4 C 6.28 g/m*3 5.4 C 4.8 km/h
318 24-11-2013 14:05:00 5.4 C 6.28 g/m*3 4.06 C 6.4 km/h
319 24-11-2013 14:10:00 5.4 C 6.35 g/m*3 4.06 C 6.4 km/h
320 24-11-2013 14:15:00 5.4 C 6.35 g/m*3 4.06 C 6.4 km/h
321 24-11-2013 14:20:00 5.4 C 6.35 g/m*3 4.06 C 6.4 km/h
322 24-11-2013 14:25:00 5.4 C 6.35 g/m*3 4.06 C 6.4 km/h
323 24-11-2013 14:30:00 5.4 C 6.35 g/m*3 5.4 C 4.8 km/h
324 24-11-2013 14:35:00 5.4 C 6.35 g/m*3 4.06 C 6.4 km/h
325 24-11-2013 14:40:00 5.4 C 6.35 g/m*3 5.4 C 3.2 km/h
Sensor: Nr:Datum:Temp:Abs-Feuchte:Windchill:Wind:
Aussen-T/F 326 24-11-2013 14:45:00 5.4 C 6.42 g/m*3 5.4 C 4.8 km/h
327 24-11-2013 14:50:00 5.4 C 6.42 g/m*3 5.4 C 3.2 km/h
328 24-11-2013 14:55:00 5.4 C 6.42 g/m*3 5.4 C 4.8 km/h
329 24-11-2013 15:00:00 5.4 C 6.42 g/m*3 5.4 C 1.6 km/h
330 24-11-2013 15:05:00 5.5 C 6.46 g/m*3 3.32 C 9.7 km/h
331 24-11-2013 15:10:00 5.5 C 6.46 g/m*3 3.7 C 8.1 km/h
332 24-11-2013 15:15:00 5.5 C 6.46 g/m*3 3.7 C 8.1 km/h
333 24-11-2013 15:20:00 5.5 C 6.46 g/m*3 5.5 C 3.2 km/h
334 24-11-2013 15:25:00 5.6 C 6.5 g/m*3 4.29 C 6.4 km/h
335 24-11-2013 15:30:00 5.6 C 6.5 g/m*3 3.11 C 11.3 km/h
336 24-11-2013 15:35:00 5.6 C 6.5 g/m*3 5.6 C 4.8 km/h
337 24-11-2013 15:40:00 5.6 C 6.5 g/m*3 5.6 C 4.8 km/h
338 24-11-2013 15:45:00 5.6 C 6.5 g/m*3 4.29 C 6.4 km/h
339 24-11-2013 15:50:00 5.7 C 6.55 g/m*3 5.7 C 4.8 km/h
340 24-11-2013 15:55:00 5.7 C 6.55 g/m*3 4.4 C 6.4 km/h
341 24-11-2013 16:00:00 5.7 C 6.62 g/m*3 5.7 C 3.2 km/h
342 24-11-2013 16:05:00 5.7 C 6.55 g/m*3 5.7 C 4.8 km/h
343 24-11-2013 16:10:00 5.7 C 6.55 g/m*3 5.7 C 4.8 km/h
344 24-11-2013 16:15:00 5.8 C 6.59 g/m*3 5.8 C 4.8 km/h
345 24-11-2013 16:20:00 5.8 C 6.59 g/m*3 4.52 C 6.4 km/h
346 24-11-2013 16:25:00 5.8 C 6.59 g/m*3 5.8 C 4.8 km/h
347 24-11-2013 16:30:00 5.8 C 6.59 g/m*3 5.8 C 3.2 km/h
348 24-11-2013 16:35:00 5.8 C 6.59 g/m*3 4.05 C 8.1 km/h
349 24-11-2013 16:40:00 5.8 C 6.59 g/m*3 5.8 C 4.8 km/h
350 24-11-2013 16:45:00 5.9 C 6.63 g/m*3 5.9 C 1.6 km/h
Sensor: Nr:Datum:Temp:Abs-Feuchte:Windchill:Wind:
Aussen-T/F 351 24-11-2013 16:50:00 5.9 C 6.63 g/m*3 5.9 C 3.2 km/h
352 24-11-2013 16:55:00 5.9 C 6.63 g/m*3 5.9 C 3.2 km/h
353 24-11-2013 17:00:00 5.9 C 6.56 g/m*3 5.9 C 3.2 km/h
354 24-11-2013 17:05:00 6 C 6.6 g/m*3 4.75 C 6.4 km/h
355 24-11-2013 17:10:00 6.1 C 6.65 g/m*3 4.4 C 8.1 km/h
356 24-11-2013 17:15:00 6.1 C 6.58 g/m*3 6.1 C 3.2 km/h
357 24-11-2013 17:20:00 6.1 C 6.58 g/m*3 4.86 C 6.4 km/h
358 24-11-2013 17:25:00 6.2 C 6.62 g/m*3 6.2 C 3.2 km/h
359 24-11-2013 17:30:00 6.2 C 6.55 g/m*3 4.15 C 9.7 km/h
360 24-11-2013 17:35:00 6.2 C 6.55 g/m*3 4.52 C 8.1 km/h
361 24-11-2013 17:40:00 6.2 C 6.55 g/m*3 4.15 C 9.7 km/h
362 24-11-2013 17:45:00 6.1 C 6.28 g/m*3 4.4 C 8.1 km/h
363 24-11-2013 17:50:00 6.1 C 6.28 g/m*3 4.86 C 6.4 km/h
364 24-11-2013 17:55:00 6.1 C 6.21 g/m*3 4.04 C 9.7 km/h
365 24-11-2013 18:00:00 6.1 C 6.21 g/m*3 4.4 C 8.1 km/h
366 24-11-2013 18:05:00 6.1 C 6.21 g/m*3 4.4 C 8.1 km/h
367 24-11-2013 18:10:00 6.1 C 6.06 g/m*3 2.73 C 17.7 km/h
368 24-11-2013 18:15:00 6.1 C 6.06 g/m*3 3.43 C 12.9 km/h
369 24-11-2013 18:20:00 6.1 C 5.99 g/m*3 3.43 C 12.9 km/h
370 24-11-2013 18:25:00 6.2 C 5.96 g/m*3 4.15 C 9.7 km/h
371 24-11-2013 18:30:00 6.2 C 5.88 g/m*3 4.52 C 8.1 km/h
372 24-11-2013 18:35:00 6.1 C 5.84 g/m*3 4.04 C 9.7 km/h
373 24-11-2013 18:40:00 6.1 C 5.84 g/m*3 4.86 C 6.4 km/h
374 24-11-2013 18:45:00 6.1 C 5.84 g/m*3 4.4 C 8.1 km/h
375 24-11-2013 19:25:00 5.7 C 5.05 g/m*3 4.4 C 6.4 km/h
Sensor: Nr:Datum:Temp:Abs-Feuchte:Windchill:Wind:
Aussen-T/F 376 24-11-2013 19:30:00 5.7 C 5.05 g/m*3 5.7 C 4.8 km/h
377 24-11-2013 19:35:00 5.6 C 4.95 g/m*3 5.6 C 4.8 km/h
378 24-11-2013 19:40:00 5.6 C 4.95 g/m*3 4.29 C 6.4 km/h
379 24-11-2013 19:45:00 5.6 C 4.95 g/m*3 4.29 C 6.4 km/h
380 24-11-2013 19:50:00 5.5 C 4.92 g/m*3 5.5 C 1.6 km/h
381 24-11-2013 19:55:00 5.5 C 4.92 g/m*3 5.5 C 3.2 km/h
382 24-11-2013 20:00:00 5.5 C 4.92 g/m*3 5.5 C 1.6 km/h
383 25-11-2013 09:45:00 0.4 C 4.98 g/m*3 -1.72 C 6.4 km/h
384 25-11-2013 09:50:00 0.6 C 5.05 g/m*3 -2.52 C 9.7 km/h
385 25-11-2013 09:55:00 0.6 C 4.7 g/m*3 0.6 C 4.8 km/h
386 25-11-2013 10:00:00 0.7 C 4.73 g/m*3 0.7 C 1.6 km/h
387 25-11-2013 10:05:00 0.8 C 4.76 g/m*3 0.8 C 3.2 km/h
388 25-11-2013 10:10:00 0.8 C 4.76 g/m*3 -1.26 C 6.4 km/h
389 25-11-2013 10:15:00 0.8 C 4.71 g/m*3 -1.83 C 8.1 km/h
390 25-11-2013 10:20:00 0.9 C 4.74 g/m*3 -1.14 C 6.4 km/h
391 25-11-2013 10:25:00 0.9 C 4.74 g/m*3 -1.14 C 6.4 km/h
392 25-11-2013 10:30:00 0.9 C 4.74 g/m*3 -1.71 C 8.1 km/h
393 25-11-2013 10:35:00 0.9 C 4.74 g/m*3 -1.71 C 8.1 km/h
394 25-11-2013 10:40:00 1 C 4.78 g/m*3 1 C 4.8 km/h
395 25-11-2013 10:45:00 1.1 C 4.81 g/m*3 -1.48 C 8.1 km/h
396 25-11-2013 10:50:00 1.1 C 4.81 g/m*3 -0.91 C 6.4 km/h
397 25-11-2013 10:55:00 1.1 C 4.81 g/m*3 -1.48 C 8.1 km/h
398 25-11-2013 11:00:00 1.2 C 4.79 g/m*3 -0.8 C 6.4 km/h
399 25-11-2013 11:05:00 1.2 C 4.79 g/m*3 -0.8 C 6.4 km/h
400 25-11-2013 11:10:00 1.2 C 4.79 g/m*3 1.2 C 3.2 km/h
Sensor: Nr:Datum:Temp:Abs-Feuchte:Windchill:Wind:
Aussen-T/F 401 25-11-2013 11:15:00 1.3 C 4.82 g/m*3 -0.68 C 6.4 km/h
402 25-11-2013 11:20:00 1.3 C 4.82 g/m*3 -0.68 C 6.4 km/h
403 25-11-2013 11:25:00 1.3 C 4.82 g/m*3 -0.68 C 6.4 km/h
404 25-11-2013 11:30:00 1.4 C 4.85 g/m*3 -1.12 C 8.1 km/h
405 25-11-2013 11:35:00 1.4 C 4.85 g/m*3 -1.95 C 11.3 km/h
406 25-11-2013 11:40:00 1.6 C 4.87 g/m*3 -1.71 C 11.3 km/h
407 25-11-2013 11:45:00 1.6 C 4.87 g/m*3 -0.89 C 8.1 km/h
408 25-11-2013 11:50:00 1.7 C 4.9 g/m*3 -0.77 C 8.1 km/h
409 25-11-2013 11:55:00 1.8 C 4.93 g/m*3 -0.1 C 6.4 km/h
410 25-11-2013 12:00:00 1.8 C 4.93 g/m*3 -0.1 C 6.4 km/h
411 25-11-2013 12:05:00 1.9 C 4.97 g/m*3 1.9 C 4.8 km/h
412 25-11-2013 12:10:00 1.9 C 4.97 g/m*3 0.01 C 6.4 km/h
413 25-11-2013 12:15:00 2 C 5 g/m*3 -0.42 C 8.1 km/h
414 25-11-2013 12:20:00 2 C 5.06 g/m*3 -0.42 C 8.1 km/h
415 25-11-2013 12:25:00 2.1 C 5.09 g/m*3 2.1 C 4.8 km/h
416 25-11-2013 12:30:00 2.2 C 5.13 g/m*3 0.36 C 6.4 km/h
417 25-11-2013 12:35:00 2.2 C 5.07 g/m*3 -0.18 C 8.1 km/h
418 25-11-2013 12:40:00 2.3 C 5.1 g/m*3 0.47 C 6.4 km/h
419 25-11-2013 12:45:00 2.3 C 5.1 g/m*3 0.47 C 6.4 km/h
420 25-11-2013 12:50:00 2.3 C 5.1 g/m*3 2.3 C 3.2 km/h
421 25-11-2013 12:55:00 2.3 C 5.1 g/m*3 2.3 C 3.2 km/h
422 25-11-2013 13:00:00 2.4 C 5.14 g/m*3 0.05 C 8.1 km/h
423 25-11-2013 13:05:00 2.4 C 5.14 g/m*3 0.05 C 8.1 km/h
424 25-11-2013 13:10:00 2.4 C 5.2 g/m*3 2.4 C 1.6 km/h
425 25-11-2013 13:15:00 2.4 C 5.2 g/m*3 2.4 C 1.6 km/h
Sensor: Nr:Datum:Temp:Abs-Feuchte:Windchill:Wind:
Aussen-T/F 426 25-11-2013 13:20:00 2.4 C 5.2 g/m*3 0.59 C 6.4 km/h
427 25-11-2013 13:25:00 2.4 C 5.2 g/m*3 2.4 C 4.8 km/h
428 25-11-2013 13:30:00 2.5 C 5.23 g/m*3 0.71 C 6.4 km/h
429 25-11-2013 13:35:00 2.5 C 5.23 g/m*3 2.5 C 4.8 km/h
430 25-11-2013 13:40:00 2.6 C 5.27 g/m*3 2.6 C 1.6 km/h
431 25-11-2013 13:45:00 2.7 C 5.3 g/m*3 2.7 C 3.2 km/h
432 25-11-2013 13:50:00 2.7 C 5.3 g/m*3 2.7 C 3.2 km/h
433 25-11-2013 13:55:00 2.8 C 5.34 g/m*3 2.8 C 4.8 km/h
434 25-11-2013 14:00:00 2.8 C 5.34 g/m*3 2.8 C 4.8 km/h
435 25-11-2013 14:05:00 2.8 C 5.34 g/m*3 2.8 C 4.8 km/h
436 25-11-2013 14:10:00 2.8 C 5.34 g/m*3 2.8 C 1.6 km/h
437 25-11-2013 14:15:00 2.8 C 5.34 g/m*3 2.8 C 1.6 km/h
438 25-11-2013 14:20:00 2.8 C 5.34 g/m*3 2.8 C 0 km/h
439 25-11-2013 14:25:00 2.9 C 5.37 g/m*3 2.9 C 3.2 km/h
440 25-11-2013 14:30:00 2.9 C 5.43 g/m*3 2.9 C 1.6 km/h
441 25-11-2013 14:35:00 3 C 5.47 g/m*3 3 C 3.2 km/h
442 25-11-2013 14:40:00 3.1 C 5.51 g/m*3 3.1 C 1.6 km/h
443 25-11-2013 14:45:00 3.1 C 5.51 g/m*3 3.1 C 0 km/h
444 25-11-2013 14:50:00 3.1 C 5.57 g/m*3 3.1 C 3.2 km/h
445 25-11-2013 14:55:00 3.1 C 5.51 g/m*3 3.1 C 3.2 km/h
446 25-11-2013 15:00:00 3.1 C 5.51 g/m*3 3.1 C 0 km/h
447 25-11-2013 15:05:00 3.1 C 5.57 g/m*3 3.1 C 4.8 km/h
448 25-11-2013 15:10:00 3 C 5.53 g/m*3 3 C 3.2 km/h
449 25-11-2013 15:15:00 3.1 C 5.57 g/m*3 3.1 C 1.6 km/h
450 25-11-2013 15:20:00 3.1 C 5.57 g/m*3 3.1 C 3.2 km/h
Sensor: Nr:Datum:Temp:Abs-Feuchte:Windchill:Wind:
Aussen-T/F 451 25-11-2013 15:25:00 3.2 C 5.66 g/m*3 3.2 C 3.2 km/h
452 25-11-2013 15:30:00 3.2 C 5.66 g/m*3 3.2 C 4.8 km/h
453 25-11-2013 15:35:00 3.2 C 5.66 g/m*3 3.2 C 4.8 km/h
454 25-11-2013 15:40:00 3.2 C 5.66 g/m*3 3.2 C 1.6 km/h
455 25-11-2013 15:45:00 3.2 C 5.66 g/m*3 3.2 C 3.2 km/h
456 25-11-2013 15:50:00 3.2 C 5.66 g/m*3 3.2 C 0 km/h
457 25-11-2013 15:55:00 3.2 C 5.66 g/m*3 3.2 C 1.6 km/h
458 25-11-2013 16:00:00 3.2 C 5.66 g/m*3 3.2 C 0 km/h
459 25-11-2013 16:05:00 3.2 C 5.66 g/m*3 3.2 C 0 km/h
460 25-11-2013 16:10:00 3.3 C 5.7 g/m*3 3.3 C 0 km/h
461 25-11-2013 16:15:00 3.3 C 5.7 g/m*3 3.3 C 1.6 km/h
462 25-11-2013 16:20:00 3.3 C 5.7 g/m*3 3.3 C 3.2 km/h
463 25-11-2013 16:25:00 3.6 C 5.88 g/m*3 3.6 C 1.6 km/h
464 25-11-2013 16:30:00 3.7 C 5.92 g/m*3 3.7 C 0 km/h
465 25-11-2013 16:35:00 3.8 C 6.02 g/m*3 3.8 C 1.6 km/h
466 25-11-2013 16:40:00 3.9 C 6 g/m*3 3.9 C 3.2 km/h
467 25-11-2013 16:45:00 4 C 6.04 g/m*3 4 C 1.6 km/h
468 25-11-2013 16:50:00 4.1 C 6.08 g/m*3 4.1 C 3.2 km/h
469 25-11-2013 16:55:00 4.1 C 6.08 g/m*3 4.1 C 0 km/h
470 25-11-2013 17:00:00 4.1 C 6.08 g/m*3 4.1 C 1.6 km/h
471 25-11-2013 17:05:00 4.1 C 6.08 g/m*3 4.1 C 1.6 km/h
472 25-11-2013 17:10:00 4.1 C 6.08 g/m*3 4.1 C 1.6 km/h
473 25-11-2013 17:15:00 4.1 C 6.08 g/m*3 4.1 C 1.6 km/h
474 25-11-2013 17:20:00 4.1 C 6.08 g/m*3 4.1 C 4.8 km/h
475 25-11-2013 17:25:00 4.1 C 6.08 g/m*3 4.1 C 0 km/h
Sensor: Nr:Datum:Temp:Abs-Feuchte:Windchill:Wind:
Aussen-T/F 476 25-11-2013 17:30:00 4.1 C 6.08 g/m*3 4.1 C 0 km/h
477 25-11-2013 17:35:00 4.1 C 6.08 g/m*3 4.1 C 0 km/h
478 25-11-2013 17:40:00 4.1 C 6.08 g/m*3 4.1 C 0 km/h
479 25-11-2013 17:45:00 4.1 C 6.08 g/m*3 4.1 C 1.6 km/h
480 25-11-2013 17:50:00 4.1 C 6.08 g/m*3 4.1 C 1.6 km/h
481 25-11-2013 17:55:00 4.1 C 6.08 g/m*3 4.1 C 1.6 km/h
482 25-11-2013 18:00:00 4.1 C 6.08 g/m*3 4.1 C 0 km/h
483 25-11-2013 18:05:00 4.1 C 6.08 g/m*3 4.1 C 0 km/h
484 25-11-2013 18:10:00 4 C 6.04 g/m*3 4 C 0 km/h
485 25-11-2013 18:15:00 4.1 C 6.14 g/m*3 4.1 C 0 km/h
486 25-11-2013 18:20:00 4.1 C 6.14 g/m*3 4.1 C 0 km/h
487 25-11-2013 18:25:00 4.1 C 6.14 g/m*3 4.1 C 0 km/h
488 25-11-2013 18:30:00 4.1 C 6.14 g/m*3 4.1 C 0 km/h
489 25-11-2013 18:35:00 4.1 C 6.14 g/m*3 4.1 C 0 km/h
490 25-11-2013 18:40:00 4.1 C 6.14 g/m*3 2.55 C 6.4 km/h
491 25-11-2013 18:45:00 4.1 C 6.08 g/m*3 2.05 C 8.1 km/h
492 25-11-2013 18:50:00 4.1 C 6.08 g/m*3 4.1 C 3.2 km/h
493 25-11-2013 18:55:00 3.9 C 6 g/m*3 3.9 C 3.2 km/h
494 25-11-2013 19:00:00 3.8 C 5.9 g/m*3 3.8 C 0 km/h
495 25-11-2013 19:05:00 3.8 C 5.9 g/m*3 3.8 C 0 km/h
496 25-11-2013 19:10:00 3.7 C 5.92 g/m*3 3.7 C 0 km/h
497 25-11-2013 19:15:00 3.7 C 5.92 g/m*3 3.7 C 1.6 km/h
498 25-11-2013 19:20:00 3.6 C 5.88 g/m*3 3.6 C 1.6 km/h
499 25-11-2013 19:25:00 3.5 C 5.84 g/m*3 3.5 C 0 km/h
500 25-11-2013 19:30:00 3.4 C 5.8 g/m*3 3.4 C 0 km/h
Sensor: Nr:Datum:Temp:Abs-Feuchte:Windchill:Wind:
Aussen-T/F 501 25-11-2013 19:35:00 3.4 C 5.8 g/m*3 3.4 C 0 km/h
502 25-11-2013 19:40:00 3.4 C 5.8 g/m*3 3.4 C 3.2 km/h
503 25-11-2013 19:45:00 3.4 C 5.86 g/m*3 3.4 C 0 km/h
504 25-11-2013 19:50:00 3.4 C 5.86 g/m*3 3.4 C 0 km/h
505 25-11-2013 19:55:00 3.4 C 5.86 g/m*3 3.4 C 0 km/h
506 25-11-2013 20:00:00 3.4 C 5.86 g/m*3 3.4 C 0 km/h
507 25-11-2013 20:05:00 3.5 C 5.9 g/m*3 3.5 C 0 km/h
508 25-11-2013 20:10:00 3.4 C 5.86 g/m*3 3.4 C 3.2 km/h
509 25-11-2013 20:15:00 3.5 C 5.9 g/m*3 3.5 C 1.6 km/h
510 25-11-2013 20:20:00 3.5 C 5.9 g/m*3 3.5 C 0 km/h
511 25-11-2013 20:25:00 3.5 C 5.9 g/m*3 3.5 C 0 km/h
512 25-11-2013 20:30:00 3.5 C 5.9 g/m*3 3.5 C 3.2 km/h
513 25-11-2013 20:35:00 3.5 C 5.9 g/m*3 3.5 C 4.8 km/h
514 25-11-2013 20:40:00 3.5 C 5.9 g/m*3 3.5 C 4.8 km/h
515 25-11-2013 20:45:00 3.5 C 5.9 g/m*3 1.86 C 6.4 km/h
516 25-11-2013 20:50:00 3.4 C 5.86 g/m*3 1.23 C 8.1 km/h
517 25-11-2013 20:55:00 3.4 C 5.8 g/m*3 1.23 C 8.1 km/h
518 25-11-2013 21:00:00 3.4 C 5.8 g/m*3 1.75 C 6.4 km/h
519 25-11-2013 21:05:00 3.3 C 5.76 g/m*3 3.3 C 3.2 km/h
520 25-11-2013 21:10:00 3.3 C 5.7 g/m*3 1.11 C 8.1 km/h
521 25-11-2013 21:15:00 3.3 C 5.7 g/m*3 1.63 C 6.4 km/h
522 25-11-2013 21:20:00 3.2 C 5.66 g/m*3 3.2 C 1.6 km/h
523 25-11-2013 21:25:00 3.2 C 5.6 g/m*3 3.2 C 3.2 km/h
524 25-11-2013 21:30:00 3.1 C 5.57 g/m*3 3.1 C 4.8 km/h
525 25-11-2013 21:35:00 3 C 5.53 g/m*3 1.28 C 6.4 km/h
Sensor: Nr:Datum:Temp:Abs-Feuchte:Windchill:Wind:
Aussen-T/F 526 25-11-2013 21:40:00 2.9 C 5.49 g/m*3 1.17 C 6.4 km/h
527 25-11-2013 21:45:00 2.9 C 5.43 g/m*3 1.17 C 6.4 km/h
528 25-11-2013 21:50:00 2.8 C 5.4 g/m*3 1.05 C 6.4 km/h
529 25-11-2013 21:55:00 2.8 C 5.4 g/m*3 1.05 C 6.4 km/h
530 25-11-2013 22:00:00 2.8 C 5.34 g/m*3 1.05 C 6.4 km/h
531 25-11-2013 22:05:00 2.7 C 5.3 g/m*3 2.7 C 0 km/h
532 25-11-2013 22:10:00 2.7 C 5.3 g/m*3 2.7 C 1.6 km/h
533 25-11-2013 22:15:00 2.6 C 5.32 g/m*3 2.6 C 3.2 km/h
534 25-11-2013 22:20:00 2.5 C 5.29 g/m*3 2.5 C 3.2 km/h
535 25-11-2013 22:25:00 2.4 C 5.25 g/m*3 2.4 C 1.6 km/h
536 25-11-2013 22:30:00 2.3 C 5.22 g/m*3 2.3 C 1.6 km/h
537 25-11-2013 22:35:00 2.1 C 5.15 g/m*3 2.1 C 3.2 km/h
538 25-11-2013 22:40:00 1.8 C 5.04 g/m*3 1.8 C 3.2 km/h
539 25-11-2013 22:45:00 1.5 C 4.99 g/m*3 1.5 C 3.2 km/h
540 25-11-2013 22:50:00 1.3 C 4.93 g/m*3 1.3 C 1.6 km/h
541 25-11-2013 22:55:00 1.1 C 4.91 g/m*3 1.1 C 3.2 km/h
542 25-11-2013 23:00:00 0.9 C 4.85 g/m*3 0.9 C 3.2 km/h
543 25-11-2013 23:05:00 0.8 C 4.81 g/m*3 0.8 C 4.8 km/h
544 25-11-2013 23:10:00 0.7 C 4.78 g/m*3 0.7 C 4.8 km/h
545 25-11-2013 23:15:00 0.7 C 4.83 g/m*3 0.7 C 3.2 km/h
546 25-11-2013 23:20:00 0.6 C 4.8 g/m*3 0.6 C 3.2 km/h
547 25-11-2013 23:25:00 0.6 C 4.8 g/m*3 0.6 C 4.8 km/h
548 25-11-2013 23:30:00 0.5 C 4.76 g/m*3 0.5 C 4.8 km/h
549 25-11-2013 23:35:00 0.5 C 4.76 g/m*3 0.5 C 4.8 km/h
550 25-11-2013 23:40:00 0.5 C 4.76 g/m*3 0.5 C 3.2 km/h
Sensor: Nr:Datum:Temp:Abs-Feuchte:Windchill:Wind:
Aussen-T/F 551 25-11-2013 23:45:00 0.5 C 4.76 g/m*3 0.5 C 3.2 km/h
552 25-11-2013 23:50:00 0.4 C 4.73 g/m*3 0.4 C 3.2 km/h
553 25-11-2013 23:55:00 0.4 C 4.73 g/m*3 0.4 C 4.8 km/h
554 26-11-2013 00:00:00 0.4 C 4.73 g/m*3 0.4 C 3.2 km/h
555 26-11-2013 00:05:00 0.4 C 4.73 g/m*3 0.4 C 3.2 km/h
556 26-11-2013 00:10:00 0.4 C 4.73 g/m*3 0.4 C 1.6 km/h
557 26-11-2013 00:15:00 0.4 C 4.73 g/m*3 0.4 C 3.2 km/h
558 26-11-2013 00:20:00 0.4 C 4.73 g/m*3 0.4 C 0 km/h
559 26-11-2013 00:25:00 0.5 C 4.76 g/m*3 0.5 C 1.6 km/h
560 26-11-2013 00:30:00 0.6 C 4.85 g/m*3 0.6 C 0 km/h
561 26-11-2013 00:35:00 0.6 C 4.85 g/m*3 0.6 C 3.2 km/h
562 26-11-2013 00:40:00 0.6 C 4.85 g/m*3 0.6 C 1.6 km/h
563 26-11-2013 00:45:00 0.7 C 4.88 g/m*3 0.7 C 1.6 km/h
564 26-11-2013 00:50:00 0.6 C 4.85 g/m*3 0.6 C 0 km/h
565 26-11-2013 00:55:00 0.6 C 4.85 g/m*3 0.6 C 3.2 km/h
566 26-11-2013 01:00:00 0.6 C 4.85 g/m*3 0.6 C 3.2 km/h
567 26-11-2013 01:05:00 0.6 C 4.8 g/m*3 0.6 C 3.2 km/h
568 26-11-2013 01:10:00 0.5 C 4.76 g/m*3 0.5 C 4.8 km/h
569 26-11-2013 01:15:00 0.4 C 4.73 g/m*3 0.4 C 1.6 km/h
570 26-11-2013 01:20:00 0.3 C 4.7 g/m*3 0.3 C 1.6 km/h
571 26-11-2013 01:25:00 0.3 C 4.7 g/m*3 0.3 C 1.6 km/h
572 26-11-2013 01:30:00 0.2 C 4.67 g/m*3 0.2 C 3.2 km/h
573 26-11-2013 01:35:00 0.1 C 4.63 g/m*3 0.1 C 1.6 km/h
574 26-11-2013 01:40:00 0.1 C 4.63 g/m*3 0.1 C 3.2 km/h
575 26-11-2013 01:45:00 0 C 4.6 g/m*3 0 C 3.2 km/h
Sensor: Nr:Datum:Temp:Abs-Feuchte:Windchill:Wind:
Aussen-T/F 576 26-11-2013 01:50:00 0 C 4.65 g/m*3 0 C 3.2 km/h
577 26-11-2013 01:55:00 -0.1 C 4.62 g/m*3 -0.1 C 3.2 km/h
578 26-11-2013 02:00:00 -0.1 C 4.62 g/m*3 -0.1 C 1.6 km/h
579 26-11-2013 02:05:00 0 C 4.65 g/m*3 0 C 4.8 km/h
580 26-11-2013 02:10:00 -0.1 C 4.62 g/m*3 -0.1 C 0 km/h
581 26-11-2013 02:15:00 -0.1 C 4.62 g/m*3 -0.1 C 4.8 km/h
582 26-11-2013 02:20:00 0.1 C 4.68 g/m*3 0.1 C 0 km/h
583 26-11-2013 02:25:00 0.1 C 4.68 g/m*3 0.1 C 3.2 km/h
584 26-11-2013 02:30:00 0.1 C 4.68 g/m*3 0.1 C 1.6 km/h
585 26-11-2013 02:35:00 -0.1 C 4.62 g/m*3 -0.1 C 3.2 km/h
586 26-11-2013 02:40:00 -0.1 C 4.62 g/m*3 -0.1 C 1.6 km/h
587 26-11-2013 02:45:00 -0.1 C 4.62 g/m*3 -0.1 C 3.2 km/h
588 26-11-2013 02:50:00 -0.1 C 4.62 g/m*3 -0.1 C 1.6 km/h
589 26-11-2013 02:55:00 -0.1 C 4.62 g/m*3 -0.1 C 1.6 km/h
590 26-11-2013 03:00:00 0.1 C 4.68 g/m*3 0.1 C 3.2 km/h
591 26-11-2013 03:05:00 0.1 C 4.68 g/m*3 0.1 C 1.6 km/h
592 26-11-2013 03:10:00 0.1 C 4.68 g/m*3 0.1 C 1.6 km/h
593 26-11-2013 03:15:00 0 C 4.65 g/m*3 0 C 1.6 km/h
594 26-11-2013 03:20:00 -0.1 C 4.57 g/m*3 -0.1 C 4.8 km/h
595 26-11-2013 03:25:00 -0.2 C 4.54 g/m*3 -0.2 C 3.2 km/h
596 26-11-2013 03:30:00 -0.2 C 4.54 g/m*3 -0.2 C 3.2 km/h
597 26-11-2013 03:35:00 -0.3 C 4.51 g/m*3 -0.3 C 3.2 km/h
598 26-11-2013 03:40:00 -0.3 C 4.51 g/m*3 -0.3 C 3.2 km/h
599 26-11-2013 03:45:00 -0.3 C 4.56 g/m*3 -0.3 C 3.2 km/h
600 26-11-2013 03:50:00 -0.3 C 4.56 g/m*3 -0.3 C 1.6 km/h
Sensor: Nr:Datum:Temp:Abs-Feuchte:Windchill:Wind:
Aussen-T/F 601 26-11-2013 03:55:00 -0.3 C 4.56 g/m*3 -0.3 C 3.2 km/h
602 26-11-2013 04:00:00 -0.3 C 4.56 g/m*3 -0.3 C 3.2 km/h
603 26-11-2013 04:05:00 -0.3 C 4.56 g/m*3 -0.3 C 3.2 km/h
604 26-11-2013 04:10:00 -0.4 C 4.52 g/m*3 -0.4 C 0 km/h
605 26-11-2013 04:15:00 -0.5 C 4.45 g/m*3 -0.5 C 0 km/h
606 26-11-2013 04:20:00 -0.6 C 4.46 g/m*3 -0.6 C 3.2 km/h
607 26-11-2013 04:25:00 -0.6 C 4.46 g/m*3 -0.6 C 0 km/h
608 26-11-2013 04:30:00 -0.6 C 4.46 g/m*3 -0.6 C 3.2 km/h
609 26-11-2013 04:35:00 -0.5 C 4.49 g/m*3 -0.5 C 3.2 km/h
610 26-11-2013 04:40:00 -0.4 C 4.52 g/m*3 -0.4 C 3.2 km/h
611 26-11-2013 04:45:00 -0.4 C 4.52 g/m*3 -0.4 C 0 km/h
612 26-11-2013 04:50:00 -0.6 C 4.46 g/m*3 -0.6 C 0 km/h
613 26-11-2013 04:55:00 -0.6 C 4.46 g/m*3 -0.6 C 0 km/h
614 26-11-2013 05:00:00 -0.6 C 4.46 g/m*3 -0.6 C 3.2 km/h
615 26-11-2013 05:05:00 -0.7 C 4.43 g/m*3 -0.7 C 3.2 km/h
616 26-11-2013 05:10:00 -0.7 C 4.43 g/m*3 -0.7 C 0 km/h
617 26-11-2013 05:15:00 -0.7 C 4.43 g/m*3 -0.7 C 0 km/h
618 26-11-2013 05:20:00 -0.7 C 4.43 g/m*3 -0.7 C 0 km/h
619 26-11-2013 05:25:00 -0.7 C 4.43 g/m*3 -0.7 C 0 km/h
620 26-11-2013 05:30:00 -0.7 C 4.43 g/m*3 -0.7 C 0 km/h
621 26-11-2013 05:35:00 -0.7 C 4.43 g/m*3 -0.7 C 1.6 km/h
622 26-11-2013 05:40:00 -0.8 C 4.4 g/m*3 -0.8 C 0 km/h
623 26-11-2013 05:45:00 -0.7 C 4.43 g/m*3 -0.7 C 0 km/h
624 26-11-2013 05:50:00 -0.7 C 4.43 g/m*3 -0.7 C 0 km/h
625 26-11-2013 05:55:00 -0.7 C 4.43 g/m*3 -0.7 C 0 km/h
Sensor: Nr:Datum:Temp:Abs-Feuchte:Windchill:Wind:
Aussen-T/F 626 26-11-2013 06:00:00 -0.7 C 4.43 g/m*3 -0.7 C 0 km/h
627 26-11-2013 06:05:00 -0.7 C 4.43 g/m*3 -0.7 C 0 km/h
628 26-11-2013 06:10:00 -0.7 C 4.43 g/m*3 -0.7 C 0 km/h
629 26-11-2013 06:15:00 -0.7 C 4.43 g/m*3 -0.7 C 0 km/h
630 26-11-2013 06:20:00 -0.7 C 4.43 g/m*3 -0.7 C 3.2 km/h
631 26-11-2013 06:25:00 -0.6 C 4.46 g/m*3 -0.6 C 0 km/h
632 26-11-2013 06:30:00 -0.4 C 4.52 g/m*3 -0.4 C 3.2 km/h
633 26-11-2013 06:35:00 -0.4 C 4.57 g/m*3 -0.4 C 3.2 km/h
634 26-11-2013 06:40:00 -0.3 C 4.6 g/m*3 -0.3 C 1.6 km/h
635 26-11-2013 06:45:00 -0.2 C 4.59 g/m*3 -0.2 C 3.2 km/h
636 26-11-2013 06:50:00 -0.2 C 4.59 g/m*3 -0.2 C 1.6 km/h
637 26-11-2013 06:55:00 -0.1 C 4.62 g/m*3 -0.1 C 3.2 km/h
638 26-11-2013 07:00:00 -0.1 C 4.62 g/m*3 -0.1 C 1.6 km/h
639 26-11-2013 07:05:00 -0.1 C 4.62 g/m*3 -0.1 C 3.2 km/h
640 26-11-2013 07:10:00 -0.1 C 4.62 g/m*3 -0.1 C 3.2 km/h
641 26-11-2013 07:15:00 -0.1 C 4.62 g/m*3 -0.1 C 0 km/h
642 26-11-2013 07:20:00 0 C 4.65 g/m*3 0 C 1.6 km/h
643 26-11-2013 07:25:00 0 C 4.65 g/m*3 0 C 0 km/h
644 26-11-2013 07:30:00 0.1 C 4.68 g/m*3 0.1 C 0 km/h
645 26-11-2013 07:35:00 0.1 C 4.68 g/m*3 0.1 C 1.6 km/h
646 26-11-2013 07:40:00 0.1 C 4.68 g/m*3 0.1 C 0 km/h
647 26-11-2013 07:45:00 0.1 C 4.68 g/m*3 0.1 C 0 km/h
648 26-11-2013 07:50:00 0.1 C 4.68 g/m*3 0.1 C 1.6 km/h
649 26-11-2013 07:55:00 0.1 C 4.68 g/m*3 0.1 C 4.8 km/h
650 26-11-2013 08:00:00 0.1 C 4.68 g/m*3 0.1 C 4.8 km/h
Sensor: Nr:Datum:Temp:Abs-Feuchte:Windchill:Wind:
Aussen-T/F 651 26-11-2013 08:05:00 0.1 C 4.68 g/m*3 0.1 C 3.2 km/h
652 26-11-2013 08:10:00 0.1 C 4.68 g/m*3 0.1 C 3.2 km/h
653 26-11-2013 08:15:00 0.1 C 4.68 g/m*3 0.1 C 3.2 km/h
654 26-11-2013 08:20:00 0.1 C 4.63 g/m*3 0.1 C 4.8 km/h
655 26-11-2013 08:25:00 0.2 C 4.67 g/m*3 0.2 C 4.8 km/h
656 26-11-2013 08:30:00 0.2 C 4.67 g/m*3 0.2 C 4.8 km/h
657 26-11-2013 08:35:00 0.2 C 4.67 g/m*3 0.2 C 4.8 km/h
658 26-11-2013 08:40:00 0.2 C 4.67 g/m*3 0.2 C 1.6 km/h
659 26-11-2013 08:45:00 0.2 C 4.67 g/m*3 0.2 C 1.6 km/h
660 26-11-2013 08:50:00 0.2 C 4.67 g/m*3 0.2 C 4.8 km/h
661 26-11-2013 08:55:00 0.2 C 4.67 g/m*3 0.2 C 3.2 km/h
662 26-11-2013 09:00:00 0.2 C 4.67 g/m*3 0.2 C 0 km/h
663 26-11-2013 09:05:00 0.2 C 4.67 g/m*3 0.2 C 3.2 km/h
664 26-11-2013 09:10:00 0.2 C 4.67 g/m*3 0.2 C 1.6 km/h
665 26-11-2013 09:15:00 0.3 C 4.7 g/m*3 0.3 C 4.8 km/h
666 26-11-2013 09:20:00 0.3 C 4.7 g/m*3 0.3 C 3.2 km/h
667 26-11-2013 09:25:00 0.2 C 4.67 g/m*3 0.2 C 3.2 km/h
668 26-11-2013 09:30:00 0.2 C 4.62 g/m*3 0.2 C 1.6 km/h
669 26-11-2013 09:35:00 0.2 C 4.67 g/m*3 -3 C 9.7 km/h
670 26-11-2013 09:40:00 0.3 C 4.7 g/m*3 -2.88 C 9.7 km/h
671 26-11-2013 09:45:00 0.3 C 4.7 g/m*3 0.3 C 4.8 km/h
672 26-11-2013 09:50:00 0.3 C 4.7 g/m*3 0.3 C 0 km/h
673 26-11-2013 09:55:00 0.3 C 4.7 g/m*3 0.3 C 1.6 km/h
674 26-11-2013 10:00:00 0.3 C 4.7 g/m*3 0.3 C 3.2 km/h
675 26-11-2013 10:05:00 0.3 C 4.7 g/m*3 0.3 C 0 km/h
Sensor: Nr:Datum:Temp:Abs-Feuchte:Windchill:Wind:
Aussen-T/F 676 26-11-2013 10:10:00 0.3 C 4.7 g/m*3 -1.84 C 6.4 km/h
677 26-11-2013 10:15:00 0.3 C 4.7 g/m*3 0.3 C 3.2 km/h
678 26-11-2013 10:20:00 0.4 C 4.73 g/m*3 0.4 C 1.6 km/h
679 26-11-2013 10:25:00 0.4 C 4.68 g/m*3 0.4 C 3.2 km/h
680 26-11-2013 10:30:00 0.4 C 4.68 g/m*3 0.4 C 3.2 km/h
681 26-11-2013 10:35:00 0.4 C 4.68 g/m*3 0.4 C 0 km/h
682 26-11-2013 10:40:00 0.4 C 4.68 g/m*3 0.4 C 0 km/h
683 26-11-2013 10:45:00 0.5 C 4.71 g/m*3 0.5 C 0 km/h
684 26-11-2013 10:50:00 0.6 C 4.75 g/m*3 0.6 C 1.6 km/h
685 26-11-2013 10:55:00 0.6 C 4.75 g/m*3 0.6 C 0 km/h
686 26-11-2013 11:00:00 0.7 C 4.78 g/m*3 0.7 C 3.2 km/h
687 26-11-2013 11:05:00 0.7 C 4.78 g/m*3 0.7 C 1.6 km/h
688 26-11-2013 11:10:00 0.7 C 4.78 g/m*3 0.7 C 3.2 km/h
689 26-11-2013 11:15:00 0.8 C 4.81 g/m*3 0.8 C 3.2 km/h
690 26-11-2013 11:20:00 0.8 C 4.81 g/m*3 0.8 C 3.2 km/h
691 26-11-2013 11:25:00 0.8 C 4.81 g/m*3 0.8 C 3.2 km/h
692 26-11-2013 11:30:00 0.9 C 4.85 g/m*3 0.9 C 0 km/h
693 26-11-2013 11:35:00 0.9 C 4.85 g/m*3 0.9 C 3.2 km/h
694 26-11-2013 11:40:00 1 C 4.88 g/m*3 1 C 3.2 km/h
695 26-11-2013 11:45:00 1.1 C 4.91 g/m*3 1.1 C 4.8 km/h
696 26-11-2013 11:50:00 1.1 C 4.91 g/m*3 1.1 C 3.2 km/h
697 26-11-2013 11:55:00 1.1 C 4.86 g/m*3 1.1 C 3.2 km/h
698 26-11-2013 12:00:00 1.2 C 4.89 g/m*3 1.2 C 1.6 km/h
699 26-11-2013 12:05:00 1.2 C 4.89 g/m*3 1.2 C 1.6 km/h
700 26-11-2013 12:10:00 1.2 C 4.89 g/m*3 1.2 C 4.8 km/h
Sensor: Nr:Datum:Temp:Abs-Feuchte:Windchill:Wind:
Aussen-T/F 701 26-11-2013 12:15:00 1.3 C 4.93 g/m*3 1.3 C 4.8 km/h
702 26-11-2013 12:20:00 1.2 C 4.89 g/m*3 1.2 C 1.6 km/h
703 26-11-2013 12:25:00 1.3 C 4.93 g/m*3 1.3 C 4.8 km/h
704 26-11-2013 12:30:00 1.3 C 4.93 g/m*3 1.3 C 3.2 km/h
705 26-11-2013 12:35:00 1.4 C 4.96 g/m*3 1.4 C 1.6 km/h
706 26-11-2013 12:40:00 1.4 C 4.96 g/m*3 1.4 C 3.2 km/h
707 26-11-2013 12:45:00 1.4 C 4.96 g/m*3 1.4 C 3.2 km/h
708 26-11-2013 12:50:00 1.4 C 4.96 g/m*3 1.4 C 1.6 km/h
709 26-11-2013 12:55:00 1.4 C 4.91 g/m*3 1.4 C 1.6 km/h
710 26-11-2013 13:00:00 1.5 C 4.99 g/m*3 1.5 C 1.6 km/h
711 26-11-2013 13:05:00 1.6 C 4.97 g/m*3 1.6 C 0 km/h
712 26-11-2013 13:10:00 1.6 C 4.97 g/m*3 1.6 C 1.6 km/h
713 26-11-2013 13:15:00 1.6 C 4.97 g/m*3 1.6 C 4.8 km/h
714 26-11-2013 13:20:00 1.6 C 4.97 g/m*3 1.6 C 4.8 km/h
715 26-11-2013 13:25:00 1.6 C 4.97 g/m*3 1.6 C 4.8 km/h
716 26-11-2013 13:30:00 1.6 C 4.97 g/m*3 1.6 C 3.2 km/h
717 26-11-2013 13:35:00 1.6 C 4.97 g/m*3 -0.33 C 6.4 km/h
718 26-11-2013 13:40:00 1.6 C 4.97 g/m*3 1.6 C 1.6 km/h
719 26-11-2013 13:45:00 1.6 C 4.97 g/m*3 1.6 C 4.8 km/h
720 26-11-2013 13:50:00 1.6 C 4.97 g/m*3 1.6 C 3.2 km/h
721 26-11-2013 13:55:00 1.6 C 4.97 g/m*3 1.6 C 1.6 km/h
722 26-11-2013 14:00:00 1.6 C 4.97 g/m*3 1.6 C 3.2 km/h
723 26-11-2013 14:05:00 1.6 C 4.97 g/m*3 1.6 C 3.2 km/h
724 26-11-2013 14:10:00 1.6 C 4.97 g/m*3 1.6 C 4.8 km/h
725 26-11-2013 14:15:00 1.5 C 4.89 g/m*3 1.5 C 4.8 km/h
Sensor: Nr:Datum:Temp:Abs-Feuchte:Windchill:Wind:
Aussen-T/F 726 26-11-2013 14:20:00 1.4 C 4.85 g/m*3 1.4 C 0 km/h
727 26-11-2013 14:25:00 1.4 C 4.85 g/m*3 1.4 C 0 km/h
728 26-11-2013 14:30:00 1.4 C 4.91 g/m*3 1.4 C 0 km/h
729 26-11-2013 14:35:00 1.4 C 4.91 g/m*3 1.4 C 0 km/h
730 26-11-2013 14:40:00 1.4 C 4.91 g/m*3 1.4 C 0 km/h
731 26-11-2013 14:45:00 1.4 C 4.91 g/m*3 1.4 C 3.2 km/h
732 26-11-2013 14:50:00 1.4 C 4.91 g/m*3 1.4 C 0 km/h
733 26-11-2013 14:55:00 1.4 C 4.85 g/m*3 1.4 C 1.6 km/h
734 26-11-2013 15:00:00 1.4 C 4.85 g/m*3 1.4 C 0 km/h
735 26-11-2013 15:05:00 1.4 C 4.91 g/m*3 1.4 C 0 km/h
736 26-11-2013 15:10:00 1.4 C 4.91 g/m*3 1.4 C 0 km/h
737 26-11-2013 15:15:00 1.3 C 4.82 g/m*3 1.3 C 0 km/h
738 26-11-2013 15:20:00 1.3 C 4.87 g/m*3 1.3 C 0 km/h
739 26-11-2013 15:25:00 1.3 C 4.87 g/m*3 1.3 C 0 km/h
740 26-11-2013 15:30:00 1.3 C 4.87 g/m*3 1.3 C 0 km/h
741 26-11-2013 15:35:00 1.4 C 4.91 g/m*3 1.4 C 1.6 km/h
742 26-11-2013 15:40:00 1.4 C 4.91 g/m*3 1.4 C 3.2 km/h
743 26-11-2013 15:45:00 1.4 C 4.91 g/m*3 1.4 C 4.8 km/h
744 26-11-2013 15:50:00 1.4 C 4.91 g/m*3 1.4 C 4.8 km/h
745 26-11-2013 15:55:00 1.4 C 4.91 g/m*3 1.4 C 0 km/h
746 26-11-2013 16:00:00 1.3 C 4.87 g/m*3 -0.68 C 6.4 km/h
747 26-11-2013 16:05:00 1.3 C 4.87 g/m*3 1.3 C 0 km/h
748 26-11-2013 16:10:00 1.2 C 4.84 g/m*3 1.2 C 0 km/h
749 26-11-2013 16:15:00 1.1 C 4.81 g/m*3 1.1 C 0 km/h
750 26-11-2013 16:20:00 1.1 C 4.86 g/m*3 1.1 C 0 km/h
Sensor: Nr:Datum:Temp:Abs-Feuchte:Windchill:Wind:
Aussen-T/F 751 26-11-2013 16:25:00 1.1 C 4.86 g/m*3 1.1 C 0 km/h
752 26-11-2013 16:30:00 1.1 C 4.86 g/m*3 1.1 C 0 km/h
753 26-11-2013 16:35:00 1.1 C 4.86 g/m*3 1.1 C 1.6 km/h
754 26-11-2013 16:40:00 1.1 C 4.86 g/m*3 1.1 C 3.2 km/h
755 26-11-2013 16:45:00 1.1 C 4.86 g/m*3 1.1 C 1.6 km/h
756 26-11-2013 16:50:00 1 C 4.83 g/m*3 1 C 1.6 km/h
757 26-11-2013 16:55:00 1 C 4.83 g/m*3 1 C 1.6 km/h
758 26-11-2013 17:00:00 0.9 C 4.79 g/m*3 0.9 C 0 km/h
759 26-11-2013 17:05:00 0.9 C 4.79 g/m*3 0.9 C 0 km/h
760 26-11-2013 17:10:00 0.8 C 4.76 g/m*3 0.8 C 3.2 km/h
761 26-11-2013 17:15:00 0.9 C 4.85 g/m*3 0.9 C 0 km/h
762 26-11-2013 17:20:00 0.9 C 4.85 g/m*3 0.9 C 0 km/h
763 26-11-2013 17:25:00 0.9 C 4.85 g/m*3 0.9 C 0 km/h
764 26-11-2013 17:30:00 0.9 C 4.85 g/m*3 0.9 C 1.6 km/h
765 26-11-2013 17:35:00 0.8 C 4.81 g/m*3 0.8 C 0 km/h
766 26-11-2013 17:40:00 0.8 C 4.81 g/m*3 0.8 C 0 km/h
767 26-11-2013 17:45:00 0.9 C 4.85 g/m*3 0.9 C 0 km/h
768 26-11-2013 17:50:00 0.9 C 4.85 g/m*3 0.9 C 0 km/h
769 26-11-2013 17:55:00 0.9 C 4.85 g/m*3 0.9 C 1.6 km/h
770 26-11-2013 18:00:00 0.8 C 4.81 g/m*3 0.8 C 1.6 km/h
771 26-11-2013 18:05:00 0.8 C 4.81 g/m*3 0.8 C 0 km/h
772 26-11-2013 18:10:00 0.8 C 4.81 g/m*3 0.8 C 0 km/h
773 26-11-2013 18:15:00 0.8 C 4.81 g/m*3 0.8 C 0 km/h
774 26-11-2013 18:20:00 0.8 C 4.81 g/m*3 0.8 C 0 km/h
775 26-11-2013 18:25:00 0.8 C 4.81 g/m*3 0.8 C 0 km/h
Sensor: Nr:Datum:Temp:Abs-Feuchte:Windchill:Wind:
Aussen-T/F 776 26-11-2013 18:30:00 0.8 C 4.81 g/m*3 0.8 C 0 km/h
777 26-11-2013 18:35:00 0.8 C 4.81 g/m*3 0.8 C 0 km/h
778 26-11-2013 18:40:00 0.8 C 4.81 g/m*3 0.8 C 1.6 km/h
779 26-11-2013 18:45:00 0.8 C 4.81 g/m*3 0.8 C 1.6 km/h
780 26-11-2013 18:50:00 0.8 C 4.81 g/m*3 0.8 C 0 km/h
781 26-11-2013 18:55:00 0.8 C 4.81 g/m*3 0.8 C 0 km/h
782 26-11-2013 19:00:00 0.9 C 4.85 g/m*3 0.9 C 0 km/h
783 26-11-2013 19:05:00 0.8 C 4.81 g/m*3 0.8 C 3.2 km/h
784 26-11-2013 19:10:00 0.8 C 4.81 g/m*3 0.8 C 0 km/h
785 26-11-2013 19:15:00 0.8 C 4.81 g/m*3 0.8 C 0 km/h
786 26-11-2013 19:20:00 0.9 C 4.85 g/m*3 0.9 C 0 km/h
787 26-11-2013 19:25:00 0.9 C 4.85 g/m*3 0.9 C 0 km/h
788 26-11-2013 19:30:00 0.9 C 4.85 g/m*3 0.9 C 0 km/h
789 26-11-2013 19:35:00 0.9 C 4.85 g/m*3 0.9 C 0 km/h
790 26-11-2013 19:40:00 0.9 C 4.85 g/m*3 0.9 C 0 km/h
791 26-11-2013 19:45:00 0.9 C 4.85 g/m*3 0.9 C 1.6 km/h
792 26-11-2013 19:50:00 0.9 C 4.85 g/m*3 0.9 C 3.2 km/h
793 26-11-2013 19:55:00 0.9 C 4.85 g/m*3 0.9 C 1.6 km/h
794 26-11-2013 20:00:00 0.9 C 4.9 g/m*3 0.9 C 3.2 km/h
795 26-11-2013 20:05:00 0.9 C 4.9 g/m*3 0.9 C 1.6 km/h
796 26-11-2013 20:10:00 0.8 C 4.86 g/m*3 0.8 C 3.2 km/h
797 26-11-2013 20:15:00 0.8 C 4.81 g/m*3 0.8 C 3.2 km/h
798 26-11-2013 20:20:00 0.8 C 4.86 g/m*3 0.8 C 4.8 km/h
799 26-11-2013 20:25:00 0.8 C 4.86 g/m*3 0.8 C 4.8 km/h
800 26-11-2013 20:30:00 0.8 C 4.86 g/m*3 0.8 C 3.2 km/h
Sensor: Nr:Datum:Temp:Abs-Feuchte:Windchill:Wind:
Aussen-T/F 801 26-11-2013 20:35:00 0.8 C 4.86 g/m*3 0.8 C 3.2 km/h
802 26-11-2013 20:40:00 0.7 C 4.83 g/m*3 0.7 C 1.6 km/h
803 26-11-2013 20:45:00 0.7 C 4.83 g/m*3 0.7 C 4.8 km/h
804 26-11-2013 20:50:00 0.7 C 4.83 g/m*3 0.7 C 4.8 km/h
805 26-11-2013 20:55:00 0.7 C 4.83 g/m*3 0.7 C 4.8 km/h
806 26-11-2013 21:00:00 0.7 C 4.83 g/m*3 0.7 C 3.2 km/h
807 26-11-2013 21:05:00 0.7 C 4.83 g/m*3 0.7 C 3.2 km/h
808 26-11-2013 21:10:00 0.7 C 4.83 g/m*3 0.7 C 3.2 km/h
809 26-11-2013 21:15:00 0.7 C 4.83 g/m*3 0.7 C 3.2 km/h
810 26-11-2013 21:20:00 0.6 C 4.8 g/m*3 0.6 C 3.2 km/h
811 26-11-2013 21:25:00 0.6 C 4.8 g/m*3 0.6 C 0 km/h
812 26-11-2013 21:30:00 0.6 C 4.8 g/m*3 0.6 C 0 km/h
813 26-11-2013 21:35:00 0.6 C 4.8 g/m*3 0.6 C 0 km/h
814 26-11-2013 21:40:00 0.6 C 4.8 g/m*3 0.6 C 3.2 km/h
815 26-11-2013 21:45:00 0.6 C 4.8 g/m*3 0.6 C 1.6 km/h
816 26-11-2013 21:50:00 0.6 C 4.8 g/m*3 0.6 C 1.6 km/h
817 26-11-2013 21:55:00 0.6 C 4.8 g/m*3 0.6 C 0 km/h
818 26-11-2013 22:00:00 0.6 C 4.8 g/m*3 0.6 C 1.6 km/h
819 26-11-2013 22:05:00 0.6 C 4.8 g/m*3 0.6 C 1.6 km/h
820 26-11-2013 22:10:00 0.6 C 4.8 g/m*3 0.6 C 0 km/h
821 26-11-2013 22:15:00 0.6 C 4.8 g/m*3 0.6 C 4.8 km/h
822 26-11-2013 22:20:00 0.6 C 4.8 g/m*3 0.6 C 1.6 km/h
823 26-11-2013 22:25:00 0.6 C 4.85 g/m*3 0.6 C 0 km/h
824 26-11-2013 22:30:00 0.6 C 4.85 g/m*3 0.6 C 0 km/h
825 26-11-2013 22:35:00 0.6 C 4.85 g/m*3 0.6 C 0 km/h
Sensor: Nr:Datum:Temp:Abs-Feuchte:Windchill:Wind:
Aussen-T/F 826 26-11-2013 22:40:00 0.6 C 4.85 g/m*3 0.6 C 0 km/h
827 26-11-2013 22:45:00 0.6 C 4.85 g/m*3 0.6 C 0 km/h
828 26-11-2013 22:50:00 0.6 C 4.85 g/m*3 0.6 C 1.6 km/h
829 26-11-2013 22:55:00 0.6 C 4.85 g/m*3 0.6 C 1.6 km/h
830 26-11-2013 23:00:00 0.6 C 4.85 g/m*3 0.6 C 0 km/h
831 26-11-2013 23:05:00 0.7 C 4.88 g/m*3 0.7 C 0 km/h
832 26-11-2013 23:10:00 0.7 C 4.88 g/m*3 0.7 C 0 km/h
833 26-11-2013 23:15:00 0.7 C 4.88 g/m*3 0.7 C 0 km/h
834 26-11-2013 23:20:00 0.7 C 4.88 g/m*3 0.7 C 0 km/h
835 26-11-2013 23:25:00 0.7 C 4.88 g/m*3 0.7 C 1.6 km/h
836 26-11-2013 23:30:00 0.7 C 4.88 g/m*3 0.7 C 3.2 km/h
837 26-11-2013 23:35:00 0.7 C 4.88 g/m*3 0.7 C 1.6 km/h
838 26-11-2013 23:40:00 0.7 C 4.88 g/m*3 0.7 C 3.2 km/h
839 26-11-2013 23:45:00 0.7 C 4.88 g/m*3 0.7 C 1.6 km/h
840 26-11-2013 23:50:00 0.7 C 4.88 g/m*3 0.7 C 0 km/h
841 26-11-2013 23:55:00 0.7 C 4.88 g/m*3 0.7 C 0 km/h
842 27-11-2013 00:00:00 0.7 C 4.88 g/m*3 0.7 C 0 km/h
843 27-11-2013 00:05:00 0.7 C 4.88 g/m*3 0.7 C 1.6 km/h
844 27-11-2013 00:10:00 0.7 C 4.88 g/m*3 0.7 C 1.6 km/h
845 27-11-2013 00:15:00 0.7 C 4.88 g/m*3 0.7 C 1.6 km/h
846 27-11-2013 00:20:00 0.7 C 4.88 g/m*3 0.7 C 3.2 km/h
847 27-11-2013 00:25:00 0.7 C 4.88 g/m*3 0.7 C 3.2 km/h
848 27-11-2013 00:30:00 0.7 C 4.88 g/m*3 0.7 C 1.6 km/h
849 27-11-2013 00:35:00 0.7 C 4.88 g/m*3 0.7 C 0 km/h
850 27-11-2013 00:40:00 0.7 C 4.88 g/m*3 0.7 C 0 km/h
Sensor: Nr:Datum:Temp:Abs-Feuchte:Windchill:Wind:
Aussen-T/F 851 27-11-2013 00:45:00 0.7 C 4.88 g/m*3 0.7 C 1.6 km/h
852 27-11-2013 00:50:00 0.7 C 4.88 g/m*3 0.7 C 3.2 km/h
853 27-11-2013 00:55:00 0.7 C 4.88 g/m*3 0.7 C 1.6 km/h
854 27-11-2013 01:00:00 0.7 C 4.88 g/m*3 0.7 C 1.6 km/h
855 27-11-2013 01:05:00 0.7 C 4.88 g/m*3 0.7 C 3.2 km/h
856 27-11-2013 01:10:00 0.7 C 4.88 g/m*3 0.7 C 0 km/h
857 27-11-2013 01:15:00 0.7 C 4.88 g/m*3 0.7 C 0 km/h
858 27-11-2013 01:20:00 0.7 C 4.88 g/m*3 0.7 C 0 km/h
859 27-11-2013 01:25:00 0.7 C 4.88 g/m*3 0.7 C 0 km/h
860 27-11-2013 01:30:00 0.7 C 4.88 g/m*3 0.7 C 0 km/h
861 27-11-2013 01:35:00 0.7 C 4.88 g/m*3 0.7 C 0 km/h
862 27-11-2013 01:40:00 0.7 C 4.88 g/m*3 0.7 C 0 km/h
863 27-11-2013 01:45:00 0.7 C 4.88 g/m*3 0.7 C 0 km/h
864 27-11-2013 01:50:00 0.7 C 4.83 g/m*3 0.7 C 1.6 km/h
865 27-11-2013 01:55:00 0.7 C 4.83 g/m*3 0.7 C 3.2 km/h
866 27-11-2013 02:00:00 0.7 C 4.83 g/m*3 0.7 C 3.2 km/h
867 27-11-2013 02:05:00 0.7 C 4.83 g/m*3 0.7 C 3.2 km/h
868 27-11-2013 02:10:00 0.6 C 4.8 g/m*3 0.6 C 3.2 km/h
869 27-11-2013 02:15:00 0.6 C 4.8 g/m*3 0.6 C 4.8 km/h
870 27-11-2013 02:20:00 0.6 C 4.8 g/m*3 0.6 C 3.2 km/h
871 27-11-2013 02:25:00 0.6 C 4.8 g/m*3 0.6 C 3.2 km/h
872 27-11-2013 02:30:00 0.6 C 4.8 g/m*3 0.6 C 4.8 km/h
873 27-11-2013 02:35:00 0.6 C 4.8 g/m*3 0.6 C 3.2 km/h
874 27-11-2013 02:40:00 0.6 C 4.75 g/m*3 0.6 C 4.8 km/h
875 27-11-2013 02:45:00 0.6 C 4.75 g/m*3 0.6 C 3.2 km/h
Sensor: Nr:Datum:Temp:Abs-Feuchte:Windchill:Wind:
Aussen-T/F 876 27-11-2013 02:50:00 0.6 C 4.75 g/m*3 0.6 C 1.6 km/h
877 27-11-2013 02:55:00 0.6 C 4.75 g/m*3 0.6 C 3.2 km/h
878 27-11-2013 03:00:00 0.6 C 4.75 g/m*3 0.6 C 0 km/h
879 27-11-2013 03:05:00 0.6 C 4.75 g/m*3 0.6 C 1.6 km/h
880 27-11-2013 03:10:00 0.6 C 4.75 g/m*3 0.6 C 3.2 km/h
881 27-11-2013 03:15:00 0.6 C 4.75 g/m*3 0.6 C 1.6 km/h
882 27-11-2013 03:20:00 0.6 C 4.75 g/m*3 0.6 C 1.6 km/h
883 27-11-2013 03:25:00 0.6 C 4.75 g/m*3 0.6 C 0 km/h
884 27-11-2013 03:30:00 0.6 C 4.75 g/m*3 0.6 C 0 km/h
885 27-11-2013 03:35:00 0.5 C 4.71 g/m*3 0.5 C 3.2 km/h
886 27-11-2013 03:40:00 0.5 C 4.71 g/m*3 0.5 C 3.2 km/h
887 27-11-2013 03:45:00 0.5 C 4.71 g/m*3 0.5 C 4.8 km/h
888 27-11-2013 03:50:00 0.5 C 4.71 g/m*3 0.5 C 3.2 km/h
889 27-11-2013 03:55:00 0.5 C 4.71 g/m*3 0.5 C 1.6 km/h
890 27-11-2013 04:00:00 0.5 C 4.71 g/m*3 0.5 C 3.2 km/h
891 27-11-2013 04:05:00 0.4 C 4.68 g/m*3 0.4 C 1.6 km/h
892 27-11-2013 04:10:00 0.4 C 4.68 g/m*3 0.4 C 1.6 km/h
893 27-11-2013 04:15:00 0.4 C 4.68 g/m*3 0.4 C 0 km/h
894 27-11-2013 04:20:00 0.4 C 4.68 g/m*3 0.4 C 0 km/h
895 27-11-2013 04:25:00 0.4 C 4.68 g/m*3 0.4 C 0 km/h
896 27-11-2013 04:30:00 0.4 C 4.68 g/m*3 0.4 C 0 km/h
897 27-11-2013 04:35:00 0.4 C 4.68 g/m*3 0.4 C 0 km/h
898 27-11-2013 04:40:00 0.4 C 4.63 g/m*3 0.4 C 0 km/h
899 27-11-2013 04:45:00 0.4 C 4.63 g/m*3 0.4 C 0 km/h
900 27-11-2013 04:50:00 0.4 C 4.63 g/m*3 0.4 C 3.2 km/h
Sensor: Nr:Datum:Temp:Abs-Feuchte:Windchill:Wind:
Aussen-T/F 901 27-11-2013 04:55:00 0.4 C 4.63 g/m*3 0.4 C 3.2 km/h
902 27-11-2013 05:00:00 0.4 C 4.63 g/m*3 0.4 C 1.6 km/h
903 27-11-2013 05:05:00 0.3 C 4.6 g/m*3 0.3 C 3.2 km/h
904 27-11-2013 05:10:00 0.3 C 4.6 g/m*3 0.3 C 1.6 km/h
905 27-11-2013 05:15:00 0.3 C 4.6 g/m*3 0.3 C 1.6 km/h
906 27-11-2013 05:20:00 0.3 C 4.6 g/m*3 0.3 C 1.6 km/h
907 27-11-2013 05:25:00 0.3 C 4.6 g/m*3 0.3 C 1.6 km/h
908 27-11-2013 05:30:00 0.3 C 4.6 g/m*3 0.3 C 4.8 km/h
909 27-11-2013 05:35:00 0.2 C 4.57 g/m*3 -1.95 C 6.4 km/h
910 27-11-2013 05:40:00 0.2 C 4.52 g/m*3 -1.95 C 6.4 km/h
911 27-11-2013 05:45:00 0.2 C 4.52 g/m*3 -1.95 C 6.4 km/h
912 27-11-2013 05:50:00 0.2 C 4.52 g/m*3 0.2 C 1.6 km/h
913 27-11-2013 05:55:00 0.2 C 4.52 g/m*3 0.2 C 3.2 km/h
914 27-11-2013 06:00:00 0.2 C 4.52 g/m*3 0.2 C 3.2 km/h
915 27-11-2013 06:05:00 0.1 C 4.49 g/m*3 0.1 C 4.8 km/h
916 27-11-2013 06:10:00 0.1 C 4.44 g/m*3 0.1 C 3.2 km/h
917 27-11-2013 06:15:00 0.1 C 4.44 g/m*3 0.1 C 3.2 km/h
918 27-11-2013 06:20:00 0.1 C 4.49 g/m*3 0.1 C 4.8 km/h
919 27-11-2013 06:25:00 0.1 C 4.49 g/m*3 0.1 C 3.2 km/h
920 27-11-2013 06:30:00 0.1 C 4.49 g/m*3 0.1 C 0 km/h
921 27-11-2013 06:35:00 0.1 C 4.44 g/m*3 0.1 C 3.2 km/h
922 27-11-2013 06:40:00 0.1 C 4.44 g/m*3 0.1 C 3.2 km/h
923 27-11-2013 06:45:00 0 C 4.46 g/m*3 0 C 4.8 km/h
924 27-11-2013 06:50:00 0 C 4.46 g/m*3 0 C 4.8 km/h
925 27-11-2013 06:55:00 0.1 C 4.49 g/m*3 0.1 C 1.6 km/h
Sensor: Nr:Datum:Temp:Abs-Feuchte:Windchill:Wind:
Aussen-T/F 926 27-11-2013 07:00:00 0 C 4.41 g/m*3 0 C 3.2 km/h
927 27-11-2013 07:05:00 0 C 4.41 g/m*3 0 C 4.8 km/h
928 27-11-2013 07:10:00 0 C 4.46 g/m*3 0 C 4.8 km/h
929 27-11-2013 07:15:00 0 C 4.46 g/m*3 -2.77 C 8.1 km/h
930 27-11-2013 07:20:00 -0.1 C 4.38 g/m*3 -2.89 C 8.1 km/h
931 27-11-2013 07:25:00 -0.1 C 4.38 g/m*3 -0.1 C 4.8 km/h
932 27-11-2013 07:30:00 -0.2 C 4.35 g/m*3 -0.2 C 4.8 km/h
933 27-11-2013 07:35:00 -0.2 C 4.4 g/m*3 -0.2 C 4.8 km/h
934 27-11-2013 07:40:00 -0.2 C 4.4 g/m*3 -0.2 C 3.2 km/h
935 27-11-2013 07:45:00 -0.2 C 4.4 g/m*3 -0.2 C 3.2 km/h
936 27-11-2013 07:50:00 -0.2 C 4.4 g/m*3 -0.2 C 4.8 km/h
937 27-11-2013 07:55:00 -0.2 C 4.4 g/m*3 -0.2 C 3.2 km/h
938 27-11-2013 08:00:00 -0.2 C 4.35 g/m*3 -0.2 C 4.8 km/h
939 27-11-2013 08:05:00 -0.2 C 4.4 g/m*3 -0.2 C 3.2 km/h
940 27-11-2013 08:10:00 -0.2 C 4.4 g/m*3 -0.2 C 4.8 km/h
941 27-11-2013 08:15:00 -0.2 C 4.4 g/m*3 -3 C 8.1 km/h
942 27-11-2013 08:20:00 -0.2 C 4.4 g/m*3 -0.2 C 4.8 km/h
943 27-11-2013 08:25:00 -0.2 C 4.4 g/m*3 -0.2 C 1.6 km/h
944 27-11-2013 08:30:00 -0.2 C 4.4 g/m*3 -2.41 C 6.4 km/h
945 27-11-2013 08:35:00 -0.2 C 4.4 g/m*3 -2.41 C 6.4 km/h
946 27-11-2013 08:40:00 -0.2 C 4.4 g/m*3 -0.2 C 4.8 km/h
947 27-11-2013 08:45:00 -0.2 C 4.35 g/m*3 -0.2 C 4.8 km/h
948 27-11-2013 08:50:00 -0.2 C 4.35 g/m*3 -2.41 C 6.4 km/h
949 27-11-2013 08:55:00 -0.2 C 4.35 g/m*3 -0.2 C 4.8 km/h
950 27-11-2013 09:00:00 -0.2 C 4.35 g/m*3 -0.2 C 3.2 km/h
Sensor: Nr:Datum:Temp:Abs-Feuchte:Windchill:Wind:
Aussen-T/F 951 27-11-2013 09:05:00 -0.2 C 4.35 g/m*3 -0.2 C 4.8 km/h
952 27-11-2013 09:10:00 -0.1 C 4.38 g/m*3 -0.1 C 4.8 km/h
953 27-11-2013 09:15:00 -0.1 C 4.38 g/m*3 -2.3 C 6.4 km/h
954 27-11-2013 09:20:00 -0.1 C 4.38 g/m*3 -0.1 C 4.8 km/h
955 27-11-2013 09:25:00 -0.1 C 4.38 g/m*3 -0.1 C 4.8 km/h
956 27-11-2013 09:30:00 -0.1 C 4.38 g/m*3 -0.1 C 3.2 km/h
957 27-11-2013 09:35:00 0 C 4.46 g/m*3 0 C 4.8 km/h
958 27-11-2013 09:40:00 0 C 4.46 g/m*3 0 C 4.8 km/h
959 27-11-2013 09:45:00 0 C 4.46 g/m*3 -2.18 C 6.4 km/h
960 27-11-2013 09:50:00 0 C 4.46 g/m*3 0 C 3.2 km/h
961 27-11-2013 09:55:00 -0.1 C 4.38 g/m*3 -0.1 C 3.2 km/h
962 27-11-2013 10:00:00 -0.1 C 4.43 g/m*3 -0.1 C 4.8 km/h
963 27-11-2013 10:05:00 0 C 4.46 g/m*3 0 C 3.2 km/h
964 27-11-2013 10:10:00 0 C 4.41 g/m*3 -2.18 C 6.4 km/h
965 27-11-2013 10:15:00 0 C 4.41 g/m*3 -2.18 C 6.4 km/h
966 27-11-2013 10:20:00 0 C 4.46 g/m*3 -2.18 C 6.4 km/h
967 27-11-2013 10:25:00 0.1 C 4.44 g/m*3 -2.65 C 8.1 km/h
968 27-11-2013 10:30:00 0.1 C 4.44 g/m*3 -2.07 C 6.4 km/h
969 27-11-2013 10:35:00 0.2 C 4.47 g/m*3 0.2 C 4.8 km/h
970 27-11-2013 10:40:00 0.2 C 4.47 g/m*3 -1.95 C 6.4 km/h
971 27-11-2013 10:45:00 0.2 C 4.47 g/m*3 -2.53 C 8.1 km/h
972 27-11-2013 10:50:00 0.2 C 4.47 g/m*3 -2.53 C 8.1 km/h
973 27-11-2013 10:55:00 0.2 C 4.42 g/m*3 0.2 C 4.8 km/h
974 27-11-2013 11:00:00 0.2 C 4.47 g/m*3 -1.95 C 6.4 km/h
975 27-11-2013 11:05:00 0.1 C 4.39 g/m*3 -2.07 C 6.4 km/h
Sensor: Nr:Datum:Temp:Abs-Feuchte:Windchill:Wind:
Aussen-T/F 976 27-11-2013 11:10:00 0.1 C 4.39 g/m*3 0.1 C 4.8 km/h
977 27-11-2013 11:15:00 0.1 C 4.44 g/m*3 -2.65 C 8.1 km/h
978 27-11-2013 11:20:00 0.1 C 4.39 g/m*3 -2.07 C 6.4 km/h
979 27-11-2013 11:25:00 0.1 C 4.39 g/m*3 -2.07 C 6.4 km/h
980 27-11-2013 11:30:00 0.1 C 4.44 g/m*3 -2.07 C 6.4 km/h
981 27-11-2013 11:35:00 0.1 C 4.39 g/m*3 -2.07 C 6.4 km/h
982 27-11-2013 11:40:00 0.2 C 4.47 g/m*3 0.2 C 4.8 km/h
983 27-11-2013 11:45:00 0.2 C 4.42 g/m*3 -2.53 C 8.1 km/h
984 27-11-2013 11:50:00 0.2 C 4.42 g/m*3 0.2 C 4.8 km/h
985 27-11-2013 11:55:00 0.2 C 4.42 g/m*3 0.2 C 4.8 km/h
986 27-11-2013 12:00:00 0.3 C 4.5 g/m*3 0.3 C 3.2 km/h
987 27-11-2013 12:05:00 0.4 C 4.48 g/m*3 -1.72 C 6.4 km/h
988 27-11-2013 12:10:00 0.4 C 4.48 g/m*3 0.4 C 3.2 km/h
989 27-11-2013 12:15:00 0.6 C 4.54 g/m*3 0.6 C 4.8 km/h
990 27-11-2013 12:20:00 0.7 C 4.58 g/m*3 0.7 C 4.8 km/h
991 27-11-2013 12:25:00 0.8 C 4.56 g/m*3 0.8 C 4.8 km/h
992 27-11-2013 12:30:00 0.8 C 4.56 g/m*3 0.8 C 3.2 km/h
993 27-11-2013 12:35:00 0.8 C 4.56 g/m*3 0.8 C 4.8 km/h
994 27-11-2013 12:40:00 0.8 C 4.56 g/m*3 0.8 C 3.2 km/h
995 27-11-2013 12:45:00 0.8 C 4.56 g/m*3 0.8 C 3.2 km/h
996 27-11-2013 12:50:00 0.9 C 4.59 g/m*3 0.9 C 0 km/h
997 27-11-2013 12:55:00 0.9 C 4.59 g/m*3 0.9 C 0 km/h
998 27-11-2013 13:00:00 1 C 4.57 g/m*3 1 C 0 km/h
999 27-11-2013 13:05:00 1 C 4.57 g/m*3 1 C 0 km/h
1000 27-11-2013 13:10:00 1 C 4.62 g/m*3 1 C 0 km/h
Sensor: Nr:Datum:Temp:Abs-Feuchte:Windchill:Wind:
Aussen-T/F 1001 27-11-2013 13:15:00 1.1 C 4.6 g/m*3 1.1 C 1.6 km/h
1002 27-11-2013 13:20:00 1.1 C 4.65 g/m*3 1.1 C 0 km/h
1003 27-11-2013 13:25:00 1.1 C 4.65 g/m*3 1.1 C 0 km/h
1004 27-11-2013 13:30:00 1.1 C 4.65 g/m*3 1.1 C 0 km/h
1005 27-11-2013 13:35:00 1.1 C 4.65 g/m*3 1.1 C 1.6 km/h
1006 27-11-2013 13:40:00 1.2 C 4.68 g/m*3 1.2 C 1.6 km/h
1007 27-11-2013 13:45:00 1.3 C 4.72 g/m*3 1.3 C 1.6 km/h
1008 27-11-2013 13:50:00 1.3 C 4.66 g/m*3 1.3 C 1.6 km/h
1009 27-11-2013 13:55:00 1.4 C 4.69 g/m*3 1.4 C 4.8 km/h
1010 27-11-2013 14:00:00 1.4 C 4.69 g/m*3 1.4 C 3.2 km/h
1011 27-11-2013 14:05:00 1.4 C 4.75 g/m*3 1.4 C 0 km/h
1012 27-11-2013 14:10:00 1.4 C 4.75 g/m*3 1.4 C 0 km/h
1013 27-11-2013 14:15:00 1.5 C 4.78 g/m*3 1.5 C 1.6 km/h
1014 27-11-2013 14:20:00 1.6 C 4.81 g/m*3 1.6 C 0 km/h
1015 27-11-2013 14:25:00 1.6 C 4.81 g/m*3 1.6 C 3.2 km/h
1016 27-11-2013 14:30:00 1.7 C 4.85 g/m*3 1.7 C 4.8 km/h
1017 27-11-2013 14:35:00 1.8 C 4.82 g/m*3 1.8 C 3.2 km/h
1018 27-11-2013 14:40:00 1.8 C 4.82 g/m*3 1.8 C 3.2 km/h
1019 27-11-2013 14:45:00 1.8 C 4.82 g/m*3 1.8 C 1.6 km/h
1020 27-11-2013 14:50:00 1.8 C 4.82 g/m*3 1.8 C 1.6 km/h
1021 27-11-2013 14:55:00 1.8 C 4.82 g/m*3 1.8 C 0 km/h
1022 27-11-2013 15:00:00 1.7 C 4.79 g/m*3 1.7 C 0 km/h
1023 27-11-2013 15:05:00 1.7 C 4.85 g/m*3 1.7 C 0 km/h
1024 27-11-2013 15:10:00 1.6 C 4.81 g/m*3 1.6 C 3.2 km/h
1025 27-11-2013 15:15:00 1.6 C 4.81 g/m*3 1.6 C 0 km/h
Sensor: Nr:Datum:Temp:Abs-Feuchte:Windchill:Wind:
Aussen-T/F 1026 27-11-2013 15:20:00 1.5 C 4.83 g/m*3 1.5 C 0 km/h
1027 27-11-2013 15:25:00 1.4 C 4.8 g/m*3 1.4 C 0 km/h
1028 27-11-2013 15:30:00 1.4 C 4.8 g/m*3 1.4 C 0 km/h
1029 27-11-2013 15:35:00 1.4 C 4.8 g/m*3 1.4 C 0 km/h
1030 27-11-2013 15:40:00 1.2 C 4.74 g/m*3 1.2 C 0 km/h
1031 27-11-2013 15:45:00 1.1 C 4.76 g/m*3 1.1 C 0 km/h
1032 27-11-2013 15:50:00 1 C 4.72 g/m*3 1 C 1.6 km/h
1033 27-11-2013 15:55:00 0.9 C 4.74 g/m*3 0.9 C 0 km/h
1034 27-11-2013 16:00:00 0.9 C 4.74 g/m*3 0.9 C 0 km/h
1035 27-11-2013 16:05:00 0.9 C 4.74 g/m*3 0.9 C 0 km/h
1036 27-11-2013 16:10:00 0.8 C 4.71 g/m*3 0.8 C 0 km/h
1037 27-11-2013 16:15:00 0.8 C 4.71 g/m*3 0.8 C 0 km/h
1038 27-11-2013 16:20:00 0.7 C 4.73 g/m*3 0.7 C 0 km/h
1039 27-11-2013 16:25:00 0.7 C 4.73 g/m*3 0.7 C 0 km/h
1040 27-11-2013 16:30:00 0.7 C 4.73 g/m*3 0.7 C 0 km/h
1041 27-11-2013 16:35:00 0.7 C 4.73 g/m*3 0.7 C 0 km/h
1042 27-11-2013 16:40:00 0.7 C 4.73 g/m*3 0.7 C 0 km/h
1043 27-11-2013 16:45:00 0.6 C 4.7 g/m*3 0.6 C 0 km/h
1044 27-11-2013 16:50:00 0.6 C 4.7 g/m*3 0.6 C 0 km/h
1045 27-11-2013 16:55:00 0.5 C 4.66 g/m*3 0.5 C 0 km/h
1046 27-11-2013 17:00:00 0.5 C 4.66 g/m*3 0.5 C 0 km/h
1047 27-11-2013 17:05:00 0.5 C 4.66 g/m*3 0.5 C 0 km/h
1048 27-11-2013 17:10:00 0.5 C 4.71 g/m*3 0.5 C 1.6 km/h
1049 27-11-2013 17:15:00 0.5 C 4.71 g/m*3 0.5 C 0 km/h
1050 27-11-2013 17:20:00 0.6 C 4.75 g/m*3 0.6 C 0 km/h
Sensor: Nr:Datum:Temp:Abs-Feuchte:Windchill:Wind:
Aussen-T/F 1051 27-11-2013 17:25:00 0.6 C 4.75 g/m*3 0.6 C 0 km/h
1052 27-11-2013 17:30:00 0.6 C 4.75 g/m*3 0.6 C 0 km/h
1053 27-11-2013 17:35:00 0.5 C 4.71 g/m*3 0.5 C 0 km/h
1054 27-11-2013 17:40:00 0.5 C 4.71 g/m*3 0.5 C 0 km/h
1055 27-11-2013 17:45:00 0.5 C 4.71 g/m*3 0.5 C 0 km/h
1056 27-11-2013 17:50:00 0.5 C 4.71 g/m*3 0.5 C 0 km/h
1057 27-11-2013 17:55:00 0.6 C 4.75 g/m*3 0.6 C 0 km/h
1058 27-11-2013 18:00:00 0.6 C 4.75 g/m*3 0.6 C 0 km/h
1059 27-11-2013 18:05:00 0.7 C 4.78 g/m*3 0.7 C 0 km/h
1060 27-11-2013 18:10:00 0.7 C 4.78 g/m*3 0.7 C 0 km/h
1061 27-11-2013 18:15:00 0.7 C 4.78 g/m*3 0.7 C 0 km/h
1062 27-11-2013 18:20:00 0.7 C 4.78 g/m*3 0.7 C 0 km/h
1063 27-11-2013 18:25:00 0.8 C 4.81 g/m*3 0.8 C 0 km/h
1064 27-11-2013 18:30:00 0.8 C 4.81 g/m*3 0.8 C 0 km/h
1065 27-11-2013 18:35:00 0.8 C 4.81 g/m*3 0.8 C 0 km/h
1066 27-11-2013 18:40:00 0.8 C 4.81 g/m*3 0.8 C 0 km/h
1067 27-11-2013 18:45:00 0.8 C 4.81 g/m*3 0.8 C 0 km/h
1068 27-11-2013 18:50:00 0.8 C 4.81 g/m*3 0.8 C 0 km/h
1069 27-11-2013 18:55:00 0.9 C 4.85 g/m*3 0.9 C 0 km/h
1070 27-11-2013 19:00:00 0.9 C 4.85 g/m*3 0.9 C 0 km/h
1071 27-11-2013 19:05:00 0.9 C 4.85 g/m*3 0.9 C 0 km/h
1072 27-11-2013 19:10:00 1 C 4.88 g/m*3 1 C 0 km/h
1073 27-11-2013 19:15:00 1 C 4.88 g/m*3 1 C 0 km/h
1074 27-11-2013 19:20:00 1.1 C 4.91 g/m*3 1.1 C 0 km/h
1075 27-11-2013 19:25:00 1.1 C 4.91 g/m*3 1.1 C 0 km/h
Sensor: Nr:Datum:Temp:Abs-Feuchte:Windchill:Wind:
Aussen-T/F 1076 27-11-2013 19:30:00 1.1 C 4.91 g/m*3 1.1 C 0 km/h
1077 27-11-2013 19:35:00 1.1 C 4.86 g/m*3 1.1 C 0 km/h
1078 27-11-2013 19:40:00 1.1 C 4.86 g/m*3 1.1 C 0 km/h
1079 27-11-2013 19:45:00 1.1 C 4.86 g/m*3 1.1 C 0 km/h
1080 27-11-2013 19:50:00 1 C 4.83 g/m*3 1 C 0 km/h
1081 27-11-2013 19:55:00 1 C 4.83 g/m*3 1 C 0 km/h
1082 27-11-2013 20:00:00 1 C 4.83 g/m*3 1 C 0 km/h
1083 27-11-2013 20:05:00 0.9 C 4.79 g/m*3 0.9 C 0 km/h
1084 27-11-2013 20:10:00 0.9 C 4.79 g/m*3 0.9 C 0 km/h
1085 27-11-2013 20:15:00 0.8 C 4.76 g/m*3 0.8 C 0 km/h
1086 27-11-2013 20:20:00 0.8 C 4.76 g/m*3 0.8 C 0 km/h
1087 27-11-2013 20:25:00 0.7 C 4.73 g/m*3 0.7 C 0 km/h
1088 27-11-2013 20:30:00 0.7 C 4.78 g/m*3 0.7 C 0 km/h
1089 27-11-2013 20:35:00 0.6 C 4.75 g/m*3 0.6 C 0 km/h
1090 27-11-2013 20:40:00 0.5 C 4.71 g/m*3 0.5 C 1.6 km/h
1091 27-11-2013 20:45:00 0.5 C 4.71 g/m*3 0.5 C 0 km/h
1092 27-11-2013 20:50:00 0.5 C 4.71 g/m*3 0.5 C 0 km/h
1093 27-11-2013 20:55:00 0.6 C 4.75 g/m*3 0.6 C 0 km/h
1094 27-11-2013 21:00:00 0.7 C 4.78 g/m*3 0.7 C 0 km/h
1095 27-11-2013 21:05:00 0.7 C 4.78 g/m*3 0.7 C 0 km/h
1096 27-11-2013 21:10:00 0.8 C 4.81 g/m*3 0.8 C 0 km/h
1097 27-11-2013 21:15:00 0.8 C 4.81 g/m*3 0.8 C 0 km/h
1098 27-11-2013 21:20:00 0.8 C 4.81 g/m*3 0.8 C 0 km/h
1099 27-11-2013 21:25:00 0.9 C 4.85 g/m*3 0.9 C 0 km/h
1100 27-11-2013 21:30:00 0.9 C 4.85 g/m*3 0.9 C 0 km/h
Sensor: Nr:Datum:Temp:Abs-Feuchte:Windchill:Wind:
Aussen-T/F 1101 27-11-2013 21:35:00 0.9 C 4.85 g/m*3 0.9 C 0 km/h
1102 27-11-2013 21:40:00 0.9 C 4.85 g/m*3 0.9 C 0 km/h
1103 27-11-2013 21:45:00 1 C 4.88 g/m*3 1 C 0 km/h
1104 27-11-2013 21:50:00 1 C 4.88 g/m*3 1 C 0 km/h
1105 27-11-2013 21:55:00 1.1 C 4.91 g/m*3 1.1 C 0 km/h
1106 27-11-2013 22:00:00 1.1 C 4.91 g/m*3 1.1 C 0 km/h
1107 27-11-2013 22:05:00 1.1 C 4.91 g/m*3 1.1 C 0 km/h
1108 27-11-2013 22:10:00 1.1 C 4.91 g/m*3 1.1 C 0 km/h
1109 27-11-2013 22:15:00 1.2 C 4.95 g/m*3 1.2 C 0 km/h
1110 27-11-2013 22:20:00 1.2 C 4.95 g/m*3 1.2 C 0 km/h
1111 27-11-2013 22:25:00 1.2 C 4.95 g/m*3 1.2 C 0 km/h
1112 27-11-2013 22:30:00 1.2 C 4.95 g/m*3 1.2 C 0 km/h
1113 27-11-2013 22:35:00 1.3 C 4.98 g/m*3 1.3 C 0 km/h
1114 27-11-2013 22:40:00 1.3 C 4.98 g/m*3 1.3 C 0 km/h
1115 27-11-2013 22:45:00 1.3 C 4.98 g/m*3 1.3 C 0 km/h
1116 27-11-2013 22:50:00 1.3 C 4.98 g/m*3 1.3 C 0 km/h
1117 27-11-2013 22:55:00 1.3 C 4.98 g/m*3 1.3 C 0 km/h
1118 27-11-2013 23:00:00 1.4 C 5.01 g/m*3 1.4 C 0 km/h
1119 27-11-2013 23:05:00 1.4 C 5.01 g/m*3 1.4 C 0 km/h
1120 27-11-2013 23:10:00 1.4 C 5.01 g/m*3 1.4 C 0 km/h
1121 27-11-2013 23:15:00 1.4 C 5.01 g/m*3 1.4 C 0 km/h
1122 27-11-2013 23:20:00 1.4 C 5.01 g/m*3 1.4 C 0 km/h
1123 27-11-2013 23:25:00 1.5 C 4.99 g/m*3 1.5 C 0 km/h
1124 27-11-2013 23:30:00 1.5 C 4.99 g/m*3 1.5 C 0 km/h
1125 27-11-2013 23:35:00 1.5 C 4.99 g/m*3 1.5 C 0 km/h
Sensor: Nr:Datum:Temp:Abs-Feuchte:Windchill:Wind:
Aussen-T/F 1126 27-11-2013 23:40:00 1.5 C 4.99 g/m*3 1.5 C 0 km/h
1127 27-11-2013 23:45:00 1.5 C 4.99 g/m*3 1.5 C 0 km/h
1128 27-11-2013 23:50:00 1.6 C 5.03 g/m*3 1.6 C 0 km/h
1129 27-11-2013 23:55:00 1.6 C 5.03 g/m*3 1.6 C 0 km/h
1130 28-11-2013 00:00:00 1.6 C 5.03 g/m*3 1.6 C 0 km/h
1131 28-11-2013 00:05:00 1.6 C 5.03 g/m*3 1.6 C 0 km/h
1132 28-11-2013 00:10:00 1.6 C 5.03 g/m*3 1.6 C 0 km/h
1133 28-11-2013 00:15:00 1.6 C 5.03 g/m*3 1.6 C 0 km/h
1134 28-11-2013 00:20:00 1.6 C 5.03 g/m*3 1.6 C 0 km/h
1135 28-11-2013 00:25:00 1.6 C 5.03 g/m*3 1.6 C 0 km/h
1136 28-11-2013 00:30:00 1.6 C 5.03 g/m*3 1.6 C 0 km/h
1137 28-11-2013 00:35:00 1.6 C 5.03 g/m*3 1.6 C 0 km/h
1138 28-11-2013 00:40:00 1.7 C 5.06 g/m*3 1.7 C 0 km/h
1139 28-11-2013 00:45:00 1.7 C 5.06 g/m*3 1.7 C 0 km/h
1140 28-11-2013 00:50:00 1.7 C 5.06 g/m*3 1.7 C 0 km/h
1141 28-11-2013 00:55:00 1.8 C 5.1 g/m*3 1.8 C 0 km/h
1142 28-11-2013 01:00:00 1.8 C 5.1 g/m*3 1.8 C 0 km/h
1143 28-11-2013 01:05:00 1.8 C 5.1 g/m*3 1.8 C 1.6 km/h
1144 28-11-2013 01:10:00 1.8 C 5.04 g/m*3 1.8 C 1.6 km/h
1145 28-11-2013 01:15:00 1.9 C 5.02 g/m*3 1.9 C 0 km/h
1146 28-11-2013 01:20:00 1.9 C 5.02 g/m*3 1.9 C 1.6 km/h
1147 28-11-2013 01:25:00 2 C 5.06 g/m*3 2 C 1.6 km/h
1148 28-11-2013 01:30:00 2.1 C 5.15 g/m*3 2.1 C 1.6 km/h
1149 28-11-2013 01:35:00 2.1 C 5.15 g/m*3 2.1 C 0 km/h
1150 28-11-2013 01:40:00 2.1 C 5.15 g/m*3 2.1 C 1.6 km/h
Sensor: Nr:Datum:Temp:Abs-Feuchte:Windchill:Wind:
Aussen-T/F 1151 28-11-2013 01:45:00 2.1 C 5.15 g/m*3 2.1 C 3.2 km/h
1152 28-11-2013 01:50:00 2 C 5.06 g/m*3 2 C 3.2 km/h
1153 28-11-2013 01:55:00 2.1 C 5.04 g/m*3 2.1 C 1.6 km/h
1154 28-11-2013 02:00:00 2.2 C 5.01 g/m*3 -0.61 C 9.7 km/h
1155 28-11-2013 02:05:00 2.3 C 5.05 g/m*3 2.3 C 4.8 km/h
1156 28-11-2013 02:10:00 2.3 C 4.99 g/m*3 2.3 C 3.2 km/h
1157 28-11-2013 02:15:00 2.3 C 5.05 g/m*3 2.3 C 1.6 km/h
1158 28-11-2013 02:20:00 2.3 C 5.05 g/m*3 2.3 C 3.2 km/h
1159 28-11-2013 02:25:00 2.3 C 4.99 g/m*3 -0.49 C 9.7 km/h
1160 28-11-2013 02:30:00 2.4 C 5.02 g/m*3 0.05 C 8.1 km/h
1161 28-11-2013 02:35:00 2.5 C 5.06 g/m*3 0.71 C 6.4 km/h
1162 28-11-2013 02:40:00 2.5 C 5.06 g/m*3 2.5 C 4.8 km/h
1163 28-11-2013 02:45:00 2.5 C 5.06 g/m*3 2.5 C 1.6 km/h
1164 28-11-2013 02:50:00 2.4 C 5.02 g/m*3 2.4 C 4.8 km/h
1165 28-11-2013 02:55:00 2.5 C 5.06 g/m*3 0.17 C 8.1 km/h
1166 28-11-2013 03:00:00 2.5 C 5.06 g/m*3 2.5 C 3.2 km/h
1167 28-11-2013 03:05:00 2.6 C 5.09 g/m*3 2.6 C 4.8 km/h
1168 28-11-2013 03:10:00 2.6 C 5.09 g/m*3 2.6 C 1.6 km/h
1169 28-11-2013 03:15:00 2.6 C 5.09 g/m*3 2.6 C 3.2 km/h
1170 28-11-2013 03:20:00 2.6 C 5.15 g/m*3 2.6 C 0 km/h
1171 28-11-2013 03:25:00 2.5 C 5.17 g/m*3 2.5 C 1.6 km/h
1172 28-11-2013 03:30:00 2.5 C 5.17 g/m*3 2.5 C 3.2 km/h
1173 28-11-2013 03:35:00 2.5 C 5.17 g/m*3 2.5 C 4.8 km/h
1174 28-11-2013 03:40:00 2.4 C 5.14 g/m*3 2.4 C 1.6 km/h
1175 28-11-2013 03:45:00 2.4 C 5.2 g/m*3 2.4 C 1.6 km/h
Sensor: Nr:Datum:Temp:Abs-Feuchte:Windchill:Wind:
Aussen-T/F 1176 28-11-2013 03:50:00 2.4 C 5.2 g/m*3 2.4 C 1.6 km/h
1177 28-11-2013 03:55:00 2.4 C 5.2 g/m*3 2.4 C 0 km/h
1178 28-11-2013 04:00:00 2.4 C 5.2 g/m*3 2.4 C 1.6 km/h
1179 28-11-2013 04:05:00 2.4 C 5.14 g/m*3 2.4 C 0 km/h
1180 28-11-2013 04:10:00 2.4 C 5.14 g/m*3 2.4 C 3.2 km/h
1181 28-11-2013 04:15:00 2.5 C 5.17 g/m*3 2.5 C 3.2 km/h
1182 28-11-2013 04:20:00 2.5 C 5.17 g/m*3 0.71 C 6.4 km/h
1183 28-11-2013 04:25:00 2.6 C 5.21 g/m*3 2.6 C 3.2 km/h
1184 28-11-2013 04:30:00 2.6 C 5.21 g/m*3 2.6 C 0 km/h
1185 28-11-2013 04:35:00 2.6 C 5.27 g/m*3 2.6 C 0 km/h
1186 28-11-2013 04:40:00 2.6 C 5.27 g/m*3 2.6 C 0 km/h
1187 28-11-2013 04:45:00 2.6 C 5.27 g/m*3 2.6 C 0 km/h
1188 28-11-2013 04:50:00 2.6 C 5.27 g/m*3 2.6 C 0 km/h
1189 28-11-2013 04:55:00 2.6 C 5.27 g/m*3 2.6 C 0 km/h
1190 28-11-2013 05:00:00 2.6 C 5.27 g/m*3 2.6 C 0 km/h
1191 28-11-2013 05:05:00 2.6 C 5.27 g/m*3 2.6 C 1.6 km/h
1192 28-11-2013 05:10:00 2.6 C 5.27 g/m*3 2.6 C 0 km/h
1193 28-11-2013 05:15:00 2.6 C 5.27 g/m*3 2.6 C 0 km/h
1194 28-11-2013 05:20:00 2.6 C 5.32 g/m*3 2.6 C 0 km/h
1195 28-11-2013 05:25:00 2.6 C 5.27 g/m*3 2.6 C 0 km/h
1196 28-11-2013 05:30:00 2.6 C 5.27 g/m*3 2.6 C 0 km/h
1197 28-11-2013 05:35:00 2.7 C 5.24 g/m*3 2.7 C 0 km/h
1198 28-11-2013 05:40:00 2.7 C 5.3 g/m*3 2.7 C 1.6 km/h
1199 28-11-2013 05:45:00 2.7 C 5.24 g/m*3 2.7 C 0 km/h
1200 28-11-2013 05:50:00 2.7 C 5.24 g/m*3 2.7 C 0 km/h
Sensor: Nr:Datum:Temp:Abs-Feuchte:Windchill:Wind:
Aussen-T/F 1201 28-11-2013 05:55:00 2.7 C 5.24 g/m*3 2.7 C 3.2 km/h
1202 28-11-2013 06:00:00 2.7 C 5.24 g/m*3 2.7 C 3.2 km/h
1203 28-11-2013 06:05:00 2.7 C 5.3 g/m*3 0.94 C 6.4 km/h
1204 28-11-2013 06:10:00 2.7 C 5.3 g/m*3 0.4 C 8.1 km/h
1205 28-11-2013 06:15:00 2.7 C 5.3 g/m*3 2.7 C 0 km/h
1206 28-11-2013 06:20:00 2.7 C 5.36 g/m*3 2.7 C 1.6 km/h
1207 28-11-2013 06:25:00 2.7 C 5.36 g/m*3 2.7 C 0 km/h
1208 28-11-2013 06:30:00 2.7 C 5.36 g/m*3 2.7 C 1.6 km/h
1209 28-11-2013 06:35:00 2.7 C 5.36 g/m*3 2.7 C 1.6 km/h
1210 28-11-2013 06:40:00 2.7 C 5.36 g/m*3 2.7 C 1.6 km/h
1211 28-11-2013 06:45:00 2.7 C 5.42 g/m*3 2.7 C 0 km/h
1212 28-11-2013 06:50:00 2.6 C 5.38 g/m*3 2.6 C 1.6 km/h
1213 28-11-2013 06:55:00 2.6 C 5.38 g/m*3 2.6 C 0 km/h
1214 28-11-2013 07:00:00 2.6 C 5.38 g/m*3 2.6 C 0 km/h
1215 28-11-2013 07:05:00 2.6 C 5.44 g/m*3 2.6 C 0 km/h
1216 28-11-2013 07:10:00 2.6 C 5.44 g/m*3 2.6 C 0 km/h
1217 28-11-2013 07:15:00 2.6 C 5.44 g/m*3 2.6 C 0 km/h
1218 28-11-2013 07:20:00 2.6 C 5.44 g/m*3 2.6 C 3.2 km/h
1219 28-11-2013 07:25:00 2.6 C 5.44 g/m*3 2.6 C 0 km/h
1220 28-11-2013 07:30:00 2.6 C 5.44 g/m*3 2.6 C 0 km/h
1221 28-11-2013 07:35:00 2.6 C 5.5 g/m*3 2.6 C 0 km/h
1222 28-11-2013 07:40:00 2.6 C 5.5 g/m*3 2.6 C 0 km/h
1223 28-11-2013 07:45:00 2.6 C 5.5 g/m*3 2.6 C 3.2 km/h
1224 28-11-2013 07:50:00 2.6 C 5.5 g/m*3 2.6 C 4.8 km/h
1225 28-11-2013 07:55:00 2.6 C 5.5 g/m*3 0.82 C 6.4 km/h
Sensor: Nr:Datum:Temp:Abs-Feuchte:Windchill:Wind:
Aussen-T/F 1226 28-11-2013 08:00:00 2.5 C 5.46 g/m*3 2.5 C 3.2 km/h
1227 28-11-2013 08:05:00 2.5 C 5.46 g/m*3 0.71 C 6.4 km/h
1228 28-11-2013 08:10:00 2.5 C 5.46 g/m*3 2.5 C 3.2 km/h
1229 28-11-2013 08:15:00 2.5 C 5.46 g/m*3 2.5 C 1.6 km/h
1230 28-11-2013 08:20:00 2.5 C 5.52 g/m*3 2.5 C 0 km/h
1231 28-11-2013 08:25:00 2.5 C 5.52 g/m*3 2.5 C 0 km/h
1232 28-11-2013 08:30:00 2.5 C 5.52 g/m*3 2.5 C 0 km/h
1233 28-11-2013 08:35:00 2.5 C 5.52 g/m*3 2.5 C 3.2 km/h
1234 28-11-2013 08:40:00 2.5 C 5.52 g/m*3 2.5 C 0 km/h
1235 28-11-2013 08:45:00 2.5 C 5.52 g/m*3 2.5 C 0 km/h
1236 28-11-2013 08:50:00 2.5 C 5.52 g/m*3 2.5 C 4.8 km/h
1237 28-11-2013 08:55:00 2.5 C 5.52 g/m*3 2.5 C 4.8 km/h
1238 28-11-2013 09:00:00 2.5 C 5.52 g/m*3 2.5 C 3.2 km/h
1239 28-11-2013 09:05:00 2.6 C 5.56 g/m*3 2.6 C 4.8 km/h
1240 28-11-2013 09:10:00 2.6 C 5.56 g/m*3 2.6 C 3.2 km/h
1241 28-11-2013 09:15:00 2.6 C 5.56 g/m*3 2.6 C 3.2 km/h
1242 28-11-2013 09:20:00 2.6 C 5.56 g/m*3 2.6 C 1.6 km/h
1243 28-11-2013 09:25:00 2.6 C 5.56 g/m*3 2.6 C 0 km/h
1244 28-11-2013 09:30:00 2.6 C 5.56 g/m*3 2.6 C 1.6 km/h
1245 28-11-2013 09:35:00 2.6 C 5.56 g/m*3 2.6 C 1.6 km/h
1246 28-11-2013 09:40:00 2.6 C 5.56 g/m*3 2.6 C 3.2 km/h
1247 28-11-2013 09:45:00 2.6 C 5.56 g/m*3 2.6 C 3.2 km/h
1248 28-11-2013 09:50:00 2.7 C 5.59 g/m*3 2.7 C 3.2 km/h
1249 28-11-2013 09:55:00 2.7 C 5.59 g/m*3 0.94 C 6.4 km/h
1250 28-11-2013 10:00:00 2.7 C 5.59 g/m*3 2.7 C 4.8 km/h
Sensor: Nr:Datum:Temp:Abs-Feuchte:Windchill:Wind:
Aussen-T/F 1251 28-11-2013 10:05:00 2.8 C 5.63 g/m*3 1.05 C 6.4 km/h
1252 28-11-2013 10:10:00 2.8 C 5.63 g/m*3 0.52 C 8.1 km/h
1253 28-11-2013 10:15:00 2.8 C 5.63 g/m*3 2.8 C 4.8 km/h
1254 28-11-2013 10:20:00 2.9 C 5.73 g/m*3 2.9 C 4.8 km/h
1255 28-11-2013 10:25:00 2.9 C 5.67 g/m*3 2.9 C 3.2 km/h
1256 28-11-2013 10:30:00 3 C 5.71 g/m*3 3 C 3.2 km/h
1257 28-11-2013 10:35:00 3.1 C 5.75 g/m*3 3.1 C 3.2 km/h
1258 28-11-2013 10:40:00 3.1 C 5.81 g/m*3 3.1 C 4.8 km/h
1259 28-11-2013 10:45:00 3.1 C 5.81 g/m*3 3.1 C 3.2 km/h
1260 28-11-2013 10:50:00 3.1 C 5.81 g/m*3 3.1 C 1.6 km/h
1261 28-11-2013 10:55:00 3.2 C 5.79 g/m*3 3.2 C 1.6 km/h
1262 28-11-2013 11:00:00 3.2 C 5.79 g/m*3 3.2 C 3.2 km/h
1263 28-11-2013 11:05:00 3.2 C 5.79 g/m*3 3.2 C 3.2 km/h
1264 28-11-2013 11:10:00 3.3 C 5.82 g/m*3 3.3 C 3.2 km/h
1265 28-11-2013 11:15:00 3.3 C 5.82 g/m*3 3.3 C 3.2 km/h
1266 28-11-2013 11:20:00 3.3 C 5.88 g/m*3 3.3 C 4.8 km/h
1267 28-11-2013 11:25:00 3.4 C 5.86 g/m*3 3.4 C 4.8 km/h
1268 28-11-2013 11:30:00 3.5 C 5.9 g/m*3 1.86 C 6.4 km/h
1269 28-11-2013 11:35:00 3.5 C 5.9 g/m*3 1.86 C 6.4 km/h
1270 28-11-2013 11:40:00 3.6 C 5.94 g/m*3 3.6 C 4.8 km/h
1271 28-11-2013 11:45:00 3.7 C 5.98 g/m*3 3.7 C 4.8 km/h
1272 28-11-2013 11:50:00 3.6 C 5.94 g/m*3 1.98 C 6.4 km/h
1273 28-11-2013 11:55:00 3.7 C 5.98 g/m*3 2.09 C 6.4 km/h
1274 28-11-2013 12:00:00 3.7 C 5.98 g/m*3 3.7 C 4.8 km/h
1275 28-11-2013 12:05:00 3.8 C 6.02 g/m*3 3.8 C 3.2 km/h
Sensor: Nr:Datum:Temp:Abs-Feuchte:Windchill:Wind:
Aussen-T/F 1276 28-11-2013 12:10:00 3.8 C 6.02 g/m*3 3.8 C 4.8 km/h
1277 28-11-2013 12:15:00 3.8 C 6.02 g/m*3 2.21 C 6.4 km/h
1278 28-11-2013 12:20:00 3.9 C 6.06 g/m*3 3.9 C 4.8 km/h
1279 28-11-2013 12:25:00 3.9 C 6.06 g/m*3 3.9 C 3.2 km/h
1280 28-11-2013 12:30:00 3.9 C 6.06 g/m*3 3.9 C 4.8 km/h
1281 28-11-2013 12:35:00 4 C 6.1 g/m*3 4 C 4.8 km/h
1282 28-11-2013 12:40:00 4.1 C 6.14 g/m*3 4.1 C 4.8 km/h
1283 28-11-2013 12:45:00 4.1 C 6.14 g/m*3 2.55 C 6.4 km/h
1284 28-11-2013 12:50:00 4.1 C 6.14 g/m*3 2.55 C 6.4 km/h
1285 28-11-2013 12:55:00 4.1 C 6.14 g/m*3 2.05 C 8.1 km/h
1286 28-11-2013 13:00:00 4.1 C 6.14 g/m*3 2.05 C 8.1 km/h
1287 28-11-2013 13:05:00 4.2 C 6.19 g/m*3 2.67 C 6.4 km/h
1288 28-11-2013 13:10:00 4.1 C 6.14 g/m*3 2.55 C 6.4 km/h
1289 28-11-2013 13:15:00 4.1 C 6.14 g/m*3 2.05 C 8.1 km/h
1290 28-11-2013 13:20:00 4.1 C 6.14 g/m*3 4.1 C 3.2 km/h
1291 28-11-2013 13:25:00 4.1 C 6.14 g/m*3 4.1 C 3.2 km/h
1292 28-11-2013 13:30:00 4.1 C 6.14 g/m*3 4.1 C 4.8 km/h
1293 28-11-2013 13:35:00 4.1 C 6.14 g/m*3 4.1 C 3.2 km/h
1294 28-11-2013 13:40:00 4.1 C 6.14 g/m*3 4.1 C 0 km/h
1295 28-11-2013 13:45:00 4.1 C 6.14 g/m*3 4.1 C 0 km/h
1296 28-11-2013 13:50:00 4.1 C 6.14 g/m*3 4.1 C 3.2 km/h
1297 28-11-2013 13:55:00 4.1 C 6.14 g/m*3 4.1 C 4.8 km/h
1298 28-11-2013 14:00:00 4.2 C 6.19 g/m*3 4.2 C 3.2 km/h
1299 28-11-2013 14:05:00 4.2 C 6.19 g/m*3 4.2 C 1.6 km/h
1300 28-11-2013 14:10:00 4.2 C 6.19 g/m*3 4.2 C 4.8 km/h
Sensor: Nr:Datum:Temp:Abs-Feuchte:Windchill:Wind:
Aussen-T/F 1301 28-11-2013 14:15:00 4.3 C 6.23 g/m*3 4.3 C 3.2 km/h
1302 28-11-2013 14:20:00 4.3 C 6.23 g/m*3 4.3 C 4.8 km/h
1303 28-11-2013 14:25:00 4.3 C 6.23 g/m*3 4.3 C 4.8 km/h
1304 28-11-2013 14:30:00 4.3 C 6.23 g/m*3 2.78 C 6.4 km/h
1305 28-11-2013 14:35:00 4.3 C 6.23 g/m*3 4.3 C 4.8 km/h
1306 28-11-2013 14:40:00 4.3 C 6.23 g/m*3 4.3 C 4.8 km/h
1307 28-11-2013 14:45:00 4.3 C 6.23 g/m*3 2.78 C 6.4 km/h
1308 28-11-2013 14:50:00 4.3 C 6.23 g/m*3 4.3 C 1.6 km/h
1309 28-11-2013 14:55:00 4.3 C 6.23 g/m*3 2.78 C 6.4 km/h
1310 28-11-2013 15:00:00 4.3 C 6.29 g/m*3 4.3 C 4.8 km/h
1311 28-11-2013 15:05:00 4.4 C 6.27 g/m*3 4.4 C 3.2 km/h
1312 28-11-2013 15:10:00 4.4 C 6.27 g/m*3 4.4 C 1.6 km/h
1313 28-11-2013 15:15:00 4.4 C 6.27 g/m*3 4.4 C 1.6 km/h
1314 28-11-2013 16:00:00 4.4 C 6.27 g/m*3 4.4 C 1.6 km/h
1315 28-11-2013 16:05:00 4.4 C 6.27 g/m*3 4.4 C 3.2 km/h
1316 28-11-2013 16:10:00 4.4 C 6.27 g/m*3 4.4 C 0 km/h
1317 28-11-2013 16:15:00 4.5 C 6.31 g/m*3 4.5 C 0 km/h
1318 28-11-2013 16:20:00 4.5 C 6.31 g/m*3 4.5 C 0 km/h
1319 28-11-2013 16:25:00 4.5 C 6.31 g/m*3 3.02 C 6.4 km/h
1320 28-11-2013 16:30:00 4.5 C 6.31 g/m*3 4.5 C 1.6 km/h
1321 28-11-2013 16:35:00 4.5 C 6.31 g/m*3 4.5 C 0 km/h
1322 28-11-2013 16:40:00 4.5 C 6.31 g/m*3 4.5 C 4.8 km/h
1323 28-11-2013 16:45:00 4.5 C 6.31 g/m*3 4.5 C 0 km/h
1324 28-11-2013 16:50:00 4.4 C 6.27 g/m*3 4.4 C 4.8 km/h
1325 28-11-2013 16:55:00 4.4 C 6.27 g/m*3 4.4 C 1.6 km/h
Sensor: Nr:Datum:Temp:Abs-Feuchte:Windchill:Wind:
Aussen-T/F 1326 28-11-2013 17:00:00 4.5 C 6.31 g/m*3 4.5 C 3.2 km/h
1327 28-11-2013 17:05:00 4.5 C 6.31 g/m*3 4.5 C 4.8 km/h
1328 28-11-2013 17:10:00 4.5 C 6.31 g/m*3 4.5 C 4.8 km/h
1329 28-11-2013 17:15:00 4.5 C 6.31 g/m*3 2.13 C 9.7 km/h
1330 28-11-2013 17:20:00 4.5 C 6.31 g/m*3 4.5 C 0 km/h
1331 28-11-2013 17:25:00 4.6 C 6.35 g/m*3 4.6 C 4.8 km/h
1332 28-11-2013 17:30:00 4.6 C 6.35 g/m*3 4.6 C 1.6 km/h
1333 28-11-2013 17:35:00 4.7 C 6.39 g/m*3 4.7 C 0 km/h
1334 28-11-2013 17:40:00 4.7 C 6.39 g/m*3 4.7 C 3.2 km/h
1335 28-11-2013 17:45:00 4.7 C 6.39 g/m*3 4.7 C 4.8 km/h
1336 28-11-2013 17:50:00 4.7 C 6.39 g/m*3 4.7 C 0 km/h
1337 28-11-2013 17:55:00 4.7 C 6.39 g/m*3 2.76 C 8.1 km/h
1338 28-11-2013 18:00:00 4.7 C 6.39 g/m*3 4.7 C 3.2 km/h
1339 28-11-2013 18:05:00 4.7 C 6.39 g/m*3 4.7 C 4.8 km/h
1340 28-11-2013 18:10:00 4.7 C 6.39 g/m*3 2.76 C 8.1 km/h
1341 28-11-2013 18:15:00 4.7 C 6.39 g/m*3 2.37 C 9.7 km/h
1342 28-11-2013 18:20:00 4.7 C 6.39 g/m*3 4.7 C 4.8 km/h
1343 28-11-2013 18:25:00 4.7 C 6.39 g/m*3 4.7 C 3.2 km/h
1344 28-11-2013 18:30:00 4.7 C 6.39 g/m*3 4.7 C 4.8 km/h
1345 28-11-2013 19:35:00 4.7 C 6.39 g/m*3 4.7 C 3.2 km/h
1346 28-11-2013 19:40:00 4.7 C 6.39 g/m*3 4.7 C 3.2 km/h
1347 28-11-2013 19:45:00 4.7 C 6.39 g/m*3 4.7 C 4.8 km/h
1348 28-11-2013 19:50:00 4.8 C 6.44 g/m*3 3.36 C 6.4 km/h
1349 28-11-2013 19:55:00 4.8 C 6.44 g/m*3 4.8 C 4.8 km/h
1350 28-11-2013 20:00:00 4.8 C 6.44 g/m*3 4.8 C 3.2 km/h
Sensor: Nr:Datum:Temp:Abs-Feuchte:Windchill:Wind:
Aussen-T/F 1351 28-11-2013 20:05:00 4.8 C 6.44 g/m*3 4.8 C 4.8 km/h
1352 28-11-2013 20:10:00 4.8 C 6.44 g/m*3 3.36 C 6.4 km/h
1353 28-11-2013 20:15:00 4.8 C 6.44 g/m*3 4.8 C 4.8 km/h
1354 28-11-2013 20:20:00 4.8 C 6.44 g/m*3 4.8 C 4.8 km/h
1355 28-11-2013 20:25:00 4.8 C 6.44 g/m*3 4.8 C 3.2 km/h
1356 28-11-2013 20:30:00 4.8 C 6.44 g/m*3 4.8 C 4.8 km/h
1357 28-11-2013 20:35:00 4.8 C 6.44 g/m*3 4.8 C 4.8 km/h
1358 28-11-2013 20:40:00 4.8 C 6.44 g/m*3 4.8 C 3.2 km/h
1359 28-11-2013 20:45:00 4.8 C 6.44 g/m*3 3.36 C 6.4 km/h
1360 28-11-2013 20:50:00 4.8 C 6.44 g/m*3 4.8 C 0 km/h
1361 28-11-2013 20:55:00 4.8 C 6.44 g/m*3 4.8 C 0 km/h
1362 28-11-2013 21:00:00 4.8 C 6.44 g/m*3 4.8 C 0 km/h
1363 28-11-2013 21:05:00 4.9 C 6.48 g/m*3 4.9 C 3.2 km/h
1364 28-11-2013 21:10:00 4.9 C 6.48 g/m*3 4.9 C 0 km/h
1365 28-11-2013 21:15:00 4.8 C 6.44 g/m*3 4.8 C 3.2 km/h
1366 28-11-2013 21:20:00 4.8 C 6.44 g/m*3 4.8 C 4.8 km/h
1367 28-11-2013 21:25:00 4.8 C 6.44 g/m*3 4.8 C 3.2 km/h
1368 28-11-2013 21:30:00 4.8 C 6.44 g/m*3 4.8 C 4.8 km/h
1369 28-11-2013 21:35:00 4.8 C 6.44 g/m*3 4.8 C 1.6 km/h
1370 28-11-2013 21:40:00 4.8 C 6.44 g/m*3 4.8 C 0 km/h
1371 28-11-2013 21:45:00 4.8 C 6.44 g/m*3 4.8 C 1.6 km/h
1372 28-11-2013 21:50:00 4.8 C 6.44 g/m*3 4.8 C 0 km/h
1373 28-11-2013 21:55:00 4.8 C 6.44 g/m*3 4.8 C 3.2 km/h
1374 28-11-2013 22:00:00 4.8 C 6.44 g/m*3 4.8 C 1.6 km/h
1375 28-11-2013 22:05:00 4.8 C 6.44 g/m*3 4.8 C 0 km/h
Sensor: Nr:Datum:Temp:Abs-Feuchte:Windchill:Wind:
Aussen-T/F 1376 28-11-2013 22:10:00 4.8 C 6.44 g/m*3 4.8 C 0 km/h
1377 28-11-2013 22:15:00 4.8 C 6.44 g/m*3 4.8 C 0 km/h
1378 28-11-2013 22:20:00 4.8 C 6.44 g/m*3 4.8 C 1.6 km/h
1379 28-11-2013 22:25:00 4.8 C 6.44 g/m*3 4.8 C 1.6 km/h
1380 28-11-2013 22:30:00 4.8 C 6.44 g/m*3 4.8 C 0 km/h
1381 28-11-2013 22:35:00 4.8 C 6.44 g/m*3 4.8 C 3.2 km/h
1382 28-11-2013 22:40:00 4.8 C 6.44 g/m*3 4.8 C 3.2 km/h
1383 28-11-2013 22:45:00 4.8 C 6.44 g/m*3 4.8 C 1.6 km/h
1384 28-11-2013 22:50:00 4.8 C 6.44 g/m*3 4.8 C 3.2 km/h
1385 28-11-2013 22:55:00 4.8 C 6.44 g/m*3 3.36 C 6.4 km/h
1386 28-11-2013 23:00:00 4.8 C 6.44 g/m*3 4.8 C 3.2 km/h
1387 28-11-2013 23:05:00 4.8 C 6.44 g/m*3 3.36 C 6.4 km/h
1388 28-11-2013 23:10:00 4.8 C 6.44 g/m*3 4.8 C 0 km/h
1389 28-11-2013 23:15:00 4.8 C 6.44 g/m*3 4.8 C 0 km/h
1390 28-11-2013 23:20:00 4.8 C 6.44 g/m*3 4.8 C 3.2 km/h
1391 28-11-2013 23:25:00 4.8 C 6.44 g/m*3 2.49 C 9.7 km/h
1392 28-11-2013 23:30:00 4.8 C 6.44 g/m*3 4.8 C 3.2 km/h
1393 28-11-2013 23:35:00 4.8 C 6.44 g/m*3 4.8 C 0 km/h
1394 28-11-2013 23:40:00 4.7 C 6.39 g/m*3 2.76 C 8.1 km/h
1395 28-11-2013 23:45:00 4.7 C 6.39 g/m*3 2.76 C 8.1 km/h
1396 28-11-2013 23:50:00 4.8 C 6.44 g/m*3 4.8 C 3.2 km/h
1397 28-11-2013 23:55:00 4.8 C 6.44 g/m*3 4.8 C 0 km/h
1398 29-11-2013 00:00:00 4.8 C 6.44 g/m*3 4.8 C 1.6 km/h
1399 29-11-2013 00:05:00 4.8 C 6.44 g/m*3 4.8 C 4.8 km/h
1400 29-11-2013 00:10:00 4.8 C 6.44 g/m*3 4.8 C 3.2 km/h
Sensor: Nr:Datum:Temp:Abs-Feuchte:Windchill:Wind:
Aussen-T/F 1401 29-11-2013 00:15:00 4.8 C 6.44 g/m*3 3.36 C 6.4 km/h
1402 29-11-2013 00:20:00 4.8 C 6.44 g/m*3 3.36 C 6.4 km/h
1403 29-11-2013 00:25:00 4.8 C 6.44 g/m*3 4.8 C 1.6 km/h
1404 29-11-2013 00:30:00 4.8 C 6.44 g/m*3 3.36 C 6.4 km/h
1405 29-11-2013 00:35:00 4.8 C 6.44 g/m*3 4.8 C 4.8 km/h
1406 29-11-2013 00:40:00 4.8 C 6.44 g/m*3 4.8 C 1.6 km/h
1407 29-11-2013 00:45:00 4.8 C 6.44 g/m*3 4.8 C 3.2 km/h
1408 29-11-2013 00:50:00 4.8 C 6.44 g/m*3 4.8 C 0 km/h
1409 29-11-2013 00:55:00 4.8 C 6.44 g/m*3 4.8 C 0 km/h
1410 29-11-2013 01:00:00 4.8 C 6.44 g/m*3 4.8 C 1.6 km/h
1411 29-11-2013 01:05:00 4.8 C 6.44 g/m*3 4.8 C 1.6 km/h
1412 29-11-2013 01:10:00 4.8 C 6.44 g/m*3 4.8 C 0 km/h
1413 29-11-2013 01:15:00 4.9 C 6.48 g/m*3 4.9 C 0 km/h
1414 29-11-2013 01:20:00 4.9 C 6.48 g/m*3 4.9 C 4.8 km/h
1415 29-11-2013 01:25:00 4.9 C 6.48 g/m*3 4.9 C 4.8 km/h
1416 29-11-2013 01:30:00 4.8 C 6.44 g/m*3 4.8 C 3.2 km/h
1417 29-11-2013 01:35:00 4.8 C 6.44 g/m*3 4.8 C 3.2 km/h
1418 29-11-2013 01:40:00 4.8 C 6.44 g/m*3 4.8 C 0 km/h
1419 29-11-2013 01:45:00 4.8 C 6.44 g/m*3 4.8 C 0 km/h
1420 29-11-2013 01:50:00 4.8 C 6.44 g/m*3 4.8 C 0 km/h
1421 29-11-2013 01:55:00 4.8 C 6.44 g/m*3 4.8 C 0 km/h
1422 29-11-2013 02:00:00 4.8 C 6.44 g/m*3 4.8 C 1.6 km/h
1423 29-11-2013 02:05:00 4.8 C 6.44 g/m*3 4.8 C 3.2 km/h
1424 29-11-2013 02:10:00 4.8 C 6.44 g/m*3 4.8 C 0 km/h
1425 29-11-2013 02:15:00 4.8 C 6.44 g/m*3 4.8 C 0 km/h
Sensor: Nr:Datum:Temp:Abs-Feuchte:Windchill:Wind:
Aussen-T/F 1426 29-11-2013 02:20:00 4.8 C 6.44 g/m*3 4.8 C 4.8 km/h
1427 29-11-2013 02:25:00 4.8 C 6.44 g/m*3 4.8 C 1.6 km/h
1428 29-11-2013 02:30:00 4.8 C 6.44 g/m*3 4.8 C 3.2 km/h
1429 29-11-2013 02:35:00 4.8 C 6.44 g/m*3 3.36 C 6.4 km/h
1430 29-11-2013 02:40:00 4.8 C 6.44 g/m*3 4.8 C 4.8 km/h
1431 29-11-2013 02:45:00 4.8 C 6.44 g/m*3 4.8 C 0 km/h
1432 29-11-2013 02:50:00 4.7 C 6.39 g/m*3 4.7 C 1.6 km/h
1433 29-11-2013 02:55:00 4.7 C 6.39 g/m*3 4.7 C 1.6 km/h
1434 29-11-2013 03:00:00 4.7 C 6.39 g/m*3 4.7 C 0 km/h
1435 29-11-2013 03:05:00 4.7 C 6.39 g/m*3 4.7 C 4.8 km/h
1436 29-11-2013 03:10:00 4.7 C 6.39 g/m*3 2.37 C 9.7 km/h
1437 29-11-2013 03:15:00 4.7 C 6.39 g/m*3 4.7 C 3.2 km/h
1438 29-11-2013 03:20:00 4.7 C 6.39 g/m*3 4.7 C 4.8 km/h
1439 29-11-2013 03:25:00 4.7 C 6.39 g/m*3 4.7 C 3.2 km/h
1440 29-11-2013 03:30:00 4.7 C 6.39 g/m*3 4.7 C 1.6 km/h
1441 29-11-2013 03:35:00 4.7 C 6.39 g/m*3 4.7 C 3.2 km/h
1442 29-11-2013 03:40:00 4.7 C 6.39 g/m*3 3.25 C 6.4 km/h
1443 29-11-2013 03:45:00 4.7 C 6.39 g/m*3 4.7 C 4.8 km/h
1444 29-11-2013 03:50:00 4.7 C 6.39 g/m*3 4.7 C 3.2 km/h
1445 29-11-2013 03:55:00 4.7 C 6.39 g/m*3 4.7 C 0 km/h
1446 29-11-2013 04:00:00 4.7 C 6.39 g/m*3 4.7 C 1.6 km/h
1447 29-11-2013 04:05:00 4.7 C 6.39 g/m*3 4.7 C 1.6 km/h
1448 29-11-2013 04:10:00 4.7 C 6.39 g/m*3 4.7 C 0 km/h
1449 29-11-2013 04:15:00 4.7 C 6.46 g/m*3 4.7 C 1.6 km/h
1450 29-11-2013 04:20:00 4.7 C 6.46 g/m*3 3.25 C 6.4 km/h
Sensor: Nr:Datum:Temp:Abs-Feuchte:Windchill:Wind:
Aussen-T/F 1451 29-11-2013 04:25:00 4.7 C 6.46 g/m*3 4.7 C 4.8 km/h
1452 29-11-2013 04:30:00 4.7 C 6.39 g/m*3 4.7 C 4.8 km/h
1453 29-11-2013 04:35:00 4.7 C 6.39 g/m*3 4.7 C 3.2 km/h
1454 29-11-2013 04:40:00 4.7 C 6.39 g/m*3 4.7 C 3.2 km/h
1455 29-11-2013 04:45:00 4.7 C 6.39 g/m*3 4.7 C 3.2 km/h
1456 29-11-2013 04:50:00 4.6 C 6.35 g/m*3 4.6 C 0 km/h
1457 29-11-2013 04:55:00 4.6 C 6.35 g/m*3 4.6 C 4.8 km/h
1458 29-11-2013 05:00:00 4.6 C 6.35 g/m*3 4.6 C 3.2 km/h
1459 29-11-2013 05:05:00 4.6 C 6.35 g/m*3 4.6 C 4.8 km/h
1460 29-11-2013 05:10:00 4.6 C 6.35 g/m*3 4.6 C 0 km/h
1461 29-11-2013 05:15:00 4.6 C 6.35 g/m*3 4.6 C 1.6 km/h
1462 29-11-2013 05:20:00 4.6 C 6.35 g/m*3 3.13 C 6.4 km/h
1463 29-11-2013 05:25:00 4.6 C 6.35 g/m*3 3.13 C 6.4 km/h
1464 29-11-2013 05:30:00 4.6 C 6.35 g/m*3 2.64 C 8.1 km/h
1465 29-11-2013 05:35:00 4.6 C 6.35 g/m*3 4.6 C 1.6 km/h
1466 29-11-2013 05:40:00 4.6 C 6.35 g/m*3 4.6 C 4.8 km/h
1467 29-11-2013 05:45:00 4.6 C 6.35 g/m*3 4.6 C 1.6 km/h
1468 29-11-2013 05:50:00 4.6 C 6.35 g/m*3 4.6 C 1.6 km/h
1469 29-11-2013 05:55:00 4.6 C 6.35 g/m*3 4.6 C 3.2 km/h
1470 29-11-2013 06:00:00 4.6 C 6.35 g/m*3 4.6 C 3.2 km/h
1471 29-11-2013 06:05:00 4.6 C 6.35 g/m*3 4.6 C 1.6 km/h
1472 29-11-2013 06:10:00 4.6 C 6.35 g/m*3 4.6 C 4.8 km/h
1473 29-11-2013 06:15:00 4.6 C 6.35 g/m*3 4.6 C 0 km/h
1474 29-11-2013 06:20:00 4.6 C 6.35 g/m*3 4.6 C 4.8 km/h
1475 29-11-2013 06:25:00 4.6 C 6.35 g/m*3 4.6 C 1.6 km/h
Sensor: Nr:Datum:Temp:Abs-Feuchte:Windchill:Wind:
Aussen-T/F 1476 29-11-2013 06:30:00 4.6 C 6.35 g/m*3 4.6 C 0 km/h
1477 29-11-2013 06:35:00 4.7 C 6.39 g/m*3 4.7 C 3.2 km/h
1478 29-11-2013 06:40:00 4.7 C 6.39 g/m*3 4.7 C 3.2 km/h
1479 29-11-2013 06:45:00 4.7 C 6.39 g/m*3 4.7 C 1.6 km/h
1480 29-11-2013 06:50:00 4.7 C 6.39 g/m*3 4.7 C 0 km/h
1481 29-11-2013 06:55:00 4.7 C 6.39 g/m*3 4.7 C 4.8 km/h
1482 29-11-2013 07:00:00 4.7 C 6.39 g/m*3 4.7 C 0 km/h
1483 29-11-2013 07:05:00 4.7 C 6.39 g/m*3 3.25 C 6.4 km/h
1484 29-11-2013 07:10:00 4.7 C 6.39 g/m*3 4.7 C 3.2 km/h
1485 29-11-2013 07:15:00 4.7 C 6.39 g/m*3 4.7 C 1.6 km/h
1486 29-11-2013 07:20:00 4.7 C 6.39 g/m*3 4.7 C 3.2 km/h
1487 29-11-2013 07:25:00 4.7 C 6.39 g/m*3 4.7 C 4.8 km/h
1488 29-11-2013 07:30:00 4.7 C 6.39 g/m*3 4.7 C 0 km/h
1489 29-11-2013 07:35:00 4.7 C 6.33 g/m*3 4.7 C 3.2 km/h
1490 29-11-2013 07:40:00 4.7 C 6.33 g/m*3 4.7 C 4.8 km/h
1491 29-11-2013 07:45:00 4.7 C 6.33 g/m*3 4.7 C 1.6 km/h
1492 29-11-2013 07:50:00 4.7 C 6.33 g/m*3 4.7 C 4.8 km/h
1493 29-11-2013 07:55:00 4.7 C 6.33 g/m*3 4.7 C 3.2 km/h
1494 29-11-2013 08:00:00 4.7 C 6.33 g/m*3 4.7 C 0 km/h
1495 29-11-2013 08:05:00 4.7 C 6.33 g/m*3 4.7 C 0 km/h
1496 29-11-2013 08:10:00 4.7 C 6.33 g/m*3 4.7 C 1.6 km/h
1497 29-11-2013 08:15:00 4.7 C 6.33 g/m*3 4.7 C 0 km/h
1498 29-11-2013 08:20:00 4.8 C 6.37 g/m*3 4.8 C 1.6 km/h
1499 29-11-2013 08:25:00 4.8 C 6.37 g/m*3 4.8 C 0 km/h
1500 29-11-2013 08:30:00 4.8 C 6.37 g/m*3 4.8 C 3.2 km/h
Sensor: Nr:Datum:Temp:Abs-Feuchte:Windchill:Wind:
Aussen-T/F 1501 29-11-2013 08:35:00 4.8 C 6.3 g/m*3 4.8 C 3.2 km/h
1502 29-11-2013 08:40:00 4.8 C 6.3 g/m*3 4.8 C 0 km/h
1503 29-11-2013 08:45:00 4.8 C 6.3 g/m*3 4.8 C 0 km/h
1504 29-11-2013 08:50:00 4.8 C 6.3 g/m*3 4.8 C 1.6 km/h
1505 29-11-2013 08:55:00 4.8 C 6.3 g/m*3 4.8 C 3.2 km/h
1506 29-11-2013 09:00:00 4.8 C 6.3 g/m*3 4.8 C 4.8 km/h
1507 29-11-2013 09:05:00 4.8 C 6.3 g/m*3 4.8 C 1.6 km/h
1508 29-11-2013 09:10:00 4.8 C 6.3 g/m*3 4.8 C 0 km/h
1509 29-11-2013 09:15:00 4.8 C 6.3 g/m*3 4.8 C 4.8 km/h
1510 29-11-2013 09:20:00 4.9 C 6.35 g/m*3 3.48 C 6.4 km/h
1511 29-11-2013 09:25:00 4.9 C 6.35 g/m*3 4.9 C 3.2 km/h
1512 29-11-2013 09:30:00 4.9 C 6.35 g/m*3 4.9 C 4.8 km/h
1513 29-11-2013 09:35:00 5 C 6.32 g/m*3 3.59 C 6.4 km/h
1514 29-11-2013 09:40:00 5 C 6.32 g/m*3 5 C 3.2 km/h
1515 29-11-2013 09:45:00 5.1 C 6.36 g/m*3 5.1 C 1.6 km/h
1516 29-11-2013 09:50:00 5.1 C 6.36 g/m*3 3.23 C 8.1 km/h
1517 29-11-2013 09:55:00 5.1 C 6.36 g/m*3 5.1 C 3.2 km/h
1518 29-11-2013 10:00:00 5.1 C 6.36 g/m*3 5.1 C 3.2 km/h
1519 29-11-2013 10:05:00 5.1 C 6.36 g/m*3 5.1 C 3.2 km/h
1520 29-11-2013 10:10:00 5.2 C 6.4 g/m*3 5.2 C 1.6 km/h
1521 29-11-2013 10:15:00 5.2 C 6.33 g/m*3 5.2 C 4.8 km/h
1522 29-11-2013 10:20:00 5.2 C 6.33 g/m*3 5.2 C 3.2 km/h
1523 29-11-2013 10:25:00 5.3 C 6.38 g/m*3 5.3 C 3.2 km/h
1524 29-11-2013 10:30:00 5.3 C 6.38 g/m*3 3.94 C 6.4 km/h
1525 29-11-2013 10:35:00 5.3 C 6.31 g/m*3 5.3 C 4.8 km/h
Sensor: Nr:Datum:Temp:Abs-Feuchte:Windchill:Wind:
Aussen-T/F 1526 29-11-2013 10:40:00 5.4 C 6.35 g/m*3 5.4 C 3.2 km/h
1527 29-11-2013 10:45:00 5.4 C 6.35 g/m*3 5.4 C 1.6 km/h
1528 29-11-2013 10:50:00 5.4 C 6.35 g/m*3 5.4 C 4.8 km/h
1529 29-11-2013 10:55:00 5.6 C 6.43 g/m*3 5.6 C 4.8 km/h
1530 29-11-2013 11:00:00 5.7 C 6.4 g/m*3 5.7 C 4.8 km/h
1531 29-11-2013 11:05:00 5.7 C 6.4 g/m*3 3.93 C 8.1 km/h
1532 29-11-2013 11:10:00 5.8 C 6.45 g/m*3 4.05 C 8.1 km/h
1533 29-11-2013 11:15:00 5.8 C 6.45 g/m*3 3.68 C 9.7 km/h
1534 29-11-2013 11:20:00 5.8 C 6.38 g/m*3 3.68 C 9.7 km/h
1535 29-11-2013 11:25:00 5.8 C 6.38 g/m*3 3.36 C 11.3 km/h
1536 29-11-2013 11:30:00 5.9 C 6.42 g/m*3 3.48 C 11.3 km/h
1537 29-11-2013 11:35:00 5.9 C 6.35 g/m*3 3.8 C 9.7 km/h
1538 29-11-2013 11:40:00 6.1 C 6.43 g/m*3 3.72 C 11.3 km/h
1539 29-11-2013 11:45:00 6.2 C 6.4 g/m*3 4.98 C 6.4 km/h
1540 29-11-2013 11:50:00 6.2 C 6.4 g/m*3 4.52 C 8.1 km/h
1541 29-11-2013 11:55:00 6.3 C 6.44 g/m*3 4.64 C 8.1 km/h
1542 29-11-2013 12:00:00 6.4 C 6.48 g/m*3 4.75 C 8.1 km/h
1543 29-11-2013 12:05:00 6.4 C 6.48 g/m*3 6.4 C 4.8 km/h
1544 29-11-2013 12:10:00 6.6 C 6.57 g/m*3 5.44 C 6.4 km/h
1545 29-11-2013 12:15:00 6.6 C 6.49 g/m*3 4.99 C 8.1 km/h
1546 29-11-2013 12:20:00 6.7 C 6.53 g/m*3 5.11 C 8.1 km/h
1547 29-11-2013 12:25:00 6.7 C 6.53 g/m*3 3.92 C 14.5 km/h
1548 29-11-2013 12:30:00 6.7 C 6.53 g/m*3 4.44 C 11.3 km/h
1549 29-11-2013 12:35:00 6.7 C 6.46 g/m*3 5.11 C 8.1 km/h
1550 29-11-2013 12:40:00 6.7 C 6.53 g/m*3 4.44 C 11.3 km/h
Sensor: Nr:Datum:Temp:Abs-Feuchte:Windchill:Wind:
Aussen-T/F 1551 29-11-2013 12:45:00 6.7 C 6.53 g/m*3 5.11 C 8.1 km/h
1552 29-11-2013 12:50:00 6.7 C 6.46 g/m*3 3.69 C 16.1 km/h
1553 29-11-2013 12:55:00 6.8 C 6.5 g/m*3 3.82 C 16.1 km/h
1554 29-11-2013 13:00:00 6.8 C 6.5 g/m*3 4.87 C 9.7 km/h
1555 29-11-2013 13:05:00 6.8 C 6.5 g/m*3 4.56 C 11.3 km/h
1556 29-11-2013 13:10:00 6.8 C 6.5 g/m*3 3.82 C 16.1 km/h
1557 29-11-2013 13:15:00 6.8 C 6.5 g/m*3 4.87 C 9.7 km/h
1558 29-11-2013 13:20:00 6.8 C 6.5 g/m*3 3.82 C 16.1 km/h
1559 29-11-2013 13:25:00 6.7 C 6.53 g/m*3 4.44 C 11.3 km/h
1560 29-11-2013 13:30:00 6.7 C 6.53 g/m*3 6.7 C 4.8 km/h
1561 29-11-2013 13:35:00 6.6 C 6.49 g/m*3 4.32 C 11.3 km/h
1562 29-11-2013 13:40:00 6.6 C 6.49 g/m*3 4.99 C 8.1 km/h
1563 29-11-2013 13:45:00 6.6 C 6.49 g/m*3 3.57 C 16.1 km/h
1564 29-11-2013 13:50:00 6.5 C 6.52 g/m*3 4.2 C 11.3 km/h
1565 29-11-2013 13:55:00 6.5 C 6.52 g/m*3 5.33 C 6.4 km/h
1566 29-11-2013 14:00:00 6.5 C 6.52 g/m*3 5.33 C 6.4 km/h
1567 29-11-2013 14:05:00 6.5 C 6.52 g/m*3 4.87 C 8.1 km/h
1568 29-11-2013 14:10:00 6.5 C 6.6 g/m*3 3.92 C 12.9 km/h
1569 29-11-2013 14:15:00 6.5 C 6.6 g/m*3 4.87 C 8.1 km/h
1570 29-11-2013 14:20:00 6.4 C 6.56 g/m*3 4.08 C 11.3 km/h
1571 29-11-2013 14:25:00 6.4 C 6.56 g/m*3 4.08 C 11.3 km/h
1572 29-11-2013 14:30:00 6.5 C 6.67 g/m*3 4.87 C 8.1 km/h
1573 29-11-2013 14:35:00 6.6 C 6.64 g/m*3 4.99 C 8.1 km/h
1574 29-11-2013 14:40:00 6.6 C 6.64 g/m*3 4.63 C 9.7 km/h
1575 29-11-2013 14:45:00 6.5 C 6.67 g/m*3 5.33 C 6.4 km/h
Sensor: Nr:Datum:Temp:Abs-Feuchte:Windchill:Wind:
Aussen-T/F 1576 29-11-2013 14:50:00 6.5 C 6.67 g/m*3 6.5 C 3.2 km/h
1577 29-11-2013 14:55:00 6.5 C 6.67 g/m*3 5.33 C 6.4 km/h
1578 29-11-2013 15:00:00 6.4 C 6.63 g/m*3 5.21 C 6.4 km/h
1579 29-11-2013 15:05:00 6.5 C 6.67 g/m*3 5.33 C 6.4 km/h
1580 29-11-2013 15:10:00 6.6 C 6.72 g/m*3 5.44 C 6.4 km/h
1581 29-11-2013 15:15:00 6.7 C 6.69 g/m*3 5.11 C 8.1 km/h
1582 29-11-2013 15:20:00 6.8 C 6.73 g/m*3 6.8 C 4.8 km/h
1583 29-11-2013 15:25:00 6.8 C 6.73 g/m*3 4.87 C 9.7 km/h
1584 29-11-2013 15:30:00 6.9 C 6.77 g/m*3 4.41 C 12.9 km/h
1585 29-11-2013 15:35:00 6.9 C 6.77 g/m*3 6.9 C 3.2 km/h
1586 29-11-2013 15:40:00 6.9 C 6.77 g/m*3 6.9 C 4.8 km/h
1587 29-11-2013 15:45:00 6.9 C 6.77 g/m*3 5.34 C 8.1 km/h
1588 29-11-2013 15:50:00 6.9 C 6.77 g/m*3 4.16 C 14.5 km/h
1589 29-11-2013 15:55:00 6.9 C 6.77 g/m*3 5.34 C 8.1 km/h
1590 29-11-2013 16:00:00 6.9 C 6.77 g/m*3 4.41 C 12.9 km/h
1591 29-11-2013 16:05:00 6.9 C 6.77 g/m*3 4.16 C 14.5 km/h
1592 29-11-2013 16:10:00 7 C 6.82 g/m*3 5.11 C 9.7 km/h
1593 29-11-2013 16:15:00 6.9 C 6.85 g/m*3 5.34 C 8.1 km/h
1594 29-11-2013 16:20:00 6.9 C 6.85 g/m*3 5.34 C 8.1 km/h
1595 29-11-2013 16:25:00 6.9 C 6.85 g/m*3 4.68 C 11.3 km/h
1596 29-11-2013 16:30:00 6.9 C 6.85 g/m*3 4.41 C 12.9 km/h
1597 29-11-2013 16:35:00 6.9 C 6.85 g/m*3 4.16 C 14.5 km/h
1598 29-11-2013 16:40:00 6.9 C 6.85 g/m*3 4.16 C 14.5 km/h
1599 29-11-2013 16:45:00 6.9 C 6.85 g/m*3 4.41 C 12.9 km/h
1600 29-11-2013 16:50:00 6.9 C 6.85 g/m*3 4.99 C 9.7 km/h
Sensor: Nr:Datum:Temp:Abs-Feuchte:Windchill:Wind:
Aussen-T/F 1601 29-11-2013 16:55:00 6.9 C 6.85 g/m*3 4.68 C 11.3 km/h
1602 29-11-2013 17:00:00 6.9 C 6.85 g/m*3 4.68 C 11.3 km/h
1603 29-11-2013 17:05:00 6.9 C 6.85 g/m*3 4.41 C 12.9 km/h
1604 29-11-2013 17:10:00 6.9 C 6.85 g/m*3 3.94 C 16.1 km/h
1605 29-11-2013 17:15:00 6.9 C 6.85 g/m*3 4.68 C 11.3 km/h
1606 29-11-2013 17:20:00 6.8 C 6.88 g/m*3 4.56 C 11.3 km/h
1607 29-11-2013 17:25:00 6.8 C 6.88 g/m*3 4.04 C 14.5 km/h
1608 29-11-2013 17:30:00 6.8 C 6.88 g/m*3 3.82 C 16.1 km/h
1609 29-11-2013 17:35:00 6.9 C 6.93 g/m*3 4.41 C 12.9 km/h
1610 29-11-2013 17:40:00 6.9 C 6.93 g/m*3 4.16 C 14.5 km/h
1611 29-11-2013 17:45:00 6.9 C 6.93 g/m*3 4.99 C 9.7 km/h
1612 29-11-2013 17:50:00 6.9 C 6.93 g/m*3 3.94 C 16.1 km/h
1613 29-11-2013 17:55:00 6.9 C 6.93 g/m*3 3.94 C 16.1 km/h
1614 29-11-2013 18:00:00 7 C 6.9 g/m*3 4.06 C 16.1 km/h
1615 29-11-2013 18:05:00 7.2 C 6.99 g/m*3 3.92 C 19.3 km/h
1616 29-11-2013 18:10:00 7.3 C 6.95 g/m*3 4.05 C 19.3 km/h
1617 29-11-2013 18:15:00 7.3 C 6.95 g/m*3 3.87 C 20.9 km/h
1618 29-11-2013 18:20:00 7.3 C 6.95 g/m*3 4.23 C 17.7 km/h
1619 29-11-2013 18:25:00 7.3 C 7.03 g/m*3 4.9 C 12.9 km/h
1620 29-11-2013 18:30:00 7.2 C 6.99 g/m*3 4.77 C 12.9 km/h
1621 29-11-2013 18:35:00 7.2 C 6.99 g/m*3 5.04 C 11.3 km/h
1622 29-11-2013 18:40:00 7.2 C 6.99 g/m*3 5.35 C 9.7 km/h
1623 29-11-2013 18:45:00 7.2 C 7.06 g/m*3 5.35 C 9.7 km/h
1624 29-11-2013 18:50:00 7.2 C 7.06 g/m*3 4.53 C 14.5 km/h
1625 29-11-2013 18:55:00 7.2 C 7.06 g/m*3 5.35 C 9.7 km/h
Sensor: Nr:Datum:Temp:Abs-Feuchte:Windchill:Wind:
Aussen-T/F 1626 29-11-2013 19:00:00 7.2 C 7.06 g/m*3 5.04 C 11.3 km/h
1627 29-11-2013 19:05:00 7.2 C 7.14 g/m*3 4.77 C 12.9 km/h
1628 29-11-2013 19:10:00 7.1 C 7.1 g/m*3 4.92 C 11.3 km/h
1629 29-11-2013 19:15:00 7.1 C 7.1 g/m*3 5.58 C 8.1 km/h
1630 29-11-2013 19:20:00 7.1 C 7.1 g/m*3 4.65 C 12.9 km/h
1631 29-11-2013 19:25:00 7.1 C 7.1 g/m*3 6.02 C 6.4 km/h
1632 29-11-2013 19:30:00 7.1 C 7.1 g/m*3 5.23 C 9.7 km/h
1633 29-11-2013 19:35:00 7.2 C 7.14 g/m*3 5.35 C 9.7 km/h
1634 29-11-2013 19:40:00 7.2 C 7.06 g/m*3 4.53 C 14.5 km/h
1635 29-11-2013 19:45:00 7.2 C 7.06 g/m*3 5.04 C 11.3 km/h
1636 29-11-2013 19:50:00 7.1 C 6.94 g/m*3 3 C 27.4 km/h
1637 29-11-2013 19:55:00 6.9 C 6.77 g/m*3 4.41 C 12.9 km/h
1638 29-11-2013 20:00:00 6.7 C 6.69 g/m*3 2.94 C 22.5 km/h
1639 29-11-2013 20:05:00 6.6 C 6.57 g/m*3 3.36 C 17.7 km/h
1640 29-11-2013 20:10:00 6.5 C 6.52 g/m*3 3.67 C 14.5 km/h
1641 29-11-2013 20:15:00 6.4 C 6.48 g/m*3 5.21 C 6.4 km/h
1642 29-11-2013 20:20:00 6.4 C 6.48 g/m*3 3.11 C 17.7 km/h
1643 29-11-2013 20:25:00 6.3 C 6.51 g/m*3 4.27 C 9.7 km/h
1644 29-11-2013 20:30:00 6.3 C 6.51 g/m*3 4.64 C 8.1 km/h
1645 29-11-2013 20:35:00 6.2 C 6.55 g/m*3 3.84 C 11.3 km/h
1646 29-11-2013 20:40:00 6.1 C 6.5 g/m*3 4.04 C 9.7 km/h
1647 29-11-2013 20:45:00 6.1 C 6.5 g/m*3 4.86 C 6.4 km/h
1648 29-11-2013 20:50:00 6.1 C 6.58 g/m*3 6.1 C 1.6 km/h
1649 29-11-2013 20:55:00 5.9 C 6.49 g/m*3 4.17 C 8.1 km/h
1650 29-11-2013 21:00:00 5.9 C 6.49 g/m*3 4.63 C 6.4 km/h
Sensor: Nr:Datum:Temp:Abs-Feuchte:Windchill:Wind:
Aussen-T/F 1651 29-11-2013 21:05:00 6 C 6.46 g/m*3 3.92 C 9.7 km/h
1652 29-11-2013 21:10:00 6.1 C 6.5 g/m*3 3.43 C 12.9 km/h
1653 29-11-2013 21:15:00 6 C 6.46 g/m*3 3.31 C 12.9 km/h
1654 29-11-2013 21:20:00 5.9 C 6.42 g/m*3 5.9 C 3.2 km/h
1655 29-11-2013 21:25:00 5.9 C 6.35 g/m*3 4.63 C 6.4 km/h
1656 29-11-2013 21:30:00 5.8 C 6.38 g/m*3 5.8 C 1.6 km/h
1657 29-11-2013 21:35:00 5.8 C 6.3 g/m*3 3.36 C 11.3 km/h
1658 29-11-2013 21:40:00 5.9 C 6.35 g/m*3 3.19 C 12.9 km/h
1659 29-11-2013 21:45:00 5.9 C 6.35 g/m*3 4.63 C 6.4 km/h
1660 29-11-2013 21:50:00 5.8 C 6.3 g/m*3 5.8 C 3.2 km/h
1661 29-11-2013 21:55:00 5.8 C 6.3 g/m*3 5.8 C 4.8 km/h
1662 29-11-2013 22:00:00 5.8 C 6.3 g/m*3 5.8 C 4.8 km/h
1663 29-11-2013 22:05:00 5.7 C 6.26 g/m*3 3.56 C 9.7 km/h
1664 29-11-2013 22:10:00 5.7 C 6.19 g/m*3 3.93 C 8.1 km/h
1665 29-11-2013 22:15:00 5.6 C 6.22 g/m*3 5.6 C 1.6 km/h
1666 29-11-2013 22:20:00 5.5 C 6.18 g/m*3 5.5 C 3.2 km/h
1667 29-11-2013 22:25:00 5.5 C 6.18 g/m*3 5.5 C 3.2 km/h
1668 29-11-2013 22:30:00 5.4 C 6.07 g/m*3 5.4 C 4.8 km/h
1669 29-11-2013 22:35:00 5.3 C 6.1 g/m*3 5.3 C 3.2 km/h
1670 29-11-2013 22:40:00 5.1 C 6.02 g/m*3 5.1 C 3.2 km/h
1671 29-11-2013 22:45:00 4.9 C 6.01 g/m*3 4.9 C 4.8 km/h
1672 29-11-2013 22:50:00 4.9 C 6.08 g/m*3 4.9 C 4.8 km/h
1673 29-11-2013 22:55:00 4.8 C 6.04 g/m*3 4.8 C 4.8 km/h
1674 29-11-2013 23:00:00 4.8 C 6.04 g/m*3 4.8 C 3.2 km/h
1675 29-11-2013 23:05:00 4.9 C 6.01 g/m*3 4.9 C 3.2 km/h
Sensor: Nr:Datum:Temp:Abs-Feuchte:Windchill:Wind:
Aussen-T/F 1676 29-11-2013 23:10:00 4.9 C 6.01 g/m*3 4.9 C 4.8 km/h
1677 29-11-2013 23:15:00 4.7 C 6 g/m*3 3.25 C 6.4 km/h
1678 29-11-2013 23:20:00 4.8 C 6.04 g/m*3 4.8 C 4.8 km/h
1679 29-11-2013 23:25:00 4.7 C 6 g/m*3 4.7 C 4.8 km/h
1680 29-11-2013 23:30:00 4.5 C 5.92 g/m*3 4.5 C 4.8 km/h
1681 29-11-2013 23:35:00 4.3 C 5.9 g/m*3 4.3 C 1.6 km/h
1682 29-11-2013 23:40:00 4.2 C 5.86 g/m*3 4.2 C 4.8 km/h
1683 29-11-2013 23:45:00 4.1 C 5.89 g/m*3 4.1 C 3.2 km/h
1684 29-11-2013 23:50:00 4.1 C 5.89 g/m*3 4.1 C 3.2 km/h
1685 29-11-2013 23:55:00 4.2 C 5.93 g/m*3 4.2 C 4.8 km/h
1686 30-11-2013 00:00:00 4.3 C 5.9 g/m*3 4.3 C 3.2 km/h
1687 30-11-2013 00:05:00 4.4 C 5.88 g/m*3 4.4 C 4.8 km/h
1688 30-11-2013 00:10:00 4.6 C 5.96 g/m*3 2.64 C 8.1 km/h
1689 30-11-2013 00:15:00 4.7 C 6 g/m*3 4.7 C 3.2 km/h
1690 30-11-2013 00:20:00 4.6 C 5.96 g/m*3 4.6 C 1.6 km/h
1691 30-11-2013 00:25:00 4.6 C 5.96 g/m*3 4.6 C 0 km/h
1692 30-11-2013 00:30:00 4.4 C 5.88 g/m*3 4.4 C 1.6 km/h
1693 30-11-2013 00:35:00 4.2 C 5.8 g/m*3 4.2 C 3.2 km/h
1694 30-11-2013 00:40:00 4.2 C 5.86 g/m*3 4.2 C 1.6 km/h
1695 30-11-2013 00:45:00 4.1 C 5.82 g/m*3 4.1 C 3.2 km/h
1696 30-11-2013 00:50:00 4.1 C 5.82 g/m*3 4.1 C 4.8 km/h
1697 30-11-2013 00:55:00 4 C 5.79 g/m*3 4 C 3.2 km/h
1698 30-11-2013 01:00:00 4 C 5.72 g/m*3 2.44 C 6.4 km/h
1699 30-11-2013 01:05:00 3.9 C 5.68 g/m*3 2.32 C 6.4 km/h
1700 30-11-2013 01:10:00 3.7 C 5.61 g/m*3 3.7 C 4.8 km/h
Sensor: Nr:Datum:Temp:Abs-Feuchte:Windchill:Wind:
Aussen-T/F 1701 30-11-2013 01:15:00 3.5 C 5.6 g/m*3 3.5 C 3.2 km/h
1702 30-11-2013 01:20:00 3.3 C 5.52 g/m*3 1.63 C 6.4 km/h
1703 30-11-2013 01:25:00 3.3 C 5.58 g/m*3 3.3 C 4.8 km/h
1704 30-11-2013 01:30:00 3.3 C 5.64 g/m*3 3.3 C 4.8 km/h
1705 30-11-2013 01:35:00 3.7 C 5.8 g/m*3 3.7 C 4.8 km/h
1706 30-11-2013 01:40:00 3.8 C 5.83 g/m*3 3.8 C 1.6 km/h
1707 30-11-2013 01:45:00 3.9 C 5.87 g/m*3 3.9 C 1.6 km/h
1708 30-11-2013 01:50:00 3.8 C 5.83 g/m*3 3.8 C 1.6 km/h
1709 30-11-2013 01:55:00 3.7 C 5.73 g/m*3 3.7 C 4.8 km/h
1710 30-11-2013 02:00:00 3.6 C 5.76 g/m*3 3.6 C 3.2 km/h
1711 30-11-2013 02:05:00 3.5 C 5.72 g/m*3 3.5 C 3.2 km/h
1712 30-11-2013 02:10:00 3.6 C 5.76 g/m*3 3.6 C 3.2 km/h
1713 30-11-2013 02:15:00 3.7 C 5.73 g/m*3 3.7 C 3.2 km/h
1714 30-11-2013 02:20:00 3.7 C 5.73 g/m*3 3.7 C 3.2 km/h
1715 30-11-2013 02:25:00 3.7 C 5.73 g/m*3 3.7 C 4.8 km/h
1716 30-11-2013 02:30:00 3.8 C 5.71 g/m*3 3.8 C 1.6 km/h
1717 30-11-2013 02:35:00 3.8 C 5.71 g/m*3 3.8 C 4.8 km/h
1718 30-11-2013 02:40:00 4 C 5.79 g/m*3 4 C 4.8 km/h
1719 30-11-2013 02:45:00 4.1 C 5.76 g/m*3 4.1 C 4.8 km/h
1720 30-11-2013 02:50:00 4.1 C 5.7 g/m*3 4.1 C 3.2 km/h
1721 30-11-2013 02:55:00 4.1 C 5.7 g/m*3 2.55 C 6.4 km/h
1722 30-11-2013 03:00:00 4.1 C 5.7 g/m*3 4.1 C 3.2 km/h
1723 30-11-2013 03:05:00 4 C 5.66 g/m*3 4 C 4.8 km/h
1724 30-11-2013 03:10:00 3.9 C 5.62 g/m*3 3.9 C 3.2 km/h
1725 30-11-2013 03:15:00 3.8 C 5.65 g/m*3 3.8 C 3.2 km/h
Sensor: Nr:Datum:Temp:Abs-Feuchte:Windchill:Wind:
Aussen-T/F 1726 30-11-2013 03:20:00 3.6 C 5.57 g/m*3 3.6 C 3.2 km/h
1727 30-11-2013 03:25:00 3.4 C 5.5 g/m*3 3.4 C 3.2 km/h
1728 30-11-2013 03:30:00 3.2 C 5.48 g/m*3 3.2 C 3.2 km/h
1729 30-11-2013 03:35:00 3.1 C 5.45 g/m*3 3.1 C 4.8 km/h
1730 30-11-2013 03:40:00 2.9 C 5.43 g/m*3 2.9 C 1.6 km/h
1731 30-11-2013 03:45:00 2.8 C 5.4 g/m*3 2.8 C 1.6 km/h
1732 30-11-2013 03:50:00 2.8 C 5.4 g/m*3 2.8 C 1.6 km/h
1733 30-11-2013 03:55:00 2.8 C 5.4 g/m*3 2.8 C 4.8 km/h
1734 30-11-2013 04:00:00 2.8 C 5.46 g/m*3 2.8 C 1.6 km/h
1735 30-11-2013 04:05:00 2.9 C 5.49 g/m*3 2.9 C 4.8 km/h
1736 30-11-2013 04:10:00 3 C 5.53 g/m*3 3 C 1.6 km/h
1737 30-11-2013 04:15:00 3 C 5.53 g/m*3 3 C 3.2 km/h
1738 30-11-2013 04:20:00 3 C 5.47 g/m*3 3 C 3.2 km/h
1739 30-11-2013 04:25:00 3.1 C 5.51 g/m*3 3.1 C 3.2 km/h
1740 30-11-2013 04:30:00 3.1 C 5.51 g/m*3 3.1 C 3.2 km/h
1741 30-11-2013 04:35:00 3.1 C 5.45 g/m*3 3.1 C 3.2 km/h
1742 30-11-2013 04:40:00 2.9 C 5.37 g/m*3 2.9 C 4.8 km/h
1743 30-11-2013 04:45:00 2.8 C 5.34 g/m*3 2.8 C 0 km/h
1744 30-11-2013 04:50:00 2.6 C 5.32 g/m*3 2.6 C 3.2 km/h
1745 30-11-2013 04:55:00 2.6 C 5.38 g/m*3 2.6 C 3.2 km/h
1746 30-11-2013 05:00:00 2.6 C 5.38 g/m*3 2.6 C 4.8 km/h
1747 30-11-2013 05:05:00 2.6 C 5.38 g/m*3 2.6 C 3.2 km/h
1748 30-11-2013 05:10:00 2.6 C 5.38 g/m*3 2.6 C 4.8 km/h
1749 30-11-2013 05:15:00 2.6 C 5.38 g/m*3 2.6 C 3.2 km/h
1750 30-11-2013 05:20:00 2.7 C 5.42 g/m*3 2.7 C 3.2 km/h
Sensor: Nr:Datum:Temp:Abs-Feuchte:Windchill:Wind:
Aussen-T/F 1751 30-11-2013 05:25:00 2.7 C 5.42 g/m*3 2.7 C 3.2 km/h
1752 30-11-2013 05:30:00 2.9 C 5.49 g/m*3 2.9 C 3.2 km/h
1753 30-11-2013 05:35:00 3.1 C 5.51 g/m*3 0.46 C 9.7 km/h
1754 30-11-2013 05:40:00 3.2 C 5.48 g/m*3 3.2 C 4.8 km/h
1755 30-11-2013 05:45:00 3.3 C 5.52 g/m*3 1.63 C 6.4 km/h
1756 30-11-2013 05:50:00 3.3 C 5.52 g/m*3 3.3 C 4.8 km/h
1757 30-11-2013 05:55:00 3.3 C 5.52 g/m*3 3.3 C 4.8 km/h
1758 30-11-2013 06:00:00 3.3 C 5.52 g/m*3 3.3 C 4.8 km/h
1759 30-11-2013 06:05:00 3.3 C 5.46 g/m*3 3.3 C 4.8 km/h
1760 30-11-2013 06:10:00 3.3 C 5.52 g/m*3 3.3 C 3.2 km/h
1761 30-11-2013 06:15:00 3.3 C 5.52 g/m*3 3.3 C 3.2 km/h
1762 30-11-2013 06:20:00 3.3 C 5.52 g/m*3 3.3 C 0 km/h
1763 30-11-2013 06:25:00 3.3 C 5.52 g/m*3 3.3 C 4.8 km/h
1764 30-11-2013 06:30:00 3.3 C 5.52 g/m*3 3.3 C 3.2 km/h
1765 30-11-2013 06:35:00 3.3 C 5.52 g/m*3 3.3 C 3.2 km/h
1766 30-11-2013 06:40:00 3.3 C 5.52 g/m*3 3.3 C 3.2 km/h
1767 30-11-2013 06:45:00 3.3 C 5.52 g/m*3 3.3 C 4.8 km/h
1768 30-11-2013 06:50:00 3.3 C 5.52 g/m*3 3.3 C 3.2 km/h
1769 30-11-2013 06:55:00 3.4 C 5.56 g/m*3 1.75 C 6.4 km/h
1770 30-11-2013 07:00:00 3.4 C 5.56 g/m*3 3.4 C 3.2 km/h
1771 30-11-2013 07:05:00 3.5 C 5.6 g/m*3 3.5 C 4.8 km/h
1772 30-11-2013 07:10:00 3.5 C 5.6 g/m*3 1.86 C 6.4 km/h
1773 30-11-2013 07:15:00 3.5 C 5.6 g/m*3 1.34 C 8.1 km/h
1774 30-11-2013 07:20:00 3.5 C 5.66 g/m*3 3.5 C 0 km/h
1775 30-11-2013 07:25:00 3.5 C 5.66 g/m*3 3.5 C 4.8 km/h
Sensor: Nr:Datum:Temp:Abs-Feuchte:Windchill:Wind:
Aussen-T/F 1776 30-11-2013 07:30:00 3.5 C 5.66 g/m*3 3.5 C 4.8 km/h
1777 30-11-2013 07:35:00 3.5 C 5.72 g/m*3 3.5 C 1.6 km/h
1778 30-11-2013 07:40:00 3.4 C 5.68 g/m*3 1.75 C 6.4 km/h
1779 30-11-2013 07:45:00 3.4 C 5.68 g/m*3 3.4 C 4.8 km/h
1780 30-11-2013 07:50:00 3.4 C 5.68 g/m*3 3.4 C 4.8 km/h
1781 30-11-2013 07:55:00 3.4 C 5.74 g/m*3 3.4 C 3.2 km/h
1782 30-11-2013 08:00:00 3.4 C 5.68 g/m*3 1.75 C 6.4 km/h
1783 30-11-2013 08:05:00 3.4 C 5.68 g/m*3 1.75 C 6.4 km/h
1784 30-11-2013 08:10:00 3.3 C 5.64 g/m*3 3.3 C 4.8 km/h
1785 30-11-2013 08:15:00 3.4 C 5.74 g/m*3 3.4 C 1.6 km/h
1786 30-11-2013 08:20:00 3.4 C 5.74 g/m*3 3.4 C 1.6 km/h
1787 30-11-2013 08:25:00 3.3 C 5.7 g/m*3 3.3 C 4.8 km/h
1788 30-11-2013 08:30:00 3.3 C 5.7 g/m*3 3.3 C 0 km/h
1789 30-11-2013 08:35:00 3.3 C 5.7 g/m*3 3.3 C 4.8 km/h
1790 30-11-2013 08:40:00 3.4 C 5.8 g/m*3 3.4 C 1.6 km/h
1791 30-11-2013 08:45:00 3.4 C 5.8 g/m*3 3.4 C 4.8 km/h
1792 30-11-2013 08:50:00 3.4 C 5.74 g/m*3 3.4 C 1.6 km/h
1793 30-11-2013 08:55:00 3.4 C 5.74 g/m*3 1.75 C 6.4 km/h
1794 30-11-2013 09:00:00 3.4 C 5.74 g/m*3 3.4 C 0 km/h
1795 30-11-2013 09:05:00 3.4 C 5.74 g/m*3 3.4 C 3.2 km/h
1796 30-11-2013 09:10:00 3.4 C 5.8 g/m*3 3.4 C 1.6 km/h
1797 30-11-2013 09:15:00 3.6 C 5.88 g/m*3 3.6 C 0 km/h
1798 30-11-2013 09:20:00 3.6 C 5.88 g/m*3 3.6 C 3.2 km/h
1799 30-11-2013 09:25:00 3.7 C 5.92 g/m*3 3.7 C 3.2 km/h
1800 30-11-2013 09:30:00 3.8 C 5.96 g/m*3 3.8 C 4.8 km/h
Sensor: Nr:Datum:Temp:Abs-Feuchte:Windchill:Wind:
Aussen-T/F 1801 30-11-2013 09:35:00 3.8 C 5.96 g/m*3 2.21 C 6.4 km/h
1802 30-11-2013 09:40:00 3.8 C 5.9 g/m*3 2.21 C 6.4 km/h
1803 30-11-2013 09:45:00 3.9 C 5.94 g/m*3 3.9 C 3.2 km/h
1804 30-11-2013 09:50:00 3.9 C 5.87 g/m*3 3.9 C 4.8 km/h
1805 30-11-2013 09:55:00 3.9 C 5.94 g/m*3 3.9 C 1.6 km/h
1806 30-11-2013 10:00:00 3.9 C 5.94 g/m*3 3.9 C 1.6 km/h
1807 30-11-2013 10:05:00 4 C 5.98 g/m*3 4 C 3.2 km/h
1808 30-11-2013 10:10:00 3.9 C 5.94 g/m*3 3.9 C 4.8 km/h
1809 30-11-2013 10:15:00 4 C 5.98 g/m*3 4 C 0 km/h
1810 30-11-2013 10:20:00 4 C 5.98 g/m*3 4 C 4.8 km/h
1811 30-11-2013 10:25:00 4.1 C 6.02 g/m*3 4.1 C 1.6 km/h
1812 30-11-2013 10:30:00 4.1 C 6.02 g/m*3 4.1 C 3.2 km/h
1813 30-11-2013 10:35:00 4.2 C 6.06 g/m*3 4.2 C 3.2 km/h
1814 30-11-2013 10:40:00 4.2 C 6.06 g/m*3 4.2 C 3.2 km/h
1815 30-11-2013 10:45:00 4.2 C 6.06 g/m*3 4.2 C 4.8 km/h
1816 30-11-2013 10:50:00 4.3 C 6.1 g/m*3 4.3 C 1.6 km/h
1817 30-11-2013 10:55:00 4.3 C 6.03 g/m*3 4.3 C 3.2 km/h
1818 30-11-2013 11:00:00 4.4 C 6.07 g/m*3 4.4 C 1.6 km/h
1819 30-11-2013 11:05:00 4.4 C 6.07 g/m*3 4.4 C 3.2 km/h
1820 30-11-2013 11:10:00 4.4 C 6.07 g/m*3 4.4 C 0 km/h
1821 30-11-2013 11:15:00 4.6 C 6.15 g/m*3 4.6 C 0 km/h
1822 30-11-2013 11:20:00 4.6 C 6.22 g/m*3 4.6 C 0 km/h
1823 30-11-2013 11:25:00 4.7 C 6.26 g/m*3 4.7 C 1.6 km/h
1824 30-11-2013 11:30:00 4.8 C 6.24 g/m*3 4.8 C 3.2 km/h
1825 30-11-2013 11:35:00 4.8 C 6.24 g/m*3 4.8 C 1.6 km/h
Sensor: Nr:Datum:Temp:Abs-Feuchte:Windchill:Wind:
Aussen-T/F 1826 30-11-2013 11:40:00 4.9 C 6.28 g/m*3 4.9 C 3.2 km/h
1827 30-11-2013 11:45:00 5 C 6.32 g/m*3 5 C 3.2 km/h
1828 30-11-2013 11:50:00 5.1 C 6.29 g/m*3 5.1 C 3.2 km/h
1829 30-11-2013 11:55:00 5.1 C 6.29 g/m*3 5.1 C 1.6 km/h
1830 30-11-2013 12:00:00 5.2 C 6.4 g/m*3 5.2 C 3.2 km/h
1831 30-11-2013 12:05:00 5.2 C 6.4 g/m*3 5.2 C 3.2 km/h
1832 30-11-2013 12:10:00 5.2 C 6.33 g/m*3 5.2 C 4.8 km/h
1833 30-11-2013 12:15:00 5.2 C 6.33 g/m*3 5.2 C 3.2 km/h
1834 30-11-2013 12:20:00 5.2 C 6.33 g/m*3 5.2 C 3.2 km/h
1835 30-11-2013 12:25:00 5.2 C 6.33 g/m*3 5.2 C 3.2 km/h
1836 30-11-2013 12:30:00 5.2 C 6.4 g/m*3 5.2 C 3.2 km/h
1837 30-11-2013 12:35:00 5.3 C 6.45 g/m*3 5.3 C 4.8 km/h
1838 30-11-2013 12:40:00 5.3 C 6.38 g/m*3 5.3 C 4.8 km/h
1839 30-11-2013 12:45:00 5.3 C 6.38 g/m*3 5.3 C 0 km/h
1840 30-11-2013 12:50:00 5.3 C 6.38 g/m*3 5.3 C 3.2 km/h
1841 30-11-2013 12:55:00 5.3 C 6.38 g/m*3 5.3 C 3.2 km/h
1842 30-11-2013 13:00:00 5.4 C 6.42 g/m*3 5.4 C 3.2 km/h
1843 30-11-2013 13:05:00 5.4 C 6.49 g/m*3 5.4 C 1.6 km/h
1844 30-11-2013 13:10:00 5.5 C 6.46 g/m*3 5.5 C 4.8 km/h
1845 30-11-2013 13:15:00 5.6 C 6.5 g/m*3 5.6 C 3.2 km/h
1846 30-11-2013 13:20:00 5.6 C 6.5 g/m*3 5.6 C 3.2 km/h
1847 30-11-2013 13:25:00 5.7 C 6.55 g/m*3 4.4 C 6.4 km/h
1848 30-11-2013 13:30:00 5.7 C 6.55 g/m*3 5.7 C 0 km/h
1849 30-11-2013 13:35:00 5.7 C 6.62 g/m*3 5.7 C 0 km/h
1850 30-11-2013 13:40:00 5.7 C 6.62 g/m*3 5.7 C 1.6 km/h
Sensor: Nr:Datum:Temp:Abs-Feuchte:Windchill:Wind:
Aussen-T/F 1851 30-11-2013 13:45:00 5.7 C 6.62 g/m*3 5.7 C 0 km/h
1852 30-11-2013 13:50:00 5.7 C 6.69 g/m*3 5.7 C 0 km/h
1853 30-11-2013 13:55:00 5.7 C 6.69 g/m*3 5.7 C 0 km/h
1854 30-11-2013 14:00:00 5.7 C 6.69 g/m*3 5.7 C 0 km/h
1855 30-11-2013 14:05:00 5.7 C 6.69 g/m*3 5.7 C 3.2 km/h
1856 30-11-2013 14:10:00 5.7 C 6.69 g/m*3 5.7 C 3.2 km/h
1857 30-11-2013 14:15:00 5.8 C 6.81 g/m*3 5.8 C 1.6 km/h
1858 30-11-2013 14:20:00 5.8 C 6.81 g/m*3 5.8 C 0 km/h
1859 30-11-2013 14:25:00 5.8 C 6.73 g/m*3 5.8 C 0 km/h
1860 30-11-2013 14:30:00 5.8 C 6.73 g/m*3 5.8 C 0 km/h
1861 30-11-2013 14:35:00 5.8 C 6.81 g/m*3 5.8 C 0 km/h
1862 30-11-2013 14:40:00 5.9 C 6.85 g/m*3 5.9 C 0 km/h
1863 30-11-2013 14:45:00 6 C 6.9 g/m*3 6 C 0 km/h
1864 30-11-2013 14:50:00 6 C 6.9 g/m*3 6 C 0 km/h
1865 30-11-2013 14:55:00 6 C 6.9 g/m*3 6 C 3.2 km/h
1866 30-11-2013 15:00:00 5.9 C 6.85 g/m*3 5.9 C 0 km/h
1867 30-11-2013 15:05:00 6 C 6.9 g/m*3 6 C 1.6 km/h
1868 30-11-2013 15:10:00 6.1 C 6.94 g/m*3 6.1 C 0 km/h
1869 30-11-2013 15:15:00 6.1 C 6.94 g/m*3 6.1 C 0 km/h
1870 30-11-2013 15:20:00 6.1 C 7.01 g/m*3 6.1 C 0 km/h
1871 30-11-2013 15:25:00 6.2 C 7.06 g/m*3 6.2 C 0 km/h
1872 30-11-2013 15:30:00 6.2 C 7.06 g/m*3 6.2 C 1.6 km/h
1873 30-11-2013 15:35:00 6.2 C 6.99 g/m*3 6.2 C 3.2 km/h
1874 30-11-2013 15:40:00 6.2 C 6.99 g/m*3 6.2 C 1.6 km/h
1875 30-11-2013 15:45:00 6.2 C 6.99 g/m*3 6.2 C 0 km/h
Sensor: Nr:Datum:Temp:Abs-Feuchte:Windchill:Wind:
Aussen-T/F 1876 30-11-2013 15:50:00 6.2 C 6.99 g/m*3 6.2 C 0 km/h
1877 30-11-2013 15:55:00 6.1 C 7.01 g/m*3 6.1 C 0 km/h
1878 30-11-2013 16:00:00 6.1 C 7.01 g/m*3 6.1 C 0 km/h
1879 30-11-2013 16:05:00 6.1 C 7.01 g/m*3 6.1 C 1.6 km/h
1880 30-11-2013 16:10:00 6 C 6.97 g/m*3 6 C 1.6 km/h
1881 30-11-2013 16:15:00 5.9 C 6.92 g/m*3 5.9 C 3.2 km/h
1882 30-11-2013 16:20:00 5.9 C 6.92 g/m*3 5.9 C 0 km/h
1883 30-11-2013 16:25:00 5.9 C 6.92 g/m*3 5.9 C 1.6 km/h
1884 30-11-2013 16:30:00 5.9 C 6.92 g/m*3 5.9 C 1.6 km/h
1885 30-11-2013 16:35:00 5.9 C 6.92 g/m*3 5.9 C 0 km/h
1886 30-11-2013 16:40:00 5.8 C 6.88 g/m*3 5.8 C 0 km/h
1887 30-11-2013 16:45:00 5.8 C 6.88 g/m*3 5.8 C 3.2 km/h
1888 30-11-2013 16:50:00 5.8 C 6.88 g/m*3 5.8 C 3.2 km/h
1889 30-11-2013 16:55:00 5.8 C 6.88 g/m*3 5.8 C 1.6 km/h
1890 30-11-2013 17:00:00 5.8 C 6.88 g/m*3 5.8 C 0 km/h
1891 30-11-2013 17:05:00 5.8 C 6.88 g/m*3 5.8 C 1.6 km/h
1892 30-11-2013 17:10:00 5.7 C 6.83 g/m*3 5.7 C 0 km/h
1893 30-11-2013 17:15:00 5.7 C 6.83 g/m*3 5.7 C 0 km/h
1894 30-11-2013 17:20:00 5.7 C 6.83 g/m*3 5.7 C 0 km/h
1895 30-11-2013 17:25:00 5.7 C 6.83 g/m*3 5.7 C 0 km/h
1896 30-11-2013 17:30:00 5.7 C 6.83 g/m*3 5.7 C 3.2 km/h
1897 30-11-2013 17:35:00 5.7 C 6.83 g/m*3 5.7 C 0 km/h
1898 30-11-2013 17:40:00 5.7 C 6.83 g/m*3 5.7 C 0 km/h
1899 30-11-2013 17:45:00 5.6 C 6.79 g/m*3 5.6 C 1.6 km/h
1900 30-11-2013 17:50:00 5.6 C 6.79 g/m*3 5.6 C 0 km/h
Sensor: Nr:Datum:Temp:Abs-Feuchte:Windchill:Wind:
Aussen-T/F 1901 30-11-2013 17:55:00 5.6 C 6.79 g/m*3 5.6 C 3.2 km/h
1902 30-11-2013 18:00:00 5.6 C 6.79 g/m*3 5.6 C 1.6 km/h
1903 30-11-2013 18:05:00 5.6 C 6.79 g/m*3 5.6 C 0 km/h
1904 30-11-2013 18:10:00 5.5 C 6.74 g/m*3 5.5 C 0 km/h
1905 30-11-2013 18:15:00 5.5 C 6.74 g/m*3 5.5 C 3.2 km/h
1906 30-11-2013 18:20:00 5.4 C 6.7 g/m*3 5.4 C 3.2 km/h
1907 30-11-2013 18:25:00 5.4 C 6.7 g/m*3 5.4 C 1.6 km/h
1908 30-11-2013 18:30:00 5.4 C 6.7 g/m*3 5.4 C 3.2 km/h
1909 30-11-2013 18:35:00 5.4 C 6.7 g/m*3 5.4 C 1.6 km/h
1910 30-11-2013 18:40:00 5.4 C 6.7 g/m*3 5.4 C 0 km/h
1911 30-11-2013 18:45:00 5.4 C 6.7 g/m*3 5.4 C 0 km/h
1912 30-11-2013 18:50:00 5.3 C 6.65 g/m*3 5.3 C 0 km/h
1913 30-11-2013 18:55:00 5.3 C 6.65 g/m*3 5.3 C 3.2 km/h
1914 30-11-2013 19:00:00 5.3 C 6.65 g/m*3 5.3 C 3.2 km/h
1915 30-11-2013 19:05:00 5.3 C 6.65 g/m*3 5.3 C 3.2 km/h
1916 30-11-2013 19:10:00 5.3 C 6.65 g/m*3 5.3 C 0 km/h
1917 30-11-2013 19:15:00 5.3 C 6.65 g/m*3 5.3 C 3.2 km/h
1918 30-11-2013 19:20:00 5.3 C 6.65 g/m*3 5.3 C 4.8 km/h
1919 30-11-2013 19:25:00 5.3 C 6.65 g/m*3 5.3 C 3.2 km/h
1920 30-11-2013 19:30:00 5.3 C 6.65 g/m*3 5.3 C 3.2 km/h
1921 30-11-2013 19:35:00 5.3 C 6.65 g/m*3 5.3 C 1.6 km/h
1922 30-11-2013 19:40:00 5.2 C 6.61 g/m*3 5.2 C 3.2 km/h
1923 30-11-2013 19:45:00 5.2 C 6.61 g/m*3 5.2 C 0 km/h
1924 30-11-2013 19:50:00 5.1 C 6.57 g/m*3 5.1 C 0 km/h
1925 30-11-2013 19:55:00 5.1 C 6.57 g/m*3 5.1 C 0 km/h
Sensor: Nr:Datum:Temp:Abs-Feuchte:Windchill:Wind:
Aussen-T/F 1926 30-11-2013 20:00:00 5 C 6.52 g/m*3 5 C 0 km/h
1927 30-11-2013 20:05:00 4.9 C 6.48 g/m*3 4.9 C 1.6 km/h
1928 30-11-2013 20:10:00 4.8 C 6.44 g/m*3 4.8 C 1.6 km/h
1929 30-11-2013 20:15:00 4.7 C 6.33 g/m*3 4.7 C 1.6 km/h
1930 30-11-2013 20:20:00 4.5 C 6.24 g/m*3 4.5 C 1.6 km/h
1931 30-11-2013 20:25:00 4.3 C 6.16 g/m*3 4.3 C 3.2 km/h
1932 30-11-2013 20:30:00 4.1 C 6.08 g/m*3 4.1 C 3.2 km/h
1933 30-11-2013 20:35:00 4 C 6.04 g/m*3 4 C 1.6 km/h
1934 30-11-2013 20:40:00 3.9 C 6 g/m*3 3.9 C 3.2 km/h
1935 30-11-2013 20:45:00 3.8 C 5.96 g/m*3 3.8 C 3.2 km/h
1936 30-11-2013 20:50:00 3.8 C 5.96 g/m*3 3.8 C 1.6 km/h
1937 30-11-2013 20:55:00 3.7 C 5.98 g/m*3 3.7 C 3.2 km/h
1938 30-11-2013 21:00:00 3.7 C 5.98 g/m*3 3.7 C 3.2 km/h
1939 30-11-2013 21:05:00 3.6 C 5.94 g/m*3 3.6 C 0 km/h
1940 30-11-2013 21:10:00 3.5 C 5.9 g/m*3 3.5 C 0 km/h
1941 30-11-2013 21:15:00 3.6 C 5.94 g/m*3 3.6 C 0 km/h
1942 30-11-2013 21:20:00 3.6 C 5.94 g/m*3 3.6 C 0 km/h
1943 30-11-2013 21:25:00 3.6 C 5.94 g/m*3 3.6 C 0 km/h
1944 30-11-2013 21:30:00 3.6 C 5.94 g/m*3 3.6 C 0 km/h
1945 30-11-2013 21:35:00 3.4 C 5.86 g/m*3 3.4 C 0 km/h
1946 30-11-2013 21:40:00 3.3 C 5.82 g/m*3 3.3 C 0 km/h
1947 30-11-2013 21:45:00 3.3 C 5.82 g/m*3 3.3 C 0 km/h
1948 30-11-2013 21:50:00 3.3 C 5.82 g/m*3 3.3 C 0 km/h
1949 30-11-2013 21:55:00 3.3 C 5.82 g/m*3 3.3 C 0 km/h
1950 30-11-2013 22:00:00 3.4 C 5.92 g/m*3 3.4 C 0 km/h
Sensor: Nr:Datum:Temp:Abs-Feuchte:Windchill:Wind:
Aussen-T/F 1951 30-11-2013 22:05:00 3.4 C 5.92 g/m*3 3.4 C 0 km/h
1952 30-11-2013 22:10:00 3.5 C 5.96 g/m*3 3.5 C 0 km/h
1953 30-11-2013 22:15:00 3.5 C 5.96 g/m*3 3.5 C 0 km/h
1954 30-11-2013 22:20:00 3.5 C 5.96 g/m*3 3.5 C 0 km/h
1955 30-11-2013 22:25:00 3.6 C 6 g/m*3 3.6 C 0 km/h
1956 30-11-2013 22:30:00 3.6 C 6 g/m*3 3.6 C 0 km/h
1957 30-11-2013 22:35:00 3.6 C 6 g/m*3 3.6 C 0 km/h
1958 30-11-2013 22:40:00 3.6 C 6 g/m*3 3.6 C 0 km/h
1959 30-11-2013 22:45:00 3.6 C 6 g/m*3 3.6 C 0 km/h
1960 30-11-2013 22:50:00 3.6 C 6 g/m*3 3.6 C 0 km/h
1961 30-11-2013 22:55:00 3.7 C 6.04 g/m*3 3.7 C 0 km/h
1962 30-11-2013 23:00:00 3.7 C 6.04 g/m*3 3.7 C 0 km/h
1963 30-11-2013 23:05:00 3.7 C 6.04 g/m*3 3.7 C 0 km/h
1964 30-11-2013 23:10:00 3.7 C 6.04 g/m*3 3.7 C 0 km/h
1965 30-11-2013 23:15:00 3.7 C 6.04 g/m*3 3.7 C 0 km/h
1966 30-11-2013 23:20:00 3.7 C 6.04 g/m*3 3.7 C 0 km/h
1967 30-11-2013 23:25:00 3.7 C 6.04 g/m*3 3.7 C 0 km/h
1968 30-11-2013 23:30:00 3.8 C 6.09 g/m*3 3.8 C 0 km/h
1969 30-11-2013 23:35:00 3.8 C 6.09 g/m*3 3.8 C 3.2 km/h
1970 30-11-2013 23:40:00 3.8 C 6.09 g/m*3 3.8 C 1.6 km/h
1971 30-11-2013 23:45:00 3.8 C 6.09 g/m*3 3.8 C 0 km/h
1972 30-11-2013 23:50:00 3.8 C 6.09 g/m*3 3.8 C 0 km/h
1973 30-11-2013 23:55:00 3.8 C 6.09 g/m*3 3.8 C 0 km/h
1974 01-12-2013 00:00:00 3.8 C 6.09 g/m*3 3.8 C 0 km/h
1975 01-12-2013 00:05:00 3.8 C 6.09 g/m*3 3.8 C 0 km/h
Sensor: Nr:Datum:Temp:Abs-Feuchte:Windchill:Wind:
Aussen-T/F 1976 01-12-2013 00:10:00 3.8 C 6.09 g/m*3 3.8 C 0 km/h
1977 01-12-2013 00:15:00 3.8 C 6.09 g/m*3 3.8 C 0 km/h
1978 01-12-2013 00:20:00 3.8 C 6.09 g/m*3 2.21 C 6.4 km/h
1979 01-12-2013 00:25:00 3.8 C 6.09 g/m*3 1.7 C 8.1 km/h
1980 01-12-2013 00:30:00 3.8 C 6.09 g/m*3 3.8 C 3.2 km/h
1981 01-12-2013 00:35:00 3.8 C 6.09 g/m*3 3.8 C 3.2 km/h
1982 01-12-2013 00:40:00 3.7 C 6.04 g/m*3 3.7 C 4.8 km/h
1983 01-12-2013 00:45:00 3.7 C 6.04 g/m*3 3.7 C 1.6 km/h
1984 01-12-2013 00:50:00 3.7 C 6.04 g/m*3 3.7 C 0 km/h
1985 01-12-2013 00:55:00 3.8 C 6.09 g/m*3 3.8 C 0 km/h
1986 01-12-2013 01:00:00 3.8 C 6.09 g/m*3 3.8 C 1.6 km/h
1987 01-12-2013 01:05:00 3.9 C 6.13 g/m*3 3.9 C 1.6 km/h
1988 01-12-2013 01:10:00 3.9 C 6.13 g/m*3 3.9 C 0 km/h
1989 01-12-2013 01:15:00 3.9 C 6.13 g/m*3 3.9 C 0 km/h
1990 01-12-2013 01:20:00 4 C 6.17 g/m*3 4 C 0 km/h
1991 01-12-2013 01:25:00 4.1 C 6.21 g/m*3 4.1 C 4.8 km/h
1992 01-12-2013 01:30:00 4.1 C 6.21 g/m*3 4.1 C 0 km/h
1993 01-12-2013 01:35:00 4.1 C 6.21 g/m*3 4.1 C 3.2 km/h
1994 01-12-2013 01:40:00 4.1 C 6.21 g/m*3 4.1 C 3.2 km/h
1995 01-12-2013 01:45:00 4.1 C 6.21 g/m*3 4.1 C 0 km/h
1996 01-12-2013 01:50:00 4.1 C 6.21 g/m*3 2.55 C 6.4 km/h
1997 01-12-2013 01:55:00 4.1 C 6.14 g/m*3 4.1 C 4.8 km/h
1998 01-12-2013 02:00:00 4.1 C 6.14 g/m*3 4.1 C 4.8 km/h
1999 01-12-2013 02:05:00 4 C 6.1 g/m*3 4 C 4.8 km/h
2000 01-12-2013 02:10:00 3.9 C 6.06 g/m*3 3.9 C 4.8 km/h
Sensor: Nr:Datum:Temp:Abs-Feuchte:Windchill:Wind:
Aussen-T/F 2001 01-12-2013 02:15:00 3.9 C 6.06 g/m*3 3.9 C 3.2 km/h
2002 01-12-2013 02:20:00 3.9 C 6.06 g/m*3 3.9 C 0 km/h
2003 01-12-2013 02:25:00 3.9 C 6.06 g/m*3 3.9 C 0 km/h
2004 01-12-2013 02:30:00 3.9 C 6.06 g/m*3 3.9 C 0 km/h
2005 01-12-2013 02:35:00 3.9 C 6.06 g/m*3 3.9 C 1.6 km/h
2006 01-12-2013 02:40:00 3.9 C 6.06 g/m*3 3.9 C 0 km/h
2007 01-12-2013 02:45:00 3.9 C 6.06 g/m*3 3.9 C 0 km/h
2008 01-12-2013 02:50:00 4 C 6.1 g/m*3 4 C 0 km/h
2009 01-12-2013 02:55:00 4 C 6.1 g/m*3 4 C 1.6 km/h
2010 01-12-2013 03:00:00 4 C 6.1 g/m*3 4 C 0 km/h
2011 01-12-2013 03:05:00 4 C 6.1 g/m*3 4 C 0 km/h
2012 01-12-2013 03:10:00 4 C 6.1 g/m*3 4 C 0 km/h
2013 01-12-2013 03:15:00 3.9 C 6.06 g/m*3 3.9 C 1.6 km/h
2014 01-12-2013 03:20:00 3.9 C 6.06 g/m*3 3.9 C 1.6 km/h
2015 01-12-2013 03:25:00 3.9 C 6.06 g/m*3 3.9 C 0 km/h
2016 01-12-2013 03:30:00 3.9 C 6.13 g/m*3 3.9 C 0 km/h
2017 01-12-2013 03:35:00 4 C 6.17 g/m*3 4 C 0 km/h
2018 01-12-2013 03:40:00 4 C 6.17 g/m*3 4 C 0 km/h
2019 01-12-2013 03:45:00 4 C 6.17 g/m*3 4 C 1.6 km/h
2020 01-12-2013 03:50:00 4 C 6.17 g/m*3 4 C 0 km/h
2021 01-12-2013 03:55:00 4 C 6.17 g/m*3 4 C 3.2 km/h
2022 01-12-2013 04:00:00 4 C 6.17 g/m*3 4 C 0 km/h
2023 01-12-2013 04:05:00 3.9 C 6.06 g/m*3 3.9 C 3.2 km/h
2024 01-12-2013 04:10:00 3.8 C 6.02 g/m*3 3.8 C 4.8 km/h
2025 01-12-2013 04:15:00 3.7 C 5.98 g/m*3 3.7 C 0 km/h
Sensor: Nr:Datum:Temp:Abs-Feuchte:Windchill:Wind:
Aussen-T/F 2026 01-12-2013 04:20:00 3.6 C 5.94 g/m*3 3.6 C 1.6 km/h
2027 01-12-2013 04:25:00 3.6 C 6 g/m*3 3.6 C 0 km/h
2028 01-12-2013 04:30:00 3.7 C 6.04 g/m*3 3.7 C 0 km/h
2029 01-12-2013 04:35:00 3.7 C 6.04 g/m*3 3.7 C 1.6 km/h
2030 01-12-2013 04:40:00 3.8 C 6.09 g/m*3 3.8 C 0 km/h
2031 01-12-2013 04:45:00 3.8 C 6.09 g/m*3 3.8 C 0 km/h
2032 01-12-2013 04:50:00 3.8 C 6.09 g/m*3 3.8 C 0 km/h
2033 01-12-2013 04:55:00 3.8 C 6.09 g/m*3 3.8 C 0 km/h
2034 01-12-2013 05:00:00 3.9 C 6.13 g/m*3 3.9 C 0 km/h
2035 01-12-2013 05:05:00 3.9 C 6.13 g/m*3 3.9 C 0 km/h
2036 01-12-2013 05:10:00 3.9 C 6.13 g/m*3 3.9 C 0 km/h
2037 01-12-2013 05:15:00 4 C 6.17 g/m*3 4 C 0 km/h
2038 01-12-2013 05:20:00 4 C 6.17 g/m*3 4 C 3.2 km/h
2039 01-12-2013 05:25:00 4.1 C 6.21 g/m*3 4.1 C 3.2 km/h
2040 01-12-2013 05:30:00 4.1 C 6.21 g/m*3 4.1 C 3.2 km/h
2041 01-12-2013 05:35:00 4.1 C 6.21 g/m*3 4.1 C 3.2 km/h
2042 01-12-2013 05:40:00 4.1 C 6.21 g/m*3 4.1 C 1.6 km/h
2043 01-12-2013 05:45:00 4.1 C 6.21 g/m*3 4.1 C 0 km/h
2044 01-12-2013 05:50:00 4.2 C 6.25 g/m*3 4.2 C 0 km/h
2045 01-12-2013 05:55:00 4.2 C 6.25 g/m*3 4.2 C 1.6 km/h
2046 01-12-2013 06:00:00 4.2 C 6.25 g/m*3 4.2 C 0 km/h
2047 01-12-2013 06:05:00 4.2 C 6.25 g/m*3 4.2 C 0 km/h
2048 01-12-2013 06:10:00 4.2 C 6.19 g/m*3 4.2 C 4.8 km/h
2049 01-12-2013 06:15:00 4.2 C 6.19 g/m*3 4.2 C 0 km/h
2050 01-12-2013 06:20:00 4.2 C 6.19 g/m*3 4.2 C 3.2 km/h
Sensor: Nr:Datum:Temp:Abs-Feuchte:Windchill:Wind:
Aussen-T/F 2051 01-12-2013 06:25:00 4.2 C 6.19 g/m*3 4.2 C 4.8 km/h
2052 01-12-2013 06:30:00 4.2 C 6.19 g/m*3 2.67 C 6.4 km/h
2053 01-12-2013 06:35:00 4.1 C 6.14 g/m*3 2.55 C 6.4 km/h
2054 01-12-2013 06:40:00 4.1 C 6.14 g/m*3 4.1 C 4.8 km/h
2055 01-12-2013 06:45:00 4.2 C 6.19 g/m*3 2.17 C 8.1 km/h
2056 01-12-2013 06:50:00 4.2 C 6.19 g/m*3 4.2 C 4.8 km/h
2057 01-12-2013 06:55:00 4.2 C 6.19 g/m*3 4.2 C 0 km/h
2058 01-12-2013 07:00:00 4.2 C 6.19 g/m*3 4.2 C 1.6 km/h
2059 01-12-2013 07:05:00 4.2 C 6.19 g/m*3 4.2 C 0 km/h
2060 01-12-2013 07:10:00 4.2 C 6.19 g/m*3 4.2 C 1.6 km/h
2061 01-12-2013 07:15:00 4.2 C 6.19 g/m*3 4.2 C 4.8 km/h
2062 01-12-2013 07:20:00 4.2 C 6.19 g/m*3 4.2 C 4.8 km/h
2063 01-12-2013 07:25:00 4.3 C 6.23 g/m*3 2.29 C 8.1 km/h
2064 01-12-2013 07:30:00 4.3 C 6.23 g/m*3 2.78 C 6.4 km/h
2065 01-12-2013 07:40:00 4.3 C 6.16 g/m*3 4.3 C 3.2 km/h
2066 01-12-2013 07:45:00 4.4 C 6.2 g/m*3 4.4 C 0 km/h
2067 01-12-2013 07:50:00 4.4 C 6.2 g/m*3 4.4 C 1.6 km/h
2068 01-12-2013 07:55:00 4.4 C 6.2 g/m*3 4.4 C 0 km/h
2069 01-12-2013 08:00:00 4.4 C 6.2 g/m*3 4.4 C 0 km/h
2070 01-12-2013 08:05:00 4.4 C 6.2 g/m*3 4.4 C 0 km/h
2071 01-12-2013 08:10:00 4.4 C 6.2 g/m*3 2.9 C 6.4 km/h
2072 01-12-2013 08:15:00 4.4 C 6.2 g/m*3 4.4 C 0 km/h
2073 01-12-2013 08:20:00 4.4 C 6.2 g/m*3 4.4 C 0 km/h
2074 01-12-2013 08:25:00 4.4 C 6.2 g/m*3 4.4 C 0 km/h
2075 01-12-2013 08:30:00 4.4 C 6.2 g/m*3 4.4 C 0 km/h
Sensor: Nr:Datum:Temp:Abs-Feuchte:Windchill:Wind:
Aussen-T/F 2076 01-12-2013 08:35:00 4.4 C 6.2 g/m*3 4.4 C 1.6 km/h
2077 01-12-2013 08:40:00 4.4 C 6.2 g/m*3 4.4 C 3.2 km/h
2078 01-12-2013 08:45:00 4.4 C 6.2 g/m*3 4.4 C 0 km/h
2079 01-12-2013 08:50:00 4.4 C 6.2 g/m*3 4.4 C 0 km/h
2080 01-12-2013 08:55:00 4.4 C 6.2 g/m*3 4.4 C 1.6 km/h
2081 01-12-2013 09:00:00 4.4 C 6.2 g/m*3 4.4 C 4.8 km/h
2082 01-12-2013 09:05:00 4.4 C 6.2 g/m*3 4.4 C 1.6 km/h
2083 01-12-2013 09:10:00 4.5 C 6.24 g/m*3 4.5 C 3.2 km/h
2084 01-12-2013 09:15:00 4.5 C 6.24 g/m*3 4.5 C 4.8 km/h
2085 01-12-2013 09:20:00 4.5 C 6.24 g/m*3 3.02 C 6.4 km/h
2086 01-12-2013 09:25:00 4.5 C 6.24 g/m*3 4.5 C 4.8 km/h
2087 01-12-2013 09:30:00 4.5 C 6.24 g/m*3 4.5 C 4.8 km/h
2088 01-12-2013 09:35:00 4.5 C 6.24 g/m*3 4.5 C 1.6 km/h
2089 01-12-2013 09:40:00 4.5 C 6.24 g/m*3 4.5 C 4.8 km/h
2090 01-12-2013 09:45:00 4.5 C 6.24 g/m*3 4.5 C 4.8 km/h
2091 01-12-2013 09:50:00 4.5 C 6.24 g/m*3 4.5 C 4.8 km/h
2092 01-12-2013 09:55:00 4.5 C 6.24 g/m*3 4.5 C 4.8 km/h
2093 01-12-2013 10:00:00 4.5 C 6.24 g/m*3 4.5 C 4.8 km/h
2094 01-12-2013 10:05:00 4.6 C 6.29 g/m*3 4.6 C 1.6 km/h
2095 01-12-2013 10:10:00 4.6 C 6.29 g/m*3 4.6 C 3.2 km/h
2096 01-12-2013 10:15:00 4.7 C 6.33 g/m*3 4.7 C 1.6 km/h
2097 01-12-2013 10:20:00 4.7 C 6.33 g/m*3 4.7 C 1.6 km/h
2098 01-12-2013 10:25:00 4.7 C 6.33 g/m*3 4.7 C 1.6 km/h
2099 01-12-2013 10:30:00 4.8 C 6.37 g/m*3 4.8 C 3.2 km/h
2100 01-12-2013 10:35:00 4.8 C 6.37 g/m*3 4.8 C 3.2 km/h
Sensor: Nr:Datum:Temp:Abs-Feuchte:Windchill:Wind:
Aussen-T/F 2101 01-12-2013 10:40:00 4.8 C 6.37 g/m*3 4.8 C 0 km/h
2102 01-12-2013 10:45:00 4.8 C 6.37 g/m*3 4.8 C 0 km/h
2103 01-12-2013 10:50:00 4.9 C 6.41 g/m*3 4.9 C 1.6 km/h
2104 01-12-2013 10:55:00 5 C 6.46 g/m*3 5 C 1.6 km/h
2105 01-12-2013 11:00:00 5.1 C 6.5 g/m*3 5.1 C 0 km/h
2106 01-12-2013 11:05:00 5.2 C 6.54 g/m*3 5.2 C 0 km/h
2107 01-12-2013 11:10:00 5.3 C 6.52 g/m*3 5.3 C 1.6 km/h
2108 01-12-2013 11:15:00 5.4 C 6.56 g/m*3 5.4 C 3.2 km/h
2109 01-12-2013 11:20:00 5.4 C 6.56 g/m*3 5.4 C 4.8 km/h
2110 01-12-2013 11:25:00 5.5 C 6.6 g/m*3 5.5 C 3.2 km/h
2111 01-12-2013 11:30:00 5.5 C 6.6 g/m*3 5.5 C 3.2 km/h
2112 01-12-2013 11:35:00 5.6 C 6.65 g/m*3 5.6 C 3.2 km/h
2113 01-12-2013 11:40:00 5.6 C 6.65 g/m*3 5.6 C 1.6 km/h
2114 01-12-2013 11:45:00 5.7 C 6.69 g/m*3 5.7 C 1.6 km/h
2115 01-12-2013 11:50:00 5.8 C 6.73 g/m*3 5.8 C 0 km/h
2116 01-12-2013 11:55:00 5.8 C 6.66 g/m*3 5.8 C 3.2 km/h
2117 01-12-2013 12:00:00 5.8 C 6.66 g/m*3 5.8 C 4.8 km/h
2118 01-12-2013 12:05:00 5.8 C 6.66 g/m*3 5.8 C 0 km/h
2119 01-12-2013 12:10:00 5.9 C 6.71 g/m*3 5.9 C 0 km/h
2120 01-12-2013 12:15:00 5.9 C 6.71 g/m*3 5.9 C 1.6 km/h
2121 01-12-2013 12:20:00 6 C 6.75 g/m*3 6 C 1.6 km/h
2122 01-12-2013 12:25:00 6.1 C 6.79 g/m*3 6.1 C 4.8 km/h
2123 01-12-2013 12:30:00 6.2 C 6.84 g/m*3 6.2 C 4.8 km/h
2124 01-12-2013 12:35:00 6.2 C 6.84 g/m*3 6.2 C 4.8 km/h
2125 01-12-2013 12:40:00 6.2 C 6.77 g/m*3 6.2 C 3.2 km/h
Sensor: Nr:Datum:Temp:Abs-Feuchte:Windchill:Wind:
Aussen-T/F 2126 01-12-2013 12:45:00 6.3 C 6.81 g/m*3 6.3 C 1.6 km/h
2127 01-12-2013 12:50:00 6.3 C 6.81 g/m*3 6.3 C 3.2 km/h
2128 01-12-2013 12:55:00 6.4 C 6.85 g/m*3 6.4 C 0 km/h
2129 01-12-2013 13:00:00 6.4 C 6.78 g/m*3 6.4 C 0 km/h
2130 01-12-2013 13:05:00 6.5 C 6.82 g/m*3 6.5 C 0 km/h
2131 01-12-2013 13:10:00 6.6 C 6.87 g/m*3 6.6 C 0 km/h
2132 01-12-2013 13:15:00 6.6 C 6.87 g/m*3 6.6 C 3.2 km/h
2133 01-12-2013 13:20:00 6.7 C 6.91 g/m*3 6.7 C 1.6 km/h
2134 01-12-2013 13:25:00 6.7 C 6.91 g/m*3 6.7 C 3.2 km/h
2135 01-12-2013 13:30:00 6.7 C 6.91 g/m*3 6.7 C 4.8 km/h
2136 01-12-2013 13:35:00 6.7 C 6.91 g/m*3 6.7 C 3.2 km/h
2137 01-12-2013 13:40:00 6.7 C 6.91 g/m*3 6.7 C 3.2 km/h
2138 01-12-2013 13:45:00 6.7 C 6.91 g/m*3 6.7 C 1.6 km/h
2139 01-12-2013 13:50:00 6.7 C 6.91 g/m*3 6.7 C 1.6 km/h
2140 01-12-2013 13:55:00 6.8 C 6.88 g/m*3 6.8 C 3.2 km/h
2141 01-12-2013 14:00:00 6.8 C 6.88 g/m*3 6.8 C 0 km/h
2142 01-12-2013 14:05:00 6.8 C 6.88 g/m*3 6.8 C 0 km/h
2143 01-12-2013 14:10:00 6.9 C 6.93 g/m*3 6.9 C 0 km/h
2144 01-12-2013 14:15:00 6.9 C 6.93 g/m*3 6.9 C 1.6 km/h
2145 01-12-2013 14:20:00 6.9 C 6.93 g/m*3 6.9 C 1.6 km/h
2146 01-12-2013 14:25:00 7 C 6.9 g/m*3 7 C 1.6 km/h
2147 01-12-2013 14:30:00 7.1 C 7.02 g/m*3 7.1 C 0 km/h
2148 01-12-2013 14:35:00 7.1 C 6.94 g/m*3 7.1 C 4.8 km/h
2149 01-12-2013 14:40:00 7.1 C 6.94 g/m*3 7.1 C 3.2 km/h
2150 01-12-2013 14:45:00 7.1 C 7.02 g/m*3 7.1 C 1.6 km/h
Sensor: Nr:Datum:Temp:Abs-Feuchte:Windchill:Wind:
Aussen-T/F 2151 01-12-2013 14:50:00 7.1 C 6.94 g/m*3 7.1 C 1.6 km/h
2152 01-12-2013 14:55:00 7.1 C 6.94 g/m*3 7.1 C 3.2 km/h
2153 01-12-2013 15:00:00 7.1 C 6.86 g/m*3 7.1 C 1.6 km/h
2154 01-12-2013 15:05:00 7.1 C 6.94 g/m*3 7.1 C 3.2 km/h
2155 01-12-2013 15:10:00 7.1 C 6.86 g/m*3 7.1 C 0 km/h
2156 01-12-2013 15:15:00 7.1 C 6.86 g/m*3 7.1 C 0 km/h
2157 01-12-2013 15:20:00 7.1 C 6.86 g/m*3 7.1 C 0 km/h
2158 01-12-2013 15:25:00 7.2 C 6.91 g/m*3 7.2 C 0 km/h
2159 01-12-2013 15:30:00 7.2 C 6.99 g/m*3 7.2 C 0 km/h
2160 01-12-2013 15:35:00 7.1 C 6.94 g/m*3 7.1 C 0 km/h
2161 01-12-2013 15:40:00 7 C 6.74 g/m*3 7 C 1.6 km/h
2162 01-12-2013 15:45:00 6.9 C 6.77 g/m*3 6.9 C 0 km/h
2163 01-12-2013 15:50:00 6.7 C 6.76 g/m*3 6.7 C 0 km/h
2164 01-12-2013 15:55:00 6.4 C 6.71 g/m*3 6.4 C 0 km/h
2165 01-12-2013 16:00:00 6.2 C 6.62 g/m*3 6.2 C 0 km/h
2166 01-12-2013 16:05:00 6.1 C 6.65 g/m*3 6.1 C 3.2 km/h
2167 01-12-2013 16:10:00 6.1 C 6.65 g/m*3 6.1 C 1.6 km/h
2168 01-12-2013 16:15:00 6.1 C 6.72 g/m*3 6.1 C 1.6 km/h
2169 01-12-2013 16:20:00 6.1 C 6.65 g/m*3 6.1 C 0 km/h
2170 01-12-2013 16:25:00 6.2 C 6.77 g/m*3 6.2 C 1.6 km/h
2171 01-12-2013 16:30:00 6.1 C 6.72 g/m*3 6.1 C 0 km/h
2172 01-12-2013 16:35:00 5.9 C 6.56 g/m*3 5.9 C 1.6 km/h
2173 01-12-2013 16:40:00 5.7 C 6.55 g/m*3 5.7 C 1.6 km/h
2174 01-12-2013 16:45:00 5.5 C 6.46 g/m*3 5.5 C 1.6 km/h
2175 01-12-2013 16:50:00 5.3 C 6.45 g/m*3 5.3 C 3.2 km/h
Sensor: Nr:Datum:Temp:Abs-Feuchte:Windchill:Wind:
Aussen-T/F 2176 01-12-2013 16:55:00 5.3 C 6.45 g/m*3 5.3 C 3.2 km/h
2177 01-12-2013 17:00:00 5.3 C 6.52 g/m*3 5.3 C 3.2 km/h
2178 01-12-2013 17:05:00 5.3 C 6.45 g/m*3 5.3 C 0 km/h
2179 01-12-2013 17:10:00 5.2 C 6.4 g/m*3 5.2 C 0 km/h
2180 01-12-2013 17:15:00 5 C 6.32 g/m*3 5 C 1.6 km/h
2181 01-12-2013 17:20:00 4.8 C 6.24 g/m*3 4.8 C 3.2 km/h
2182 01-12-2013 17:25:00 4.8 C 6.3 g/m*3 4.8 C 0 km/h
2183 01-12-2013 17:30:00 4.8 C 6.3 g/m*3 4.8 C 3.2 km/h
2184 01-12-2013 17:35:00 4.8 C 6.37 g/m*3 4.8 C 3.2 km/h
2185 01-12-2013 17:40:00 4.9 C 6.41 g/m*3 4.9 C 1.6 km/h
2186 01-12-2013 17:45:00 5.1 C 6.5 g/m*3 5.1 C 1.6 km/h
2187 01-12-2013 17:50:00 5.1 C 6.5 g/m*3 5.1 C 0 km/h
2188 01-12-2013 17:55:00 5.2 C 6.54 g/m*3 5.2 C 0 km/h
2189 01-12-2013 18:00:00 5.2 C 6.54 g/m*3 5.2 C 0 km/h
2190 01-12-2013 18:05:00 5.1 C 6.5 g/m*3 5.1 C 0 km/h
2191 01-12-2013 18:10:00 4.9 C 6.41 g/m*3 4.9 C 0 km/h
2192 01-12-2013 18:15:00 4.8 C 6.37 g/m*3 4.8 C 0 km/h
2193 01-12-2013 18:20:00 4.7 C 6.26 g/m*3 4.7 C 0 km/h
2194 01-12-2013 18:25:00 4.6 C 6.29 g/m*3 4.6 C 3.2 km/h
2195 01-12-2013 18:30:00 4.6 C 6.29 g/m*3 4.6 C 0 km/h
2196 01-12-2013 18:35:00 4.6 C 6.29 g/m*3 4.6 C 0 km/h
2197 01-12-2013 18:40:00 4.6 C 6.29 g/m*3 4.6 C 0 km/h
2198 01-12-2013 18:45:00 4.6 C 6.29 g/m*3 4.6 C 0 km/h
2199 01-12-2013 18:50:00 4.6 C 6.35 g/m*3 4.6 C 1.6 km/h
2200 01-12-2013 18:55:00 4.7 C 6.39 g/m*3 4.7 C 0 km/h
Sensor: Nr:Datum:Temp:Abs-Feuchte:Windchill:Wind:
Aussen-T/F 2201 01-12-2013 19:00:00 4.8 C 6.44 g/m*3 4.8 C 0 km/h
2202 01-12-2013 19:05:00 4.8 C 6.44 g/m*3 4.8 C 0 km/h
2203 01-12-2013 19:10:00 4.8 C 6.44 g/m*3 4.8 C 0 km/h
2204 01-12-2013 19:15:00 4.8 C 6.44 g/m*3 4.8 C 0 km/h
2205 01-12-2013 19:20:00 4.8 C 6.44 g/m*3 4.8 C 0 km/h
2206 01-12-2013 19:25:00 4.8 C 6.44 g/m*3 4.8 C 0 km/h
2207 01-12-2013 19:30:00 4.9 C 6.48 g/m*3 4.9 C 0 km/h
2208 01-12-2013 19:35:00 4.9 C 6.48 g/m*3 4.9 C 0 km/h
2209 01-12-2013 19:40:00 4.9 C 6.48 g/m*3 4.9 C 0 km/h
2210 01-12-2013 19:45:00 4.9 C 6.48 g/m*3 4.9 C 0 km/h
2211 01-12-2013 19:50:00 5 C 6.52 g/m*3 5 C 0 km/h
2212 01-12-2013 19:55:00 5.1 C 6.57 g/m*3 5.1 C 0 km/h
2213 01-12-2013 20:00:00 5.1 C 6.57 g/m*3 5.1 C 0 km/h
2214 01-12-2013 20:05:00 5.1 C 6.57 g/m*3 5.1 C 0 km/h
2215 01-12-2013 20:10:00 5.1 C 6.57 g/m*3 5.1 C 0 km/h
2216 01-12-2013 20:15:00 5.2 C 6.61 g/m*3 5.2 C 0 km/h
2217 01-12-2013 20:20:00 5.2 C 6.61 g/m*3 5.2 C 0 km/h
2218 01-12-2013 20:25:00 5.2 C 6.61 g/m*3 5.2 C 0 km/h
2219 01-12-2013 20:30:00 5.3 C 6.65 g/m*3 5.3 C 0 km/h
2220 01-12-2013 20:35:00 5.3 C 6.65 g/m*3 5.3 C 0 km/h
2221 01-12-2013 20:40:00 5.3 C 6.65 g/m*3 5.3 C 1.6 km/h
2222 01-12-2013 20:45:00 5.3 C 6.58 g/m*3 5.3 C 0 km/h
2223 01-12-2013 20:50:00 5.4 C 6.63 g/m*3 5.4 C 0 km/h
2224 01-12-2013 20:55:00 5.4 C 6.63 g/m*3 5.4 C 0 km/h
2225 01-12-2013 21:00:00 5.4 C 6.7 g/m*3 5.4 C 0 km/h
Sensor: Nr:Datum:Temp:Abs-Feuchte:Windchill:Wind:
Aussen-T/F 2226 01-12-2013 21:05:00 5.4 C 6.63 g/m*3 5.4 C 0 km/h
2227 01-12-2013 21:10:00 5.4 C 6.63 g/m*3 5.4 C 0 km/h
2228 01-12-2013 21:15:00 5.4 C 6.63 g/m*3 5.4 C 0 km/h
2229 01-12-2013 21:20:00 5.3 C 6.58 g/m*3 5.3 C 0 km/h
2230 01-12-2013 21:25:00 5.4 C 6.63 g/m*3 5.4 C 1.6 km/h
2231 01-12-2013 21:30:00 5.4 C 6.7 g/m*3 5.4 C 0 km/h
2232 01-12-2013 21:35:00 5.4 C 6.7 g/m*3 5.4 C 0 km/h
2233 01-12-2013 21:40:00 5.4 C 6.7 g/m*3 5.4 C 0 km/h
2234 01-12-2013 21:45:00 5.5 C 6.74 g/m*3 5.5 C 0 km/h
2235 01-12-2013 21:50:00 5.5 C 6.74 g/m*3 5.5 C 0 km/h
2236 01-12-2013 21:55:00 5.5 C 6.74 g/m*3 5.5 C 0 km/h
2237 01-12-2013 22:00:00 5.5 C 6.74 g/m*3 5.5 C 0 km/h
2238 01-12-2013 22:05:00 5.5 C 6.74 g/m*3 5.5 C 0 km/h
2239 01-12-2013 22:10:00 5.6 C 6.79 g/m*3 5.6 C 3.2 km/h
2240 01-12-2013 22:15:00 5.5 C 6.74 g/m*3 5.5 C 1.6 km/h
2241 01-12-2013 22:20:00 5.5 C 6.74 g/m*3 5.5 C 0 km/h
2242 01-12-2013 22:25:00 5.5 C 6.74 g/m*3 5.5 C 0 km/h
2243 01-12-2013 22:30:00 5.4 C 6.7 g/m*3 5.4 C 3.2 km/h
2244 01-12-2013 22:35:00 5.4 C 6.7 g/m*3 5.4 C 1.6 km/h
2245 01-12-2013 22:40:00 5.4 C 6.7 g/m*3 5.4 C 0 km/h
2246 01-12-2013 22:45:00 5.5 C 6.74 g/m*3 5.5 C 0 km/h
2247 01-12-2013 22:50:00 5.6 C 6.79 g/m*3 5.6 C 0 km/h
2248 01-12-2013 22:55:00 5.6 C 6.79 g/m*3 5.6 C 0 km/h
2249 01-12-2013 23:00:00 5.7 C 6.9 g/m*3 5.7 C 1.6 km/h
2250 01-12-2013 23:05:00 5.7 C 6.9 g/m*3 5.7 C 0 km/h
Sensor: Nr:Datum:Temp:Abs-Feuchte:Windchill:Wind:
Aussen-T/F 2251 01-12-2013 23:10:00 5.7 C 6.83 g/m*3 5.7 C 0 km/h
2252 01-12-2013 23:15:00 5.6 C 6.79 g/m*3 5.6 C 0 km/h
2253 01-12-2013 23:20:00 5.7 C 6.83 g/m*3 5.7 C 0 km/h
2254 01-12-2013 23:25:00 5.7 C 6.9 g/m*3 5.7 C 0 km/h
2255 01-12-2013 23:30:00 5.7 C 6.83 g/m*3 5.7 C 0 km/h
2256 01-12-2013 23:35:00 5.7 C 6.83 g/m*3 5.7 C 0 km/h
2257 01-12-2013 23:40:00 5.7 C 6.9 g/m*3 5.7 C 0 km/h
2258 01-12-2013 23:45:00 5.8 C 6.95 g/m*3 5.8 C 0 km/h
2259 01-12-2013 23:50:00 5.8 C 6.95 g/m*3 5.8 C 1.6 km/h
2260 01-12-2013 23:55:00 5.8 C 6.95 g/m*3 5.8 C 0 km/h
2261 02-12-2013 00:00:00 5.7 C 6.83 g/m*3 5.7 C 0 km/h
2262 02-12-2013 00:05:00 5.7 C 6.83 g/m*3 5.7 C 0 km/h
2263 02-12-2013 00:10:00 5.7 C 6.9 g/m*3 5.7 C 0 km/h
2264 02-12-2013 00:15:00 5.7 C 6.9 g/m*3 5.7 C 0 km/h
2265 02-12-2013 00:20:00 5.8 C 6.95 g/m*3 5.8 C 0 km/h
2266 02-12-2013 00:25:00 5.8 C 6.95 g/m*3 5.8 C 0 km/h
2267 02-12-2013 00:30:00 5.7 C 6.9 g/m*3 5.7 C 0 km/h
2268 02-12-2013 00:35:00 5.7 C 6.9 g/m*3 5.7 C 0 km/h
2269 02-12-2013 00:40:00 5.7 C 6.9 g/m*3 5.7 C 0 km/h
2270 02-12-2013 00:45:00 5.7 C 6.9 g/m*3 5.7 C 0 km/h
2271 02-12-2013 00:50:00 5.7 C 6.9 g/m*3 5.7 C 0 km/h
2272 02-12-2013 00:55:00 5.7 C 6.9 g/m*3 5.7 C 0 km/h
2273 02-12-2013 01:00:00 5.8 C 6.95 g/m*3 5.8 C 0 km/h
2274 02-12-2013 01:05:00 5.7 C 6.9 g/m*3 5.7 C 0 km/h
2275 02-12-2013 01:10:00 5.8 C 6.95 g/m*3 5.8 C 0 km/h
Sensor: Nr:Datum:Temp:Abs-Feuchte:Windchill:Wind:
Aussen-T/F 2276 02-12-2013 01:15:00 5.7 C 6.9 g/m*3 5.7 C 0 km/h
2277 02-12-2013 01:20:00 5.7 C 6.9 g/m*3 5.7 C 0 km/h
2278 02-12-2013 01:25:00 5.7 C 6.9 g/m*3 5.7 C 0 km/h
2279 02-12-2013 01:30:00 5.7 C 6.9 g/m*3 5.7 C 0 km/h
2280 02-12-2013 01:35:00 5.7 C 6.9 g/m*3 5.7 C 3.2 km/h
2281 02-12-2013 01:40:00 5.6 C 6.86 g/m*3 5.6 C 0 km/h
2282 02-12-2013 01:45:00 5.6 C 6.86 g/m*3 5.6 C 0 km/h
2283 02-12-2013 01:50:00 5.6 C 6.86 g/m*3 5.6 C 0 km/h
2284 02-12-2013 01:55:00 5.7 C 6.9 g/m*3 5.7 C 0 km/h
2285 02-12-2013 02:00:00 5.7 C 6.9 g/m*3 5.7 C 0 km/h
2286 02-12-2013 02:05:00 5.8 C 6.95 g/m*3 5.8 C 0 km/h
2287 02-12-2013 02:10:00 5.8 C 6.95 g/m*3 5.8 C 3.2 km/h
2288 02-12-2013 02:15:00 5.8 C 6.95 g/m*3 5.8 C 3.2 km/h
2289 02-12-2013 02:20:00 5.8 C 6.95 g/m*3 5.8 C 0 km/h
2290 02-12-2013 02:25:00 5.7 C 6.9 g/m*3 5.7 C 0 km/h
2291 02-12-2013 02:30:00 5.8 C 6.95 g/m*3 5.8 C 0 km/h
2292 02-12-2013 02:35:00 5.8 C 6.95 g/m*3 5.8 C 0 km/h
2293 02-12-2013 02:40:00 5.8 C 6.95 g/m*3 5.8 C 1.6 km/h
2294 02-12-2013 02:45:00 5.7 C 6.9 g/m*3 5.7 C 0 km/h
2295 02-12-2013 02:50:00 5.7 C 6.9 g/m*3 5.7 C 0 km/h
2296 02-12-2013 02:55:00 5.8 C 6.95 g/m*3 5.8 C 0 km/h
2297 02-12-2013 03:00:00 5.8 C 6.95 g/m*3 5.8 C 0 km/h
2298 02-12-2013 03:05:00 5.8 C 6.95 g/m*3 5.8 C 0 km/h
2299 02-12-2013 03:10:00 5.9 C 6.99 g/m*3 5.9 C 1.6 km/h
2300 02-12-2013 03:15:00 5.9 C 6.99 g/m*3 5.9 C 0 km/h
Sensor: Nr:Datum:Temp:Abs-Feuchte:Windchill:Wind:
Aussen-T/F 2301 02-12-2013 03:20:00 5.9 C 6.99 g/m*3 5.9 C 0 km/h
2302 02-12-2013 03:25:00 5.9 C 6.99 g/m*3 5.9 C 0 km/h
2303 02-12-2013 03:30:00 5.9 C 6.99 g/m*3 5.9 C 0 km/h
2304 02-12-2013 03:35:00 5.9 C 6.99 g/m*3 5.9 C 0 km/h
2305 02-12-2013 03:40:00 5.9 C 6.99 g/m*3 5.9 C 0 km/h
2306 02-12-2013 03:45:00 5.9 C 6.99 g/m*3 5.9 C 0 km/h
2307 02-12-2013 03:50:00 5.9 C 6.99 g/m*3 5.9 C 0 km/h
2308 02-12-2013 03:55:00 5.9 C 6.99 g/m*3 5.9 C 0 km/h
2309 02-12-2013 04:00:00 5.9 C 6.99 g/m*3 5.9 C 0 km/h
2310 02-12-2013 04:05:00 5.8 C 6.95 g/m*3 5.8 C 0 km/h
2311 02-12-2013 04:10:00 5.8 C 6.95 g/m*3 5.8 C 0 km/h
2312 02-12-2013 04:15:00 5.8 C 6.95 g/m*3 5.8 C 0 km/h
2313 02-12-2013 04:20:00 5.8 C 6.95 g/m*3 5.8 C 0 km/h
2314 02-12-2013 04:25:00 5.8 C 6.95 g/m*3 5.8 C 0 km/h
2315 02-12-2013 04:30:00 5.8 C 6.95 g/m*3 5.8 C 0 km/h
2316 02-12-2013 04:35:00 5.7 C 6.9 g/m*3 5.7 C 0 km/h
2317 02-12-2013 04:40:00 5.7 C 6.9 g/m*3 5.7 C 0 km/h
2318 02-12-2013 04:45:00 5.7 C 6.9 g/m*3 5.7 C 0 km/h
2319 02-12-2013 04:50:00 5.7 C 6.9 g/m*3 5.7 C 0 km/h
2320 02-12-2013 04:55:00 5.7 C 6.9 g/m*3 5.7 C 0 km/h
2321 02-12-2013 05:00:00 5.7 C 6.9 g/m*3 5.7 C 0 km/h
2322 02-12-2013 05:05:00 5.7 C 6.9 g/m*3 5.7 C 0 km/h
2323 02-12-2013 05:10:00 5.7 C 6.9 g/m*3 5.7 C 0 km/h
2324 02-12-2013 05:15:00 5.7 C 6.9 g/m*3 5.7 C 0 km/h
2325 02-12-2013 05:20:00 5.7 C 6.9 g/m*3 5.7 C 0 km/h
Sensor: Nr:Datum:Temp:Abs-Feuchte:Windchill:Wind:
Aussen-T/F 2326 02-12-2013 05:25:00 5.7 C 6.9 g/m*3 5.7 C 0 km/h
2327 02-12-2013 05:30:00 5.7 C 6.9 g/m*3 5.7 C 0 km/h
2328 02-12-2013 05:35:00 5.7 C 6.9 g/m*3 5.7 C 0 km/h
2329 02-12-2013 05:40:00 5.6 C 6.86 g/m*3 5.6 C 0 km/h
2330 02-12-2013 05:45:00 5.6 C 6.86 g/m*3 5.6 C 0 km/h
2331 02-12-2013 05:50:00 5.6 C 6.86 g/m*3 5.6 C 0 km/h
2332 02-12-2013 05:55:00 5.6 C 6.86 g/m*3 5.6 C 0 km/h
2333 02-12-2013 06:00:00 5.6 C 6.86 g/m*3 5.6 C 0 km/h
2334 02-12-2013 06:05:00 5.6 C 6.86 g/m*3 5.6 C 0 km/h
2335 02-12-2013 06:10:00 5.6 C 6.86 g/m*3 5.6 C 0 km/h
2336 02-12-2013 06:15:00 5.6 C 6.86 g/m*3 5.6 C 0 km/h
2337 02-12-2013 06:20:00 5.6 C 6.86 g/m*3 5.6 C 0 km/h
2338 02-12-2013 06:25:00 5.6 C 6.86 g/m*3 5.6 C 0 km/h
2339 02-12-2013 06:30:00 5.6 C 6.86 g/m*3 5.6 C 0 km/h
2340 02-12-2013 06:35:00 5.6 C 6.86 g/m*3 5.6 C 0 km/h
2341 02-12-2013 06:40:00 5.6 C 6.86 g/m*3 5.6 C 0 km/h
2342 02-12-2013 06:45:00 5.6 C 6.86 g/m*3 5.6 C 0 km/h
2343 02-12-2013 06:50:00 5.5 C 6.81 g/m*3 5.5 C 0 km/h
2344 02-12-2013 06:55:00 5.5 C 6.81 g/m*3 5.5 C 0 km/h
2345 02-12-2013 07:00:00 5.5 C 6.81 g/m*3 5.5 C 0 km/h
2346 02-12-2013 07:05:00 5.4 C 6.77 g/m*3 5.4 C 0 km/h
2347 02-12-2013 07:10:00 5.4 C 6.77 g/m*3 5.4 C 0 km/h
2348 02-12-2013 07:15:00 5.4 C 6.77 g/m*3 5.4 C 0 km/h
2349 02-12-2013 07:20:00 5.4 C 6.77 g/m*3 5.4 C 0 km/h
2350 02-12-2013 07:25:00 5.4 C 6.77 g/m*3 5.4 C 0 km/h
Sensor: Nr:Datum:Temp:Abs-Feuchte:Windchill:Wind:
Aussen-T/F 2351 02-12-2013 07:30:00 5.4 C 6.77 g/m*3 5.4 C 0 km/h
2352 02-12-2013 07:35:00 5.4 C 6.77 g/m*3 5.4 C 0 km/h
2353 02-12-2013 07:40:00 5.4 C 6.77 g/m*3 5.4 C 0 km/h
2354 02-12-2013 07:45:00 5.3 C 6.72 g/m*3 5.3 C 0 km/h
2355 02-12-2013 07:50:00 5.3 C 6.72 g/m*3 5.3 C 0 km/h
2356 02-12-2013 07:55:00 5.3 C 6.72 g/m*3 5.3 C 0 km/h
2357 02-12-2013 08:00:00 5.3 C 6.72 g/m*3 5.3 C 0 km/h
2358 02-12-2013 08:05:00 5.3 C 6.72 g/m*3 5.3 C 0 km/h
2359 02-12-2013 08:10:00 5.3 C 6.72 g/m*3 5.3 C 0 km/h
2360 02-12-2013 08:15:00 5.3 C 6.72 g/m*3 5.3 C 0 km/h
2361 02-12-2013 08:20:00 5.3 C 6.65 g/m*3 5.3 C 0 km/h
2362 02-12-2013 08:25:00 5.3 C 6.65 g/m*3 5.3 C 0 km/h
2363 02-12-2013 08:30:00 5.3 C 6.65 g/m*3 5.3 C 0 km/h
2364 02-12-2013 08:35:00 5.3 C 6.65 g/m*3 5.3 C 0 km/h
2365 02-12-2013 08:40:00 5.4 C 6.7 g/m*3 5.4 C 0 km/h
2366 02-12-2013 08:45:00 5.4 C 6.7 g/m*3 5.4 C 0 km/h
2367 02-12-2013 08:50:00 5.5 C 6.74 g/m*3 5.5 C 0 km/h
2368 02-12-2013 08:55:00 5.6 C 6.79 g/m*3 5.6 C 0 km/h
2369 02-12-2013 09:00:00 5.6 C 6.79 g/m*3 5.6 C 0 km/h
2370 02-12-2013 09:05:00 5.7 C 6.76 g/m*3 5.7 C 0 km/h
2371 02-12-2013 09:10:00 5.7 C 6.76 g/m*3 5.7 C 0 km/h
2372 02-12-2013 09:15:00 5.7 C 6.76 g/m*3 5.7 C 0 km/h
2373 02-12-2013 09:20:00 5.8 C 6.81 g/m*3 5.8 C 0 km/h
2374 02-12-2013 09:25:00 5.9 C 6.85 g/m*3 5.9 C 0 km/h
2375 02-12-2013 09:30:00 5.9 C 6.85 g/m*3 5.9 C 0 km/h
Sensor: Nr:Datum:Temp:Abs-Feuchte:Windchill:Wind:
Aussen-T/F 2376 02-12-2013 09:35:00 6.1 C 6.94 g/m*3 6.1 C 0 km/h
2377 02-12-2013 09:40:00 6.1 C 6.94 g/m*3 6.1 C 0 km/h
2378 02-12-2013 09:45:00 6.2 C 6.99 g/m*3 6.2 C 0 km/h
2379 02-12-2013 09:50:00 6.3 C 7.03 g/m*3 6.3 C 0 km/h
2380 02-12-2013 09:55:00 6.3 C 6.96 g/m*3 6.3 C 0 km/h
2381 02-12-2013 10:00:00 6.3 C 6.96 g/m*3 6.3 C 0 km/h
2382 02-12-2013 10:05:00 6.4 C 6.93 g/m*3 6.4 C 3.2 km/h
2383 02-12-2013 10:10:00 6.4 C 6.78 g/m*3 6.4 C 1.6 km/h
2384 02-12-2013 10:15:00 6.6 C 6.72 g/m*3 6.6 C 1.6 km/h
2385 02-12-2013 10:20:00 6.7 C 6.69 g/m*3 5.56 C 6.4 km/h
2386 02-12-2013 10:25:00 6.8 C 6.58 g/m*3 5.67 C 6.4 km/h
2387 02-12-2013 10:30:00 6.9 C 6.7 g/m*3 6.9 C 3.2 km/h
2388 02-12-2013 10:35:00 6.9 C 6.54 g/m*3 5.34 C 8.1 km/h
2389 02-12-2013 10:40:00 6.8 C 6.42 g/m*3 6.8 C 3.2 km/h
2390 02-12-2013 10:45:00 6.7 C 6.53 g/m*3 6.7 C 0 km/h
2391 02-12-2013 10:50:00 6.6 C 6.57 g/m*3 6.6 C 0 km/h
2392 02-12-2013 10:55:00 6.3 C 6.51 g/m*3 6.3 C 0 km/h
2393 02-12-2013 11:00:00 6.2 C 6.47 g/m*3 6.2 C 0 km/h
2394 02-12-2013 11:05:00 6 C 6.39 g/m*3 6 C 3.2 km/h
2395 02-12-2013 11:10:00 5.9 C 6.42 g/m*3 5.9 C 0 km/h
2396 02-12-2013 11:15:00 5.8 C 6.38 g/m*3 5.8 C 3.2 km/h
2397 02-12-2013 11:20:00 5.7 C 6.4 g/m*3 5.7 C 3.2 km/h
2398 02-12-2013 11:25:00 5.6 C 6.36 g/m*3 5.6 C 4.8 km/h
2399 02-12-2013 11:30:00 5.5 C 6.39 g/m*3 5.5 C 3.2 km/h
2400 02-12-2013 11:35:00 5.4 C 6.28 g/m*3 5.4 C 3.2 km/h
Sensor: Nr:Datum:Temp:Abs-Feuchte:Windchill:Wind:
Aussen-T/F 2401 02-12-2013 11:40:00 5.4 C 6.35 g/m*3 5.4 C 3.2 km/h
2402 02-12-2013 11:45:00 5.5 C 6.32 g/m*3 5.5 C 3.2 km/h
2403 02-12-2013 11:50:00 5.6 C 6.36 g/m*3 5.6 C 3.2 km/h
2404 02-12-2013 11:55:00 5.6 C 6.36 g/m*3 5.6 C 3.2 km/h
2405 02-12-2013 12:00:00 5.7 C 6.26 g/m*3 5.7 C 3.2 km/h
2406 02-12-2013 12:05:00 5.8 C 6.3 g/m*3 5.8 C 4.8 km/h
2407 02-12-2013 12:10:00 6 C 6.39 g/m*3 6 C 1.6 km/h
2408 02-12-2013 12:15:00 6 C 6.39 g/m*3 6 C 4.8 km/h
2409 02-12-2013 12:20:00 6.2 C 6.18 g/m*3 4.98 C 6.4 km/h
2410 02-12-2013 12:25:00 6.4 C 6.26 g/m*3 5.21 C 6.4 km/h
2411 02-12-2013 12:30:00 6.7 C 6.38 g/m*3 6.7 C 1.6 km/h
2412 02-12-2013 12:35:00 6.8 C 6.27 g/m*3 6.8 C 4.8 km/h
2413 02-12-2013 12:40:00 6.9 C 6.24 g/m*3 6.9 C 4.8 km/h
2414 02-12-2013 12:45:00 7 C 6.59 g/m*3 7 C 0 km/h
2415 02-12-2013 12:50:00 6.9 C 6.62 g/m*3 6.9 C 1.6 km/h
2416 02-12-2013 12:55:00 6.8 C 6.58 g/m*3 6.8 C 0 km/h
2417 02-12-2013 13:00:00 6.7 C 6.46 g/m*3 6.7 C 4.8 km/h
2418 02-12-2013 13:05:00 6.7 C 6.46 g/m*3 6.7 C 1.6 km/h
2419 02-12-2013 13:10:00 6.7 C 6.53 g/m*3 6.7 C 3.2 km/h
2420 02-12-2013 13:15:00 6.8 C 6.27 g/m*3 4.87 C 9.7 km/h
2421 02-12-2013 13:20:00 6.9 C 6.31 g/m*3 4.99 C 9.7 km/h
2422 02-12-2013 13:25:00 6.9 C 6.39 g/m*3 6.9 C 4.8 km/h
2423 02-12-2013 13:30:00 6.9 C 6.31 g/m*3 4.99 C 9.7 km/h
2424 02-12-2013 13:35:00 6.8 C 6.42 g/m*3 6.8 C 3.2 km/h
2425 02-12-2013 13:40:00 6.7 C 6.46 g/m*3 6.7 C 3.2 km/h
Sensor: Nr:Datum:Temp:Abs-Feuchte:Windchill:Wind:
Aussen-T/F 2426 02-12-2013 13:45:00 6.6 C 6.49 g/m*3 6.6 C 1.6 km/h
2427 02-12-2013 13:50:00 6.6 C 6.42 g/m*3 5.44 C 6.4 km/h
2428 02-12-2013 13:55:00 6.6 C 6.49 g/m*3 5.44 C 6.4 km/h
2429 02-12-2013 14:00:00 6.6 C 6.49 g/m*3 6.6 C 1.6 km/h
2430 02-12-2013 14:05:00 6.6 C 6.49 g/m*3 6.6 C 3.2 km/h
2431 02-12-2013 14:10:00 6.5 C 6.45 g/m*3 6.5 C 3.2 km/h
2432 02-12-2013 14:15:00 6.4 C 6.48 g/m*3 6.4 C 3.2 km/h
2433 02-12-2013 14:20:00 6.3 C 6.37 g/m*3 6.3 C 1.6 km/h
2434 02-12-2013 14:25:00 6.3 C 6.29 g/m*3 6.3 C 4.8 km/h
2435 02-12-2013 14:30:00 6.3 C 6.37 g/m*3 6.3 C 3.2 km/h
2436 02-12-2013 14:35:00 6.4 C 6.26 g/m*3 6.4 C 3.2 km/h
2437 02-12-2013 14:40:00 6.5 C 6.3 g/m*3 6.5 C 1.6 km/h
2438 02-12-2013 14:45:00 6.6 C 6.27 g/m*3 6.6 C 1.6 km/h
2439 02-12-2013 14:50:00 6.6 C 6.42 g/m*3 6.6 C 0 km/h
2440 02-12-2013 14:55:00 6.3 C 6.37 g/m*3 6.3 C 4.8 km/h
2441 02-12-2013 15:00:00 6.2 C 6.32 g/m*3 6.2 C 3.2 km/h
2442 02-12-2013 15:05:00 6.1 C 6.28 g/m*3 6.1 C 3.2 km/h
2443 02-12-2013 15:10:00 6 C 6.31 g/m*3 6 C 3.2 km/h
2444 02-12-2013 15:15:00 5.9 C 6.35 g/m*3 5.9 C 3.2 km/h
2445 02-12-2013 15:20:00 5.8 C 6.23 g/m*3 5.8 C 3.2 km/h
2446 02-12-2013 15:25:00 5.9 C 6.2 g/m*3 5.9 C 4.8 km/h
2447 02-12-2013 15:30:00 6 C 6.31 g/m*3 6 C 3.2 km/h
2448 02-12-2013 15:35:00 6 C 6.24 g/m*3 6 C 3.2 km/h
2449 02-12-2013 15:40:00 5.9 C 6.27 g/m*3 5.9 C 3.2 km/h
2450 02-12-2013 15:45:00 5.8 C 6.3 g/m*3 5.8 C 3.2 km/h
Sensor: Nr:Datum:Temp:Abs-Feuchte:Windchill:Wind:
Aussen-T/F 2451 02-12-2013 15:50:00 5.7 C 6.26 g/m*3 5.7 C 1.6 km/h
2452 02-12-2013 15:55:00 5.6 C 6.22 g/m*3 5.6 C 3.2 km/h
2453 02-12-2013 16:00:00 5.5 C 6.18 g/m*3 5.5 C 3.2 km/h
2454 02-12-2013 16:05:00 5.4 C 6.21 g/m*3 5.4 C 4.8 km/h
2455 02-12-2013 16:10:00 5.3 C 6.17 g/m*3 5.3 C 3.2 km/h
2456 02-12-2013 16:15:00 5.3 C 6.17 g/m*3 5.3 C 3.2 km/h
2457 02-12-2013 16:20:00 5.2 C 6.13 g/m*3 5.2 C 1.6 km/h
2458 02-12-2013 16:25:00 5.1 C 6.16 g/m*3 5.1 C 0 km/h
2459 02-12-2013 16:30:00 4.8 C 6.04 g/m*3 4.8 C 1.6 km/h
2460 02-12-2013 16:35:00 4.8 C 6.04 g/m*3 4.8 C 4.8 km/h
2461 02-12-2013 16:40:00 4.6 C 5.96 g/m*3 4.6 C 3.2 km/h
2462 02-12-2013 16:45:00 4.6 C 5.96 g/m*3 4.6 C 3.2 km/h
2463 02-12-2013 16:50:00 4.6 C 5.96 g/m*3 4.6 C 3.2 km/h
2464 02-12-2013 16:55:00 4.6 C 5.96 g/m*3 4.6 C 3.2 km/h
2465 02-12-2013 17:00:00 4.4 C 5.88 g/m*3 4.4 C 3.2 km/h
2466 02-12-2013 17:05:00 4.4 C 5.88 g/m*3 4.4 C 3.2 km/h
2467 02-12-2013 17:10:00 4.3 C 5.84 g/m*3 4.3 C 4.8 km/h
2468 02-12-2013 17:15:00 4.2 C 5.8 g/m*3 4.2 C 3.2 km/h
2469 02-12-2013 17:20:00 4.2 C 5.8 g/m*3 4.2 C 3.2 km/h
2470 02-12-2013 17:25:00 4.1 C 5.82 g/m*3 4.1 C 3.2 km/h
2471 02-12-2013 17:30:00 4.1 C 5.82 g/m*3 4.1 C 4.8 km/h
2472 02-12-2013 17:35:00 4 C 5.79 g/m*3 4 C 4.8 km/h
2473 02-12-2013 17:40:00 3.9 C 5.75 g/m*3 3.9 C 3.2 km/h
2474 02-12-2013 17:45:00 3.9 C 5.75 g/m*3 3.9 C 4.8 km/h
2475 02-12-2013 17:50:00 3.8 C 5.71 g/m*3 3.8 C 4.8 km/h
Sensor: Nr:Datum:Temp:Abs-Feuchte:Windchill:Wind:
Aussen-T/F 2476 02-12-2013 17:55:00 3.7 C 5.67 g/m*3 3.7 C 4.8 km/h
2477 02-12-2013 18:00:00 3.7 C 5.67 g/m*3 3.7 C 4.8 km/h
2478 02-12-2013 18:05:00 3.7 C 5.67 g/m*3 3.7 C 3.2 km/h
2479 02-12-2013 18:10:00 3.6 C 5.63 g/m*3 3.6 C 3.2 km/h
2480 02-12-2013 18:15:00 3.5 C 5.66 g/m*3 3.5 C 3.2 km/h
2481 02-12-2013 18:20:00 3.5 C 5.66 g/m*3 3.5 C 3.2 km/h
2482 02-12-2013 18:25:00 3.4 C 5.62 g/m*3 3.4 C 4.8 km/h
2483 02-12-2013 18:30:00 3.3 C 5.58 g/m*3 3.3 C 1.6 km/h
2484 02-12-2013 18:35:00 3.2 C 5.54 g/m*3 3.2 C 1.6 km/h
2485 02-12-2013 18:40:00 3.2 C 5.6 g/m*3 3.2 C 1.6 km/h
2486 02-12-2013 18:45:00 3.2 C 5.6 g/m*3 3.2 C 1.6 km/h
2487 02-12-2013 18:50:00 3.2 C 5.6 g/m*3 3.2 C 1.6 km/h
2488 02-12-2013 18:55:00 3.2 C 5.54 g/m*3 3.2 C 3.2 km/h
2489 02-12-2013 19:00:00 3.1 C 5.51 g/m*3 3.1 C 3.2 km/h
2490 02-12-2013 19:05:00 3.1 C 5.51 g/m*3 3.1 C 3.2 km/h
2491 02-12-2013 19:10:00 2.9 C 5.49 g/m*3 2.9 C 1.6 km/h
2492 02-12-2013 19:15:00 2.9 C 5.49 g/m*3 2.9 C 3.2 km/h
2493 02-12-2013 19:20:00 2.8 C 5.46 g/m*3 2.8 C 3.2 km/h
2494 02-12-2013 19:25:00 2.8 C 5.51 g/m*3 2.8 C 1.6 km/h
2495 02-12-2013 19:30:00 2.8 C 5.46 g/m*3 2.8 C 1.6 km/h
2496 02-12-2013 19:35:00 2.8 C 5.51 g/m*3 2.8 C 1.6 km/h
2497 02-12-2013 19:40:00 2.8 C 5.46 g/m*3 2.8 C 1.6 km/h
2498 02-12-2013 19:45:00 2.7 C 5.42 g/m*3 2.7 C 1.6 km/h
2499 02-12-2013 19:50:00 2.6 C 5.38 g/m*3 2.6 C 0 km/h
2500 02-12-2013 19:55:00 2.6 C 5.44 g/m*3 2.6 C 0 km/h
Sensor: Nr:Datum:Temp:Abs-Feuchte:Windchill:Wind:
Aussen-T/F 2501 02-12-2013 20:00:00 2.4 C 5.37 g/m*3 2.4 C 0 km/h
2502 02-12-2013 20:05:00 2.3 C 5.33 g/m*3 2.3 C 0 km/h
2503 02-12-2013 20:10:00 2.2 C 5.29 g/m*3 2.2 C 0 km/h
2504 02-12-2013 20:15:00 2.1 C 5.26 g/m*3 2.1 C 0 km/h
2505 02-12-2013 20:20:00 2 C 5.22 g/m*3 2 C 0 km/h
2506 02-12-2013 20:25:00 1.9 C 5.19 g/m*3 1.9 C 0 km/h
2507 02-12-2013 20:30:00 1.9 C 5.19 g/m*3 1.9 C 0 km/h
2508 02-12-2013 20:35:00 1.8 C 5.21 g/m*3 1.8 C 0 km/h
2509 02-12-2013 20:40:00 1.8 C 5.21 g/m*3 1.8 C 0 km/h
2510 02-12-2013 20:45:00 1.8 C 5.21 g/m*3 1.8 C 0 km/h
2511 02-12-2013 20:50:00 1.7 C 5.17 g/m*3 1.7 C 0 km/h
2512 02-12-2013 20:55:00 1.7 C 5.17 g/m*3 1.7 C 0 km/h
2513 02-12-2013 21:00:00 1.6 C 5.14 g/m*3 1.6 C 0 km/h
2514 02-12-2013 21:05:00 1.6 C 5.14 g/m*3 1.6 C 0 km/h
2515 02-12-2013 21:10:00 1.5 C 5.1 g/m*3 1.5 C 0 km/h
2516 02-12-2013 21:15:00 1.4 C 5.07 g/m*3 1.4 C 0 km/h
2517 02-12-2013 21:20:00 1.4 C 5.07 g/m*3 1.4 C 0 km/h
2518 02-12-2013 21:25:00 1.3 C 5.03 g/m*3 1.3 C 0 km/h
2519 02-12-2013 21:30:00 1.3 C 5.03 g/m*3 1.3 C 0 km/h
2520 02-12-2013 21:35:00 1.2 C 5 g/m*3 1.2 C 0 km/h
2521 02-12-2013 21:40:00 1.2 C 5 g/m*3 1.2 C 0 km/h
2522 02-12-2013 21:45:00 1.2 C 5 g/m*3 1.2 C 0 km/h
2523 02-12-2013 21:50:00 1.2 C 5 g/m*3 1.2 C 3.2 km/h
2524 02-12-2013 21:55:00 1.1 C 4.96 g/m*3 1.1 C 0 km/h
2525 02-12-2013 22:00:00 1 C 4.93 g/m*3 1 C 0 km/h
Sensor: Nr:Datum:Temp:Abs-Feuchte:Windchill:Wind:
Aussen-T/F 2526 02-12-2013 22:05:00 0.9 C 4.9 g/m*3 0.9 C 0 km/h
2527 02-12-2013 22:10:00 0.9 C 4.95 g/m*3 0.9 C 0 km/h
2528 02-12-2013 22:15:00 0.9 C 4.9 g/m*3 0.9 C 0 km/h
2529 02-12-2013 22:20:00 0.8 C 4.91 g/m*3 0.8 C 0 km/h
2530 02-12-2013 22:25:00 0.8 C 4.91 g/m*3 0.8 C 0 km/h
2531 02-12-2013 22:30:00 0.8 C 4.91 g/m*3 0.8 C 0 km/h
2532 02-12-2013 22:35:00 0.8 C 4.91 g/m*3 0.8 C 0 km/h
2533 02-12-2013 22:40:00 0.7 C 4.88 g/m*3 0.7 C 0 km/h
2534 02-12-2013 22:45:00 0.6 C 4.85 g/m*3 0.6 C 0 km/h
2535 02-12-2013 22:50:00 0.5 C 4.76 g/m*3 0.5 C 0 km/h
2536 02-12-2013 22:55:00 0.5 C 4.81 g/m*3 0.5 C 0 km/h
2537 02-12-2013 23:00:00 0.6 C 4.85 g/m*3 0.6 C 0 km/h
2538 02-12-2013 23:05:00 0.6 C 4.85 g/m*3 0.6 C 0 km/h
2539 02-12-2013 23:10:00 0.5 C 4.81 g/m*3 0.5 C 0 km/h
2540 02-12-2013 23:15:00 0.5 C 4.81 g/m*3 0.5 C 0 km/h
2541 02-12-2013 23:20:00 0.4 C 4.78 g/m*3 0.4 C 0 km/h
2542 02-12-2013 23:25:00 0.3 C 4.75 g/m*3 0.3 C 0 km/h
2543 02-12-2013 23:30:00 0.3 C 4.75 g/m*3 0.3 C 0 km/h
2544 02-12-2013 23:35:00 0.3 C 4.75 g/m*3 0.3 C 0 km/h
2545 02-12-2013 23:40:00 0.3 C 4.75 g/m*3 0.3 C 0 km/h
2546 02-12-2013 23:45:00 0.4 C 4.78 g/m*3 0.4 C 0 km/h
2547 02-12-2013 23:50:00 0.4 C 4.78 g/m*3 0.4 C 0 km/h
2548 02-12-2013 23:55:00 0.3 C 4.75 g/m*3 0.3 C 0 km/h
2549 03-12-2013 00:00:00 0.3 C 4.75 g/m*3 0.3 C 0 km/h
2550 03-12-2013 00:05:00 0.2 C 4.72 g/m*3 0.2 C 0 km/h
Sensor: Nr:Datum:Temp:Abs-Feuchte:Windchill:Wind:
Aussen-T/F 2551 03-12-2013 00:10:00 0.2 C 4.72 g/m*3 0.2 C 0 km/h
2552 03-12-2013 00:15:00 0.2 C 4.72 g/m*3 0.2 C 0 km/h
2553 03-12-2013 00:20:00 0.1 C 4.68 g/m*3 0.1 C 0 km/h
2554 03-12-2013 00:25:00 0 C 4.65 g/m*3 0 C 0 km/h
2555 03-12-2013 00:30:00 -0.1 C 4.62 g/m*3 -0.1 C 0 km/h
2556 03-12-2013 00:35:00 -0.1 C 4.62 g/m*3 -0.1 C 0 km/h
2557 03-12-2013 00:40:00 0 C 4.65 g/m*3 0 C 1.6 km/h
2558 03-12-2013 00:45:00 0 C 4.65 g/m*3 0 C 0 km/h
2559 03-12-2013 00:50:00 0 C 4.65 g/m*3 0 C 0 km/h
2560 03-12-2013 00:55:00 -0.1 C 4.62 g/m*3 -0.1 C 0 km/h
2561 03-12-2013 01:00:00 -0.1 C 4.62 g/m*3 -0.1 C 0 km/h
2562 03-12-2013 01:05:00 -0.1 C 4.62 g/m*3 -0.1 C 0 km/h
2563 03-12-2013 01:10:00 -0.2 C 4.59 g/m*3 -0.2 C 0 km/h
2564 03-12-2013 01:15:00 -0.2 C 4.59 g/m*3 -0.2 C 0 km/h
2565 03-12-2013 01:20:00 -0.2 C 4.59 g/m*3 -0.2 C 0 km/h
2566 03-12-2013 01:25:00 -0.2 C 4.59 g/m*3 -0.2 C 0 km/h
2567 03-12-2013 01:30:00 -0.2 C 4.59 g/m*3 -0.2 C 0 km/h
2568 03-12-2013 01:35:00 -0.2 C 4.59 g/m*3 -0.2 C 0 km/h
2569 03-12-2013 01:40:00 -0.2 C 4.59 g/m*3 -0.2 C 0 km/h
2570 03-12-2013 01:45:00 -0.2 C 4.64 g/m*3 -0.2 C 0 km/h
2571 03-12-2013 01:50:00 -0.2 C 4.64 g/m*3 -0.2 C 0 km/h
2572 03-12-2013 01:55:00 -0.3 C 4.6 g/m*3 -0.3 C 0 km/h
2573 03-12-2013 02:00:00 -0.3 C 4.6 g/m*3 -0.3 C 0 km/h
2574 03-12-2013 02:05:00 -0.3 C 4.6 g/m*3 -0.3 C 0 km/h
2575 03-12-2013 02:10:00 -0.3 C 4.6 g/m*3 -0.3 C 0 km/h
Sensor: Nr:Datum:Temp:Abs-Feuchte:Windchill:Wind:
Aussen-T/F 2576 03-12-2013 02:15:00 -0.3 C 4.6 g/m*3 -0.3 C 0 km/h
2577 03-12-2013 02:20:00 -0.3 C 4.6 g/m*3 -0.3 C 0 km/h
2578 03-12-2013 02:25:00 -0.3 C 4.6 g/m*3 -0.3 C 0 km/h
2579 03-12-2013 02:30:00 -0.3 C 4.6 g/m*3 -0.3 C 0 km/h
2580 03-12-2013 02:35:00 -0.3 C 4.6 g/m*3 -0.3 C 0 km/h
2581 03-12-2013 02:40:00 -0.3 C 4.6 g/m*3 -0.3 C 0 km/h
2582 03-12-2013 02:45:00 -0.3 C 4.6 g/m*3 -0.3 C 0 km/h
2583 03-12-2013 02:50:00 -0.3 C 4.6 g/m*3 -0.3 C 0 km/h
2584 03-12-2013 02:55:00 -0.3 C 4.6 g/m*3 -0.3 C 0 km/h
2585 03-12-2013 03:00:00 -0.3 C 4.6 g/m*3 -0.3 C 0 km/h
2586 03-12-2013 03:05:00 -0.3 C 4.6 g/m*3 -0.3 C 0 km/h
2587 03-12-2013 03:10:00 -0.3 C 4.6 g/m*3 -0.3 C 0 km/h
2588 03-12-2013 03:15:00 -0.4 C 4.57 g/m*3 -0.4 C 0 km/h
2589 03-12-2013 03:20:00 -0.4 C 4.57 g/m*3 -0.4 C 0 km/h
2590 03-12-2013 03:25:00 -0.5 C 4.54 g/m*3 -0.5 C 0 km/h
2591 03-12-2013 03:30:00 -0.6 C 4.51 g/m*3 -0.6 C 0 km/h
2592 03-12-2013 03:35:00 -0.6 C 4.51 g/m*3 -0.6 C 0 km/h
2593 03-12-2013 03:40:00 -0.6 C 4.51 g/m*3 -0.6 C 0 km/h
2594 03-12-2013 03:45:00 -0.7 C 4.48 g/m*3 -0.7 C 0 km/h
2595 03-12-2013 03:50:00 -0.7 C 4.48 g/m*3 -0.7 C 1.6 km/h
2596 03-12-2013 03:55:00 -0.8 C 4.45 g/m*3 -0.8 C 0 km/h
2597 03-12-2013 04:00:00 -0.8 C 4.45 g/m*3 -0.8 C 0 km/h
2598 03-12-2013 04:05:00 -0.9 C 4.42 g/m*3 -0.9 C 0 km/h
2599 03-12-2013 04:10:00 -0.9 C 4.42 g/m*3 -0.9 C 0 km/h
2600 03-12-2013 04:15:00 -1 C 4.38 g/m*3 -1 C 0 km/h
Sensor: Nr:Datum:Temp:Abs-Feuchte:Windchill:Wind:
Aussen-T/F 2601 03-12-2013 04:20:00 -1.1 C 4.35 g/m*3 -1.1 C 0 km/h
2602 03-12-2013 04:25:00 -1.2 C 4.32 g/m*3 -1.2 C 0 km/h
2603 03-12-2013 04:30:00 -1.2 C 4.32 g/m*3 -1.2 C 0 km/h
2604 03-12-2013 04:35:00 -1.2 C 4.32 g/m*3 -1.2 C 0 km/h
2605 03-12-2013 04:40:00 -1.2 C 4.32 g/m*3 -1.2 C 0 km/h
2606 03-12-2013 04:45:00 -1.3 C 4.29 g/m*3 -1.3 C 0 km/h
2607 03-12-2013 04:50:00 -1.3 C 4.29 g/m*3 -1.3 C 0 km/h
2608 03-12-2013 04:55:00 -1.3 C 4.29 g/m*3 -1.3 C 0 km/h
2609 03-12-2013 05:00:00 -1.3 C 4.29 g/m*3 -1.3 C 0 km/h
2610 03-12-2013 05:05:00 -1.4 C 4.26 g/m*3 -1.4 C 0 km/h
2611 03-12-2013 05:10:00 -1.4 C 4.26 g/m*3 -1.4 C 0 km/h
2612 03-12-2013 05:15:00 -1.4 C 4.26 g/m*3 -1.4 C 0 km/h
2613 03-12-2013 05:20:00 -1.4 C 4.26 g/m*3 -1.4 C 0 km/h
2614 03-12-2013 05:25:00 -1.5 C 4.23 g/m*3 -1.5 C 0 km/h
2615 03-12-2013 05:30:00 -1.5 C 4.23 g/m*3 -1.5 C 0 km/h
2616 03-12-2013 05:35:00 -1.6 C 4.21 g/m*3 -1.6 C 0 km/h
2617 03-12-2013 05:40:00 -1.6 C 4.21 g/m*3 -1.6 C 0 km/h
2618 03-12-2013 05:45:00 -1.6 C 4.21 g/m*3 -1.6 C 0 km/h
2619 03-12-2013 05:50:00 -1.6 C 4.21 g/m*3 -1.6 C 0 km/h
2620 03-12-2013 05:55:00 -1.7 C 4.18 g/m*3 -1.7 C 0 km/h
2621 03-12-2013 06:00:00 -1.7 C 4.18 g/m*3 -1.7 C 0 km/h
2622 03-12-2013 06:05:00 -1.7 C 4.18 g/m*3 -1.7 C 0 km/h
2623 03-12-2013 06:10:00 -1.7 C 4.18 g/m*3 -1.7 C 0 km/h
2624 03-12-2013 06:15:00 -1.7 C 4.18 g/m*3 -1.7 C 0 km/h
2625 03-12-2013 06:20:00 -1.7 C 4.18 g/m*3 -1.7 C 0 km/h
Sensor: Nr:Datum:Temp:Abs-Feuchte:Windchill:Wind:
Aussen-T/F 2626 03-12-2013 06:25:00 -1.7 C 4.18 g/m*3 -1.7 C 0 km/h
2627 03-12-2013 06:30:00 -1.7 C 4.18 g/m*3 -1.7 C 0 km/h
2628 03-12-2013 06:35:00 -1.7 C 4.18 g/m*3 -1.7 C 0 km/h
2629 03-12-2013 06:40:00 -1.7 C 4.18 g/m*3 -1.7 C 0 km/h
2630 03-12-2013 06:45:00 -1.8 C 4.15 g/m*3 -1.8 C 0 km/h
2631 03-12-2013 06:50:00 -1.8 C 4.15 g/m*3 -1.8 C 0 km/h
2632 03-12-2013 06:55:00 -1.9 C 4.12 g/m*3 -1.9 C 0 km/h
2633 03-12-2013 07:00:00 -1.9 C 4.12 g/m*3 -1.9 C 0 km/h
2634 03-12-2013 07:05:00 -2 C 4.09 g/m*3 -2 C 0 km/h
2635 03-12-2013 07:10:00 -2 C 4.09 g/m*3 -2 C 0 km/h
2636 03-12-2013 07:15:00 -2.1 C 4.06 g/m*3 -2.1 C 0 km/h
2637 03-12-2013 07:20:00 -2.1 C 4.06 g/m*3 -2.1 C 0 km/h
2638 03-12-2013 07:25:00 -2.1 C 4.06 g/m*3 -2.1 C 1.6 km/h
2639 03-12-2013 07:30:00 -2.1 C 4.06 g/m*3 -2.1 C 0 km/h
2640 03-12-2013 07:35:00 -2.1 C 4.06 g/m*3 -2.1 C 0 km/h
2641 03-12-2013 07:40:00 -2.1 C 4.06 g/m*3 -2.1 C 0 km/h
2642 03-12-2013 07:45:00 -2.1 C 4.06 g/m*3 -2.1 C 0 km/h
2643 03-12-2013 07:50:00 -2.1 C 4.06 g/m*3 -2.1 C 0 km/h
2644 03-12-2013 07:55:00 -2 C 4.09 g/m*3 -2 C 0 km/h
2645 03-12-2013 08:00:00 -2 C 4.09 g/m*3 -2 C 0 km/h
2646 03-12-2013 08:05:00 -2.1 C 4.06 g/m*3 -2.1 C 0 km/h
2647 03-12-2013 08:10:00 -2.1 C 4.06 g/m*3 -2.1 C 0 km/h
2648 03-12-2013 08:15:00 -2.1 C 4.06 g/m*3 -2.1 C 0 km/h
2649 03-12-2013 08:20:00 -2.1 C 4.06 g/m*3 -2.1 C 0 km/h
2650 03-12-2013 08:25:00 -2.1 C 4.06 g/m*3 -2.1 C 0 km/h
Sensor: Nr:Datum:Temp:Abs-Feuchte:Windchill:Wind:
Aussen-T/F 2651 03-12-2013 08:30:00 -2.1 C 4.06 g/m*3 -2.1 C 1.6 km/h
2652 03-12-2013 08:35:00 -2 C 4.09 g/m*3 -2 C 1.6 km/h
2653 03-12-2013 08:40:00 -1.9 C 4.12 g/m*3 -1.9 C 3.2 km/h
2654 03-12-2013 08:45:00 -1.9 C 4.12 g/m*3 -1.9 C 0 km/h
2655 03-12-2013 08:50:00 -1.9 C 4.12 g/m*3 -1.9 C 0 km/h
2656 03-12-2013 08:55:00 -1.9 C 4.12 g/m*3 -1.9 C 0 km/h
2657 03-12-2013 09:00:00 -1.9 C 4.12 g/m*3 -1.9 C 0 km/h
2658 03-12-2013 09:05:00 -1.9 C 4.12 g/m*3 -1.9 C 0 km/h
2659 03-12-2013 09:10:00 -1.9 C 4.12 g/m*3 -1.9 C 0 km/h
2660 03-12-2013 09:15:00 -1.9 C 4.12 g/m*3 -1.9 C 0 km/h
2661 03-12-2013 09:20:00 -1.9 C 4.12 g/m*3 -1.9 C 0 km/h
2662 03-12-2013 09:25:00 -1.9 C 4.12 g/m*3 -1.9 C 0 km/h
2663 03-12-2013 09:30:00 -1.9 C 4.12 g/m*3 -1.9 C 0 km/h
2664 03-12-2013 09:35:00 -1.8 C 4.15 g/m*3 -1.8 C 0 km/h
2665 03-12-2013 09:40:00 -1.8 C 4.15 g/m*3 -1.8 C 0 km/h
2666 03-12-2013 09:45:00 -1.8 C 4.15 g/m*3 -1.8 C 0 km/h
2667 03-12-2013 09:50:00 -1.8 C 4.15 g/m*3 -1.8 C 0 km/h
2668 03-12-2013 09:55:00 -1.7 C 4.18 g/m*3 -1.7 C 0 km/h
2669 03-12-2013 10:00:00 -1.7 C 4.18 g/m*3 -1.7 C 0 km/h
2670 03-12-2013 10:05:00 -1.7 C 4.18 g/m*3 -1.7 C 0 km/h
2671 03-12-2013 10:10:00 -1.7 C 4.18 g/m*3 -1.7 C 0 km/h
2672 03-12-2013 10:15:00 -1.6 C 4.21 g/m*3 -1.6 C 0 km/h
2673 03-12-2013 10:20:00 -1.6 C 4.21 g/m*3 -1.6 C 1.6 km/h
2674 03-12-2013 10:25:00 -1.6 C 4.21 g/m*3 -1.6 C 1.6 km/h
2675 03-12-2013 10:30:00 -1.6 C 4.21 g/m*3 -1.6 C 0 km/h
Sensor: Nr:Datum:Temp:Abs-Feuchte:Windchill:Wind:
Aussen-T/F 2676 03-12-2013 10:35:00 -1.6 C 4.21 g/m*3 -1.6 C 0 km/h
2677 03-12-2013 10:40:00 -1.5 C 4.23 g/m*3 -1.5 C 0 km/h
2678 03-12-2013 10:45:00 -1.5 C 4.23 g/m*3 -1.5 C 0 km/h
2679 03-12-2013 10:50:00 -1.4 C 4.26 g/m*3 -1.4 C 0 km/h
2680 03-12-2013 10:55:00 -1.4 C 4.26 g/m*3 -1.4 C 0 km/h
2681 03-12-2013 11:00:00 -1.4 C 4.26 g/m*3 -1.4 C 0 km/h
2682 03-12-2013 11:05:00 -1.4 C 4.26 g/m*3 -1.4 C 0 km/h
2683 03-12-2013 11:10:00 -1.4 C 4.26 g/m*3 -1.4 C 0 km/h
2684 03-12-2013 11:15:00 -1.3 C 4.29 g/m*3 -1.3 C 0 km/h
2685 03-12-2013 11:20:00 -1.3 C 4.29 g/m*3 -1.3 C 0 km/h
2686 03-12-2013 11:25:00 -1.3 C 4.34 g/m*3 -1.3 C 0 km/h
2687 03-12-2013 11:30:00 -1.3 C 4.34 g/m*3 -1.3 C 0 km/h
2688 03-12-2013 11:35:00 -1.2 C 4.37 g/m*3 -1.2 C 0 km/h
2689 03-12-2013 11:40:00 -1.2 C 4.32 g/m*3 -1.2 C 0 km/h
2690 03-12-2013 11:45:00 -1.1 C 4.35 g/m*3 -1.1 C 0 km/h
2691 03-12-2013 11:50:00 -1 C 4.38 g/m*3 -1 C 0 km/h
2692 03-12-2013 11:55:00 -0.9 C 4.46 g/m*3 -0.9 C 0 km/h
2693 03-12-2013 12:00:00 -0.8 C 4.49 g/m*3 -0.8 C 0 km/h
2694 03-12-2013 12:05:00 -0.7 C 4.52 g/m*3 -0.7 C 0 km/h
2695 03-12-2013 12:10:00 -0.7 C 4.52 g/m*3 -0.7 C 0 km/h
2696 03-12-2013 12:15:00 -0.6 C 4.56 g/m*3 -0.6 C 0 km/h
2697 03-12-2013 12:20:00 -0.4 C 4.62 g/m*3 -0.4 C 0 km/h
2698 03-12-2013 12:25:00 -0.3 C 4.65 g/m*3 -0.3 C 0 km/h
2699 03-12-2013 12:30:00 -0.3 C 4.65 g/m*3 -0.3 C 0 km/h
2700 03-12-2013 12:35:00 -0.1 C 4.72 g/m*3 -0.1 C 0 km/h
Sensor: Nr:Datum:Temp:Abs-Feuchte:Windchill:Wind:
Aussen-T/F 2701 03-12-2013 12:40:00 0 C 4.75 g/m*3 0 C 0 km/h
2702 03-12-2013 12:45:00 0.1 C 4.78 g/m*3 0.1 C 0 km/h
2703 03-12-2013 12:50:00 0.2 C 4.81 g/m*3 0.2 C 0 km/h
2704 03-12-2013 12:55:00 0.3 C 4.85 g/m*3 0.3 C 0 km/h
2705 03-12-2013 13:00:00 0.3 C 4.85 g/m*3 0.3 C 0 km/h
2706 03-12-2013 13:05:00 0.3 C 4.85 g/m*3 0.3 C 0 km/h
2707 03-12-2013 13:10:00 0.4 C 4.88 g/m*3 0.4 C 0 km/h
2708 03-12-2013 13:15:00 0.4 C 4.88 g/m*3 0.4 C 0 km/h
2709 03-12-2013 13:20:00 0.4 C 4.88 g/m*3 0.4 C 0 km/h
2710 03-12-2013 13:25:00 0.4 C 4.88 g/m*3 0.4 C 0 km/h
2711 03-12-2013 13:30:00 0.4 C 4.88 g/m*3 0.4 C 0 km/h
2712 03-12-2013 13:35:00 0.4 C 4.88 g/m*3 0.4 C 0 km/h
2713 03-12-2013 13:40:00 0.5 C 4.91 g/m*3 0.5 C 0 km/h
2714 03-12-2013 13:45:00 0.6 C 4.95 g/m*3 0.6 C 0 km/h
2715 03-12-2013 13:50:00 0.6 C 4.95 g/m*3 0.6 C 0 km/h
2716 03-12-2013 13:55:00 0.7 C 4.98 g/m*3 0.7 C 0 km/h
2717 03-12-2013 14:00:00 0.7 C 4.98 g/m*3 0.7 C 0 km/h
2718 03-12-2013 14:05:00 0.8 C 5.02 g/m*3 0.8 C 0 km/h
2719 03-12-2013 14:10:00 0.8 C 5.02 g/m*3 0.8 C 0 km/h
2720 03-12-2013 14:15:00 0.8 C 5.02 g/m*3 0.8 C 0 km/h
2721 03-12-2013 14:20:00 0.8 C 5.02 g/m*3 0.8 C 0 km/h
2722 03-12-2013 14:25:00 0.9 C 5.05 g/m*3 0.9 C 0 km/h
2723 03-12-2013 14:30:00 0.9 C 5.05 g/m*3 0.9 C 0 km/h
2724 03-12-2013 14:35:00 0.9 C 5.05 g/m*3 0.9 C 0 km/h
2725 03-12-2013 14:40:00 0.9 C 5.05 g/m*3 0.9 C 0 km/h
Sensor: Nr:Datum:Temp:Abs-Feuchte:Windchill:Wind:
Aussen-T/F 2726 03-12-2013 14:45:00 1 C 5.09 g/m*3 1 C 0 km/h
2727 03-12-2013 14:50:00 1 C 5.09 g/m*3 1 C 0 km/h
2728 03-12-2013 14:55:00 1.1 C 5.12 g/m*3 1.1 C 0 km/h
2729 03-12-2013 15:00:00 1.1 C 5.12 g/m*3 1.1 C 0 km/h
2730 03-12-2013 15:05:00 1.1 C 5.12 g/m*3 1.1 C 0 km/h
2731 03-12-2013 15:10:00 1.1 C 5.12 g/m*3 1.1 C 0 km/h
2732 03-12-2013 15:15:00 1.1 C 5.12 g/m*3 1.1 C 0 km/h
2733 03-12-2013 15:20:00 1.1 C 5.12 g/m*3 1.1 C 0 km/h
2734 03-12-2013 15:25:00 1.1 C 5.12 g/m*3 1.1 C 3.2 km/h
2735 03-12-2013 15:30:00 1.1 C 5.12 g/m*3 1.1 C 0 km/h
2736 03-12-2013 15:35:00 1.1 C 5.12 g/m*3 1.1 C 0 km/h
2737 03-12-2013 15:40:00 1.1 C 5.12 g/m*3 1.1 C 0 km/h
2738 03-12-2013 15:45:00 1.1 C 5.12 g/m*3 1.1 C 0 km/h
2739 03-12-2013 15:50:00 1.2 C 5.16 g/m*3 1.2 C 0 km/h
2740 03-12-2013 15:55:00 1.1 C 5.12 g/m*3 1.1 C 0 km/h
2741 03-12-2013 16:00:00 1.1 C 5.12 g/m*3 1.1 C 0 km/h
2742 03-12-2013 16:05:00 1.1 C 5.07 g/m*3 1.1 C 0 km/h
2743 03-12-2013 16:10:00 1.1 C 5.07 g/m*3 1.1 C 0 km/h
2744 03-12-2013 16:15:00 1.1 C 5.07 g/m*3 1.1 C 0 km/h
2745 03-12-2013 16:20:00 1 C 5.03 g/m*3 1 C 0 km/h
2746 03-12-2013 16:25:00 1.1 C 5.07 g/m*3 1.1 C 0 km/h
2747 03-12-2013 16:30:00 1.1 C 5.07 g/m*3 1.1 C 0 km/h
2748 03-12-2013 16:35:00 0.9 C 5 g/m*3 0.9 C 0 km/h
2749 03-12-2013 16:40:00 0.8 C 4.97 g/m*3 0.8 C 0 km/h
2750 03-12-2013 16:45:00 0.8 C 4.97 g/m*3 0.8 C 0 km/h
Sensor: Nr:Datum:Temp:Abs-Feuchte:Windchill:Wind:
Aussen-T/F 2751 03-12-2013 16:50:00 0.7 C 4.93 g/m*3 0.7 C 0 km/h
2752 03-12-2013 16:55:00 0.6 C 4.9 g/m*3 0.6 C 0 km/h
2753 03-12-2013 17:00:00 0.5 C 4.86 g/m*3 0.5 C 0 km/h
2754 03-12-2013 17:05:00 0.5 C 4.86 g/m*3 0.5 C 0 km/h
2755 03-12-2013 17:10:00 0.6 C 4.9 g/m*3 0.6 C 0 km/h
2756 03-12-2013 17:15:00 0.4 C 4.83 g/m*3 0.4 C 1.6 km/h
2757 03-12-2013 17:20:00 0.4 C 4.83 g/m*3 0.4 C 1.6 km/h
2758 03-12-2013 17:25:00 0.4 C 4.83 g/m*3 0.4 C 0 km/h
2759 03-12-2013 17:30:00 0.4 C 4.83 g/m*3 0.4 C 0 km/h
2760 03-12-2013 17:35:00 0.3 C 4.8 g/m*3 0.3 C 0 km/h
2761 03-12-2013 17:40:00 0.3 C 4.8 g/m*3 0.3 C 0 km/h
2762 03-12-2013 17:45:00 0.3 C 4.8 g/m*3 0.3 C 0 km/h
2763 03-12-2013 17:50:00 0.4 C 4.83 g/m*3 0.4 C 0 km/h
2764 03-12-2013 17:55:00 0.3 C 4.8 g/m*3 0.3 C 0 km/h
2765 03-12-2013 18:00:00 0.3 C 4.8 g/m*3 0.3 C 0 km/h
2766 03-12-2013 18:05:00 0.2 C 4.77 g/m*3 0.2 C 0 km/h
2767 03-12-2013 18:10:00 0.2 C 4.77 g/m*3 0.2 C 0 km/h
2768 03-12-2013 18:15:00 0.2 C 4.77 g/m*3 0.2 C 0 km/h
2769 03-12-2013 18:20:00 0.2 C 4.77 g/m*3 0.2 C 0 km/h
2770 03-12-2013 18:25:00 0.1 C 4.73 g/m*3 0.1 C 0 km/h
2771 03-12-2013 18:30:00 0 C 4.7 g/m*3 0 C 0 km/h
2772 03-12-2013 18:35:00 -0.1 C 4.67 g/m*3 -0.1 C 0 km/h
2773 03-12-2013 18:40:00 -0.1 C 4.67 g/m*3 -0.1 C 0 km/h
2774 03-12-2013 18:45:00 -0.1 C 4.67 g/m*3 -0.1 C 0 km/h
2775 03-12-2013 18:50:00 -0.2 C 4.64 g/m*3 -0.2 C 0 km/h
Sensor: Nr:Datum:Temp:Abs-Feuchte:Windchill:Wind:
Aussen-T/F 2776 03-12-2013 18:55:00 -0.2 C 4.64 g/m*3 -0.2 C 0 km/h
2777 03-12-2013 19:00:00 -0.2 C 4.64 g/m*3 -0.2 C 0 km/h
2778 03-12-2013 19:05:00 -0.2 C 4.64 g/m*3 -0.2 C 0 km/h
2779 03-12-2013 19:10:00 -0.3 C 4.6 g/m*3 -0.3 C 0 km/h
2780 03-12-2013 19:15:00 -0.3 C 4.6 g/m*3 -0.3 C 0 km/h
2781 03-12-2013 19:20:00 -0.3 C 4.6 g/m*3 -0.3 C 0 km/h
2782 03-12-2013 19:25:00 -0.4 C 4.57 g/m*3 -0.4 C 0 km/h
2783 03-12-2013 19:30:00 -0.5 C 4.54 g/m*3 -0.5 C 0 km/h
2784 03-12-2013 19:35:00 -0.4 C 4.57 g/m*3 -0.4 C 0 km/h
2785 03-12-2013 19:40:00 -0.4 C 4.57 g/m*3 -0.4 C 0 km/h
2786 03-12-2013 19:45:00 -0.4 C 4.57 g/m*3 -0.4 C 0 km/h
2787 03-12-2013 19:50:00 -0.4 C 4.57 g/m*3 -0.4 C 0 km/h
2788 03-12-2013 19:55:00 -0.5 C 4.54 g/m*3 -0.5 C 0 km/h
2789 03-12-2013 20:00:00 -0.6 C 4.51 g/m*3 -0.6 C 0 km/h
2790 03-12-2013 20:05:00 -0.6 C 4.51 g/m*3 -0.6 C 0 km/h
2791 03-12-2013 20:10:00 -0.6 C 4.51 g/m*3 -0.6 C 0 km/h
2792 03-12-2013 20:15:00 -0.7 C 4.48 g/m*3 -0.7 C 0 km/h
2793 03-12-2013 20:20:00 -0.7 C 4.48 g/m*3 -0.7 C 0 km/h
2794 03-12-2013 20:25:00 -0.8 C 4.45 g/m*3 -0.8 C 0 km/h
2795 03-12-2013 20:30:00 -0.8 C 4.45 g/m*3 -0.8 C 0 km/h
2796 03-12-2013 20:35:00 -0.8 C 4.45 g/m*3 -0.8 C 0 km/h
2797 03-12-2013 20:40:00 -0.9 C 4.42 g/m*3 -0.9 C 0 km/h
2798 03-12-2013 20:45:00 -1 C 4.38 g/m*3 -1 C 0 km/h
2799 03-12-2013 20:50:00 -1 C 4.38 g/m*3 -1 C 0 km/h
2800 03-12-2013 20:55:00 -0.9 C 4.42 g/m*3 -0.9 C 0 km/h
Sensor: Nr:Datum:Temp:Abs-Feuchte:Windchill:Wind:
Aussen-T/F 2801 03-12-2013 21:00:00 -1.1 C 4.35 g/m*3 -1.1 C 0 km/h
2802 03-12-2013 21:05:00 -1.1 C 4.35 g/m*3 -1.1 C 0 km/h
2803 03-12-2013 21:10:00 -1.2 C 4.32 g/m*3 -1.2 C 0 km/h
2804 03-12-2013 21:15:00 -1.2 C 4.32 g/m*3 -1.2 C 0 km/h
2805 03-12-2013 21:20:00 -1.1 C 4.35 g/m*3 -1.1 C 0 km/h
2806 03-12-2013 21:25:00 -1.1 C 4.35 g/m*3 -1.1 C 1.6 km/h
2807 03-12-2013 21:30:00 -0.9 C 4.42 g/m*3 -0.9 C 0 km/h
2808 03-12-2013 21:35:00 -0.7 C 4.48 g/m*3 -0.7 C 0 km/h
2809 03-12-2013 21:40:00 -0.4 C 4.57 g/m*3 -0.4 C 0 km/h
2810 03-12-2013 21:45:00 -0.2 C 4.68 g/m*3 -0.2 C 0 km/h
2811 03-12-2013 21:50:00 -0.1 C 4.72 g/m*3 -0.1 C 0 km/h
2812 03-12-2013 21:55:00 0.1 C 4.78 g/m*3 0.1 C 0 km/h
2813 03-12-2013 22:00:00 0.2 C 4.81 g/m*3 0.2 C 0 km/h
2814 03-12-2013 22:05:00 0.3 C 4.85 g/m*3 0.3 C 0 km/h
2815 03-12-2013 22:10:00 0.3 C 4.85 g/m*3 0.3 C 0 km/h
2816 03-12-2013 22:15:00 0.4 C 4.88 g/m*3 0.4 C 0 km/h
2817 03-12-2013 22:20:00 0.5 C 4.91 g/m*3 0.5 C 0 km/h
2818 03-12-2013 22:25:00 0.6 C 4.95 g/m*3 0.6 C 3.2 km/h
2819 03-12-2013 22:30:00 0.6 C 4.95 g/m*3 0.6 C 0 km/h
2820 03-12-2013 22:35:00 0.7 C 4.98 g/m*3 0.7 C 0 km/h
2821 03-12-2013 22:40:00 0.7 C 4.98 g/m*3 0.7 C 0 km/h
2822 03-12-2013 22:45:00 0.8 C 5.02 g/m*3 0.8 C 0 km/h
2823 03-12-2013 22:50:00 0.8 C 5.02 g/m*3 0.8 C 0 km/h
2824 03-12-2013 22:55:00 0.8 C 5.02 g/m*3 0.8 C 0 km/h
2825 03-12-2013 23:00:00 0.8 C 5.02 g/m*3 0.8 C 0 km/h
Sensor: Nr:Datum:Temp:Abs-Feuchte:Windchill:Wind:
Aussen-T/F 2826 03-12-2013 23:05:00 0.8 C 5.02 g/m*3 0.8 C 0 km/h
2827 03-12-2013 23:10:00 0.8 C 4.97 g/m*3 0.8 C 0 km/h
2828 03-12-2013 23:15:00 0.8 C 5.02 g/m*3 0.8 C 0 km/h
2829 03-12-2013 23:20:00 0.8 C 4.97 g/m*3 0.8 C 0 km/h
2830 03-12-2013 23:25:00 0.8 C 4.97 g/m*3 0.8 C 0 km/h
2831 03-12-2013 23:30:00 0.8 C 4.97 g/m*3 0.8 C 0 km/h
2832 03-12-2013 23:35:00 0.8 C 4.97 g/m*3 0.8 C 0 km/h
2833 03-12-2013 23:40:00 0.9 C 5 g/m*3 0.9 C 0 km/h
2834 03-12-2013 23:45:00 0.9 C 5 g/m*3 0.9 C 0 km/h
2835 03-12-2013 23:50:00 0.9 C 5.05 g/m*3 0.9 C 0 km/h
2836 03-12-2013 23:55:00 0.9 C 5.05 g/m*3 0.9 C 3.2 km/h
2837 04-12-2013 00:00:00 1 C 5.09 g/m*3 1 C 0 km/h
2838 04-12-2013 00:05:00 1.1 C 5.07 g/m*3 1.1 C 3.2 km/h
2839 04-12-2013 00:10:00 1.1 C 5.07 g/m*3 1.1 C 1.6 km/h
2840 04-12-2013 00:15:00 1.1 C 5.07 g/m*3 1.1 C 0 km/h
2841 04-12-2013 00:20:00 1.1 C 5.07 g/m*3 1.1 C 4.8 km/h
2842 04-12-2013 00:25:00 1.1 C 5.07 g/m*3 1.1 C 0 km/h
2843 04-12-2013 00:30:00 1.1 C 5.07 g/m*3 -1.48 C 8.1 km/h
2844 04-12-2013 00:35:00 1.1 C 5.07 g/m*3 -1.48 C 8.1 km/h
2845 04-12-2013 00:40:00 1.1 C 5.07 g/m*3 1.1 C 0 km/h
2846 04-12-2013 00:45:00 1.1 C 5.07 g/m*3 1.1 C 0 km/h
2847 04-12-2013 00:50:00 1.1 C 5.07 g/m*3 1.1 C 3.2 km/h
2848 04-12-2013 00:55:00 1.1 C 5.07 g/m*3 1.1 C 3.2 km/h
2849 04-12-2013 01:00:00 1.1 C 5.07 g/m*3 1.1 C 1.6 km/h
2850 04-12-2013 01:05:00 1.1 C 5.07 g/m*3 1.1 C 4.8 km/h
Sensor: Nr:Datum:Temp:Abs-Feuchte:Windchill:Wind:
Aussen-T/F 2851 04-12-2013 01:10:00 1.1 C 5.07 g/m*3 -1.48 C 8.1 km/h
2852 04-12-2013 01:15:00 1.2 C 5.05 g/m*3 1.2 C 3.2 km/h
2853 04-12-2013 01:20:00 1.2 C 5.05 g/m*3 1.2 C 4.8 km/h
2854 04-12-2013 01:25:00 1.2 C 5.05 g/m*3 -0.8 C 6.4 km/h
2855 04-12-2013 01:30:00 1.2 C 5.05 g/m*3 1.2 C 4.8 km/h
2856 04-12-2013 01:35:00 1.2 C 5.05 g/m*3 1.2 C 4.8 km/h
2857 04-12-2013 01:40:00 1.2 C 5.05 g/m*3 1.2 C 4.8 km/h
2858 04-12-2013 01:45:00 1.2 C 5.05 g/m*3 -0.8 C 6.4 km/h
2859 04-12-2013 01:50:00 1.2 C 5 g/m*3 1.2 C 3.2 km/h
2860 04-12-2013 01:55:00 1.2 C 5 g/m*3 1.2 C 4.8 km/h
2861 04-12-2013 02:00:00 1.2 C 5 g/m*3 -1.36 C 8.1 km/h
2862 04-12-2013 02:05:00 1.3 C 5.03 g/m*3 -1.24 C 8.1 km/h
2863 04-12-2013 02:10:00 1.3 C 5.03 g/m*3 1.3 C 4.8 km/h
2864 04-12-2013 02:15:00 1.3 C 5.03 g/m*3 -1.69 C 9.7 km/h
2865 04-12-2013 02:20:00 1.3 C 5.03 g/m*3 -2.07 C 11.3 km/h
2866 04-12-2013 02:25:00 1.3 C 4.98 g/m*3 1.3 C 4.8 km/h
2867 04-12-2013 02:30:00 1.3 C 4.98 g/m*3 -1.24 C 8.1 km/h
2868 04-12-2013 02:35:00 1.3 C 4.98 g/m*3 -1.24 C 8.1 km/h
2869 04-12-2013 02:40:00 1.3 C 4.98 g/m*3 -1.24 C 8.1 km/h
2870 04-12-2013 02:45:00 1.3 C 4.98 g/m*3 -0.68 C 6.4 km/h
2871 04-12-2013 02:50:00 1.3 C 4.98 g/m*3 -2.41 C 12.9 km/h
2872 04-12-2013 02:55:00 1.3 C 4.98 g/m*3 -2.07 C 11.3 km/h
2873 04-12-2013 03:00:00 1.3 C 4.98 g/m*3 -1.24 C 8.1 km/h
2874 04-12-2013 03:05:00 1.3 C 4.98 g/m*3 -2.41 C 12.9 km/h
2875 04-12-2013 03:10:00 1.3 C 4.98 g/m*3 -1.69 C 9.7 km/h
Sensor: Nr:Datum:Temp:Abs-Feuchte:Windchill:Wind:
Aussen-T/F 2876 04-12-2013 03:15:00 1.3 C 4.98 g/m*3 -2.41 C 12.9 km/h
2877 04-12-2013 03:20:00 1.3 C 4.98 g/m*3 -2.41 C 12.9 km/h
2878 04-12-2013 03:25:00 1.3 C 4.98 g/m*3 -2.72 C 14.5 km/h
2879 04-12-2013 03:30:00 1.3 C 4.93 g/m*3 -3 C 16.1 km/h
2880 04-12-2013 03:35:00 1.3 C 4.93 g/m*3 -1.69 C 9.7 km/h
2881 04-12-2013 03:40:00 1.3 C 4.93 g/m*3 -2.41 C 12.9 km/h
2882 04-12-2013 03:45:00 1.3 C 4.93 g/m*3 -1.24 C 8.1 km/h
2883 04-12-2013 03:50:00 1.3 C 4.93 g/m*3 -3.26 C 17.7 km/h
2884 04-12-2013 03:55:00 1.3 C 4.93 g/m*3 -2.07 C 11.3 km/h
2885 04-12-2013 04:00:00 1.3 C 4.93 g/m*3 -1.69 C 9.7 km/h
2886 04-12-2013 04:05:00 1.3 C 4.93 g/m*3 -1.69 C 9.7 km/h
2887 04-12-2013 04:10:00 1.3 C 4.93 g/m*3 -3.26 C 17.7 km/h
2888 04-12-2013 04:15:00 1.3 C 4.93 g/m*3 -2.07 C 11.3 km/h
2889 04-12-2013 04:20:00 1.4 C 4.96 g/m*3 -1.57 C 9.7 km/h
2890 04-12-2013 04:25:00 1.4 C 4.96 g/m*3 -1.95 C 11.3 km/h
2891 04-12-2013 04:30:00 1.4 C 4.96 g/m*3 -1.12 C 8.1 km/h
2892 04-12-2013 04:35:00 1.5 C 4.99 g/m*3 -1.45 C 9.7 km/h
2893 04-12-2013 04:40:00 1.6 C 5.03 g/m*3 -0.89 C 8.1 km/h
2894 04-12-2013 04:45:00 1.6 C 5.03 g/m*3 -0.89 C 8.1 km/h
2895 04-12-2013 04:50:00 1.6 C 5.03 g/m*3 -0.33 C 6.4 km/h
2896 04-12-2013 04:55:00 1.6 C 5.03 g/m*3 1.6 C 3.2 km/h
2897 04-12-2013 05:00:00 1.6 C 5.03 g/m*3 1.6 C 3.2 km/h
2898 04-12-2013 05:05:00 1.6 C 5.03 g/m*3 1.6 C 1.6 km/h
2899 04-12-2013 05:10:00 1.6 C 5.03 g/m*3 1.6 C 3.2 km/h
2900 04-12-2013 05:15:00 1.6 C 5.03 g/m*3 1.6 C 4.8 km/h
Sensor: Nr:Datum:Temp:Abs-Feuchte:Windchill:Wind:
Aussen-T/F 2901 04-12-2013 05:20:00 1.6 C 5.03 g/m*3 1.6 C 4.8 km/h
2902 04-12-2013 05:25:00 1.6 C 5.03 g/m*3 1.6 C 3.2 km/h
2903 04-12-2013 05:30:00 1.7 C 5.06 g/m*3 1.7 C 4.8 km/h
2904 04-12-2013 05:35:00 1.7 C 5.06 g/m*3 -0.77 C 8.1 km/h
2905 04-12-2013 05:40:00 1.7 C 5.06 g/m*3 -0.77 C 8.1 km/h
2906 04-12-2013 05:45:00 1.7 C 5.06 g/m*3 -1.21 C 9.7 km/h
2907 04-12-2013 05:50:00 1.7 C 5.06 g/m*3 -0.77 C 8.1 km/h
2908 04-12-2013 05:55:00 1.7 C 5.06 g/m*3 -1.59 C 11.3 km/h
2909 04-12-2013 06:00:00 1.7 C 5.12 g/m*3 -0.77 C 8.1 km/h
2910 04-12-2013 06:05:00 1.7 C 5.12 g/m*3 -0.22 C 6.4 km/h
2911 04-12-2013 06:10:00 1.7 C 5.12 g/m*3 -1.59 C 11.3 km/h
2912 04-12-2013 06:15:00 1.7 C 5.12 g/m*3 -0.77 C 8.1 km/h
2913 04-12-2013 06:20:00 1.7 C 5.12 g/m*3 -0.77 C 8.1 km/h
2914 04-12-2013 06:25:00 1.7 C 5.12 g/m*3 -0.22 C 6.4 km/h
2915 04-12-2013 06:30:00 1.8 C 5.15 g/m*3 -1.09 C 9.7 km/h
2916 04-12-2013 06:35:00 1.8 C 5.1 g/m*3 -0.1 C 6.4 km/h
2917 04-12-2013 06:40:00 1.8 C 5.15 g/m*3 -1.47 C 11.3 km/h
2918 04-12-2013 06:45:00 1.8 C 5.15 g/m*3 -1.47 C 11.3 km/h
2919 04-12-2013 06:50:00 1.8 C 5.15 g/m*3 -1.09 C 9.7 km/h
2920 04-12-2013 06:55:00 1.8 C 5.15 g/m*3 -0.65 C 8.1 km/h
2921 04-12-2013 07:00:00 1.9 C 5.19 g/m*3 -1.35 C 11.3 km/h
2922 04-12-2013 07:05:00 1.9 C 5.19 g/m*3 -1.35 C 11.3 km/h
2923 04-12-2013 07:10:00 1.9 C 5.19 g/m*3 -0.54 C 8.1 km/h
2924 04-12-2013 07:15:00 1.9 C 5.19 g/m*3 -0.97 C 9.7 km/h
2925 04-12-2013 07:20:00 1.9 C 5.19 g/m*3 -0.97 C 9.7 km/h
Sensor: Nr:Datum:Temp:Abs-Feuchte:Windchill:Wind:
Aussen-T/F 2926 04-12-2013 07:25:00 1.9 C 5.19 g/m*3 -0.97 C 9.7 km/h
2927 04-12-2013 07:30:00 1.9 C 5.19 g/m*3 -0.97 C 9.7 km/h
2928 04-12-2013 07:35:00 2 C 5.22 g/m*3 -0.42 C 8.1 km/h
2929 04-12-2013 07:40:00 2.1 C 5.26 g/m*3 -0.73 C 9.7 km/h
2930 04-12-2013 07:45:00 2.2 C 5.24 g/m*3 -0.18 C 8.1 km/h
2931 04-12-2013 07:50:00 2.2 C 5.24 g/m*3 -0.61 C 9.7 km/h
2932 04-12-2013 07:55:00 2.2 C 5.24 g/m*3 -0.18 C 8.1 km/h
2933 04-12-2013 08:00:00 2.2 C 5.24 g/m*3 -0.61 C 9.7 km/h
2934 04-12-2013 08:05:00 2.3 C 5.27 g/m*3 -0.49 C 9.7 km/h
2935 04-12-2013 08:10:00 2.3 C 5.27 g/m*3 -0.87 C 11.3 km/h
2936 04-12-2013 08:15:00 2.3 C 5.27 g/m*3 -0.87 C 11.3 km/h
2937 04-12-2013 08:20:00 2.4 C 5.31 g/m*3 -0.74 C 11.3 km/h
2938 04-12-2013 08:25:00 2.4 C 5.31 g/m*3 -0.37 C 9.7 km/h
2939 04-12-2013 08:30:00 2.4 C 5.31 g/m*3 -0.74 C 11.3 km/h
2940 04-12-2013 08:35:00 2.4 C 5.31 g/m*3 -1.07 C 12.9 km/h
2941 04-12-2013 08:40:00 2.5 C 5.35 g/m*3 -0.26 C 9.7 km/h
2942 04-12-2013 08:45:00 2.6 C 5.32 g/m*3 -0.83 C 12.9 km/h
2943 04-12-2013 08:50:00 2.6 C 5.38 g/m*3 -0.14 C 9.7 km/h
2944 04-12-2013 08:55:00 2.6 C 5.38 g/m*3 -0.5 C 11.3 km/h
2945 04-12-2013 09:00:00 2.6 C 5.32 g/m*3 -0.14 C 9.7 km/h
2946 04-12-2013 09:05:00 2.7 C 5.36 g/m*3 -0.71 C 12.9 km/h
2947 04-12-2013 09:10:00 2.7 C 5.36 g/m*3 -1 C 14.5 km/h
2948 04-12-2013 09:15:00 2.7 C 5.36 g/m*3 -0.71 C 12.9 km/h
2949 04-12-2013 09:20:00 2.7 C 5.42 g/m*3 -0.38 C 11.3 km/h
2950 04-12-2013 09:25:00 2.7 C 5.42 g/m*3 -0.71 C 12.9 km/h
Sensor: Nr:Datum:Temp:Abs-Feuchte:Windchill:Wind:
Aussen-T/F 2951 04-12-2013 09:30:00 2.7 C 5.42 g/m*3 -0.38 C 11.3 km/h
2952 04-12-2013 09:35:00 2.7 C 5.42 g/m*3 -0.02 C 9.7 km/h
2953 04-12-2013 09:40:00 2.7 C 5.42 g/m*3 -0.02 C 9.7 km/h
2954 04-12-2013 09:45:00 2.8 C 5.46 g/m*3 1.05 C 6.4 km/h
2955 04-12-2013 09:50:00 2.8 C 5.46 g/m*3 0.52 C 8.1 km/h
2956 04-12-2013 09:55:00 2.8 C 5.4 g/m*3 0.1 C 9.7 km/h
2957 04-12-2013 10:00:00 2.8 C 5.46 g/m*3 0.52 C 8.1 km/h
2958 04-12-2013 10:05:00 2.8 C 5.46 g/m*3 0.1 C 9.7 km/h
2959 04-12-2013 10:10:00 2.9 C 5.49 g/m*3 0.22 C 9.7 km/h
2960 04-12-2013 10:15:00 2.9 C 5.49 g/m*3 0.64 C 8.1 km/h
2961 04-12-2013 10:20:00 2.9 C 5.49 g/m*3 0.22 C 9.7 km/h
2962 04-12-2013 10:25:00 2.9 C 5.49 g/m*3 0.64 C 8.1 km/h
2963 04-12-2013 10:30:00 3 C 5.53 g/m*3 -0.02 C 11.3 km/h
2964 04-12-2013 10:35:00 3.1 C 5.57 g/m*3 1.4 C 6.4 km/h
2965 04-12-2013 10:40:00 3.1 C 5.57 g/m*3 1.4 C 6.4 km/h
2966 04-12-2013 10:45:00 3.1 C 5.57 g/m*3 0.1 C 11.3 km/h
2967 04-12-2013 10:50:00 3.1 C 5.51 g/m*3 1.4 C 6.4 km/h
2968 04-12-2013 10:55:00 3.2 C 5.54 g/m*3 0.58 C 9.7 km/h
2969 04-12-2013 11:00:00 3.2 C 5.54 g/m*3 0.58 C 9.7 km/h
2970 04-12-2013 11:05:00 3.2 C 5.54 g/m*3 0.99 C 8.1 km/h
2971 04-12-2013 11:10:00 3.2 C 5.54 g/m*3 0.22 C 11.3 km/h
2972 04-12-2013 11:15:00 3.2 C 5.54 g/m*3 0.99 C 8.1 km/h
2973 04-12-2013 11:20:00 3.2 C 5.54 g/m*3 0.22 C 11.3 km/h
2974 04-12-2013 11:25:00 3.3 C 5.58 g/m*3 0.7 C 9.7 km/h
2975 04-12-2013 11:30:00 3.3 C 5.58 g/m*3 0.7 C 9.7 km/h
Sensor: Nr:Datum:Temp:Abs-Feuchte:Windchill:Wind:
Aussen-T/F 2976 04-12-2013 11:35:00 3.3 C 5.58 g/m*3 0.7 C 9.7 km/h
2977 04-12-2013 11:40:00 3.4 C 5.62 g/m*3 1.23 C 8.1 km/h
2978 04-12-2013 11:45:00 3.4 C 5.62 g/m*3 0.82 C 9.7 km/h
2979 04-12-2013 11:50:00 3.4 C 5.62 g/m*3 0.82 C 9.7 km/h
2980 04-12-2013 11:55:00 3.4 C 5.62 g/m*3 0.82 C 9.7 km/h
2981 04-12-2013 12:00:00 3.4 C 5.62 g/m*3 3.4 C 4.8 km/h
2982 04-12-2013 12:05:00 3.4 C 5.62 g/m*3 0.82 C 9.7 km/h
2983 04-12-2013 12:10:00 3.5 C 5.6 g/m*3 0.94 C 9.7 km/h
2984 04-12-2013 12:15:00 3.6 C 5.63 g/m*3 1.46 C 8.1 km/h
2985 04-12-2013 12:20:00 3.6 C 5.63 g/m*3 1.06 C 9.7 km/h
2986 04-12-2013 12:25:00 3.6 C 5.63 g/m*3 1.46 C 8.1 km/h
2987 04-12-2013 12:30:00 3.6 C 5.63 g/m*3 1.46 C 8.1 km/h
2988 04-12-2013 12:35:00 3.6 C 5.63 g/m*3 1.98 C 6.4 km/h
2989 04-12-2013 12:40:00 3.7 C 5.67 g/m*3 1.58 C 8.1 km/h
2990 04-12-2013 12:45:00 3.7 C 5.67 g/m*3 2.09 C 6.4 km/h
2991 04-12-2013 12:50:00 3.7 C 5.67 g/m*3 1.18 C 9.7 km/h
2992 04-12-2013 12:55:00 3.8 C 5.71 g/m*3 1.7 C 8.1 km/h
2993 04-12-2013 13:00:00 3.8 C 5.71 g/m*3 3.8 C 4.8 km/h
2994 04-12-2013 13:05:00 3.8 C 5.71 g/m*3 3.8 C 4.8 km/h
2995 04-12-2013 13:10:00 3.9 C 5.68 g/m*3 1.82 C 8.1 km/h
2996 04-12-2013 13:15:00 3.9 C 5.68 g/m*3 3.9 C 4.8 km/h
2997 04-12-2013 13:20:00 3.9 C 5.68 g/m*3 1.82 C 8.1 km/h
2998 04-12-2013 13:25:00 4 C 5.72 g/m*3 1.53 C 9.7 km/h
2999 04-12-2013 13:30:00 4.1 C 5.76 g/m*3 2.55 C 6.4 km/h
3000 04-12-2013 13:35:00 4.1 C 5.76 g/m*3 4.1 C 4.8 km/h
Sensor: Nr:Datum:Temp:Abs-Feuchte:Windchill:Wind:
Aussen-T/F 3001 04-12-2013 13:40:00 4.1 C 5.76 g/m*3 2.55 C 6.4 km/h
3002 04-12-2013 13:45:00 4.1 C 5.76 g/m*3 1.65 C 9.7 km/h
3003 04-12-2013 13:50:00 4.1 C 5.7 g/m*3 4.1 C 4.8 km/h
3004 04-12-2013 13:55:00 4.1 C 5.7 g/m*3 4.1 C 4.8 km/h
3005 04-12-2013 14:00:00 4.2 C 5.73 g/m*3 4.2 C 3.2 km/h
3006 04-12-2013 14:05:00 4.2 C 5.67 g/m*3 4.2 C 4.8 km/h
3007 04-12-2013 14:10:00 4.3 C 5.71 g/m*3 2.29 C 8.1 km/h
3008 04-12-2013 14:15:00 4.3 C 5.64 g/m*3 4.3 C 4.8 km/h
3009 04-12-2013 14:20:00 4.4 C 5.68 g/m*3 2.4 C 8.1 km/h
3010 04-12-2013 14:25:00 4.4 C 5.62 g/m*3 2.01 C 9.7 km/h
3011 04-12-2013 14:30:00 4.5 C 5.65 g/m*3 4.5 C 4.8 km/h
3012 04-12-2013 14:35:00 4.6 C 5.62 g/m*3 2.25 C 9.7 km/h
3013 04-12-2013 14:40:00 4.7 C 5.66 g/m*3 3.25 C 6.4 km/h
3014 04-12-2013 14:45:00 4.7 C 5.66 g/m*3 2.76 C 8.1 km/h
3015 04-12-2013 14:50:00 4.7 C 5.66 g/m*3 2.76 C 8.1 km/h
3016 04-12-2013 14:55:00 4.8 C 5.7 g/m*3 1.85 C 12.9 km/h
3017 04-12-2013 15:00:00 4.8 C 5.7 g/m*3 1.58 C 14.5 km/h
3018 04-12-2013 15:05:00 4.8 C 5.7 g/m*3 2.49 C 9.7 km/h
3019 04-12-2013 15:10:00 4.8 C 5.63 g/m*3 3.36 C 6.4 km/h
3020 04-12-2013 15:15:00 4.8 C 5.7 g/m*3 3.36 C 6.4 km/h
3021 04-12-2013 15:20:00 4.9 C 5.74 g/m*3 2.61 C 9.7 km/h
3022 04-12-2013 15:25:00 4.9 C 5.74 g/m*3 2.61 C 9.7 km/h
3023 04-12-2013 15:30:00 4.8 C 5.7 g/m*3 1.85 C 12.9 km/h
3024 04-12-2013 15:35:00 4.8 C 5.7 g/m*3 2.87 C 8.1 km/h
3025 04-12-2013 15:40:00 4.8 C 5.7 g/m*3 2.15 C 11.3 km/h
Sensor: Nr:Datum:Temp:Abs-Feuchte:Windchill:Wind:
Aussen-T/F 3026 04-12-2013 15:45:00 4.8 C 5.7 g/m*3 2.49 C 9.7 km/h
3027 04-12-2013 15:50:00 4.8 C 5.7 g/m*3 2.87 C 8.1 km/h
3028 04-12-2013 15:55:00 4.8 C 5.7 g/m*3 2.49 C 9.7 km/h
3029 04-12-2013 16:00:00 4.8 C 5.7 g/m*3 4.8 C 4.8 km/h
3030 04-12-2013 16:05:00 4.8 C 5.77 g/m*3 3.36 C 6.4 km/h
3031 04-12-2013 16:10:00 4.7 C 5.73 g/m*3 2.03 C 11.3 km/h
3032 04-12-2013 16:15:00 4.8 C 5.77 g/m*3 2.49 C 9.7 km/h
3033 04-12-2013 16:20:00 4.8 C 5.77 g/m*3 2.87 C 8.1 km/h
3034 04-12-2013 16:25:00 4.7 C 5.73 g/m*3 3.25 C 6.4 km/h
3035 04-12-2013 16:30:00 4.7 C 5.73 g/m*3 3.25 C 6.4 km/h
3036 04-12-2013 16:35:00 4.7 C 5.73 g/m*3 2.76 C 8.1 km/h
3037 04-12-2013 16:40:00 4.7 C 5.73 g/m*3 2.03 C 11.3 km/h
3038 04-12-2013 16:45:00 4.7 C 5.73 g/m*3 3.25 C 6.4 km/h
3039 04-12-2013 16:50:00 4.8 C 5.77 g/m*3 3.36 C 6.4 km/h
3040 04-12-2013 16:55:00 4.7 C 5.73 g/m*3 3.25 C 6.4 km/h
3041 04-12-2013 17:00:00 4.7 C 5.73 g/m*3 3.25 C 6.4 km/h
3042 04-12-2013 17:05:00 4.7 C 5.8 g/m*3 2.37 C 9.7 km/h
3043 04-12-2013 17:10:00 4.7 C 5.8 g/m*3 3.25 C 6.4 km/h
3044 04-12-2013 17:15:00 4.7 C 5.8 g/m*3 2.76 C 8.1 km/h
3045 04-12-2013 17:20:00 4.8 C 5.83 g/m*3 4.8 C 4.8 km/h
3046 04-12-2013 17:25:00 4.8 C 5.83 g/m*3 2.87 C 8.1 km/h
3047 04-12-2013 17:30:00 4.9 C 5.87 g/m*3 2.27 C 11.3 km/h
3048 04-12-2013 17:35:00 4.9 C 5.87 g/m*3 1.7 C 14.5 km/h
3049 04-12-2013 17:40:00 4.9 C 5.87 g/m*3 2.61 C 9.7 km/h
3050 04-12-2013 17:45:00 5 C 5.91 g/m*3 1.83 C 14.5 km/h
Sensor: Nr:Datum:Temp:Abs-Feuchte:Windchill:Wind:
Aussen-T/F 3051 04-12-2013 17:50:00 5 C 5.91 g/m*3 2.72 C 9.7 km/h
3052 04-12-2013 17:55:00 5 C 5.91 g/m*3 2.72 C 9.7 km/h
3053 04-12-2013 18:00:00 5 C 5.91 g/m*3 2.39 C 11.3 km/h
3054 04-12-2013 18:05:00 5 C 5.91 g/m*3 1.58 C 16.1 km/h
3055 04-12-2013 18:10:00 5.1 C 5.95 g/m*3 2.51 C 11.3 km/h
3056 04-12-2013 18:15:00 5 C 5.91 g/m*3 1.15 C 19.3 km/h
3057 04-12-2013 18:20:00 5 C 5.98 g/m*3 1.58 C 16.1 km/h
3058 04-12-2013 18:25:00 5 C 5.98 g/m*3 2.09 C 12.9 km/h
3059 04-12-2013 18:30:00 4.9 C 6.01 g/m*3 1.97 C 12.9 km/h
3060 04-12-2013 18:35:00 4.8 C 6.04 g/m*3 2.87 C 8.1 km/h
3061 04-12-2013 18:40:00 4.8 C 6.1 g/m*3 1.85 C 12.9 km/h
3062 04-12-2013 18:45:00 4.7 C 6.06 g/m*3 2.03 C 11.3 km/h
3063 04-12-2013 18:50:00 4.6 C 6.09 g/m*3 1.91 C 11.3 km/h
3064 04-12-2013 18:55:00 4.6 C 6.02 g/m*3 2.25 C 9.7 km/h
3065 04-12-2013 19:00:00 4.6 C 6.02 g/m*3 2.64 C 8.1 km/h
3066 04-12-2013 19:05:00 4.6 C 6.02 g/m*3 1.09 C 16.1 km/h
3067 04-12-2013 19:10:00 4.7 C 6.06 g/m*3 2.37 C 9.7 km/h
3068 04-12-2013 19:15:00 4.7 C 6.06 g/m*3 2.03 C 11.3 km/h
3069 04-12-2013 19:20:00 4.7 C 6.06 g/m*3 2.76 C 8.1 km/h
3070 04-12-2013 19:25:00 4.8 C 6.1 g/m*3 1.85 C 12.9 km/h
3071 04-12-2013 19:30:00 4.8 C 6.04 g/m*3 2.15 C 11.3 km/h
3072 04-12-2013 19:35:00 4.9 C 6.08 g/m*3 1.97 C 12.9 km/h
3073 04-12-2013 19:40:00 4.9 C 6.08 g/m*3 0.83 C 20.9 km/h
3074 04-12-2013 19:45:00 5 C 6.05 g/m*3 2.09 C 12.9 km/h
3075 04-12-2013 19:50:00 5 C 6.05 g/m*3 1.83 C 14.5 km/h
Sensor: Nr:Datum:Temp:Abs-Feuchte:Windchill:Wind:
Aussen-T/F 3076 04-12-2013 19:55:00 5 C 6.12 g/m*3 2.39 C 11.3 km/h
3077 04-12-2013 20:00:00 4.9 C 6.08 g/m*3 1.97 C 12.9 km/h
3078 04-12-2013 20:05:00 4.9 C 6.08 g/m*3 2.27 C 11.3 km/h
3079 04-12-2013 20:10:00 4.9 C 6.14 g/m*3 2.27 C 11.3 km/h
3080 04-12-2013 20:15:00 4.9 C 6.14 g/m*3 2.99 C 8.1 km/h
3081 04-12-2013 20:20:00 4.9 C 6.14 g/m*3 2.27 C 11.3 km/h
3082 04-12-2013 20:25:00 4.9 C 6.14 g/m*3 1.97 C 12.9 km/h
3083 04-12-2013 20:30:00 4.9 C 6.14 g/m*3 2.27 C 11.3 km/h
3084 04-12-2013 20:35:00 4.9 C 6.14 g/m*3 2.61 C 9.7 km/h
3085 04-12-2013 20:40:00 4.9 C 6.21 g/m*3 2.61 C 9.7 km/h
3086 04-12-2013 20:45:00 4.9 C 6.21 g/m*3 2.27 C 11.3 km/h
3087 04-12-2013 20:50:00 4.9 C 6.21 g/m*3 2.61 C 9.7 km/h
3088 04-12-2013 20:55:00 4.9 C 6.21 g/m*3 2.27 C 11.3 km/h
3089 04-12-2013 21:00:00 4.8 C 6.17 g/m*3 2.49 C 9.7 km/h
3090 04-12-2013 21:05:00 4.8 C 6.24 g/m*3 2.87 C 8.1 km/h
3091 04-12-2013 21:10:00 4.8 C 6.24 g/m*3 2.15 C 11.3 km/h
3092 04-12-2013 21:15:00 4.8 C 6.24 g/m*3 1.85 C 12.9 km/h
3093 04-12-2013 21:20:00 4.8 C 6.24 g/m*3 2.87 C 8.1 km/h
3094 04-12-2013 21:25:00 4.8 C 6.24 g/m*3 3.36 C 6.4 km/h
3095 04-12-2013 21:30:00 4.8 C 6.24 g/m*3 2.87 C 8.1 km/h
3096 04-12-2013 21:35:00 4.8 C 6.3 g/m*3 3.36 C 6.4 km/h
3097 04-12-2013 21:40:00 4.8 C 6.3 g/m*3 2.87 C 8.1 km/h
3098 04-12-2013 21:45:00 4.8 C 6.3 g/m*3 2.87 C 8.1 km/h
3099 04-12-2013 21:50:00 4.8 C 6.3 g/m*3 2.49 C 9.7 km/h
3100 04-12-2013 21:55:00 4.8 C 6.3 g/m*3 3.36 C 6.4 km/h
Sensor: Nr:Datum:Temp:Abs-Feuchte:Windchill:Wind:
Aussen-T/F 3101 04-12-2013 22:00:00 4.7 C 6.33 g/m*3 3.25 C 6.4 km/h
3102 04-12-2013 22:05:00 4.7 C 6.33 g/m*3 4.7 C 4.8 km/h
3103 04-12-2013 22:10:00 4.7 C 6.33 g/m*3 2.76 C 8.1 km/h
3104 04-12-2013 22:15:00 4.7 C 6.33 g/m*3 4.7 C 4.8 km/h
3105 04-12-2013 22:20:00 4.8 C 6.37 g/m*3 4.8 C 4.8 km/h
3106 04-12-2013 22:25:00 4.7 C 6.33 g/m*3 3.25 C 6.4 km/h
3107 04-12-2013 22:30:00 4.8 C 6.37 g/m*3 4.8 C 4.8 km/h
3108 04-12-2013 22:35:00 4.8 C 6.44 g/m*3 2.87 C 8.1 km/h
3109 04-12-2013 22:40:00 4.8 C 6.37 g/m*3 4.8 C 4.8 km/h
3110 04-12-2013 22:45:00 4.8 C 6.37 g/m*3 4.8 C 1.6 km/h
3111 04-12-2013 22:50:00 4.8 C 6.44 g/m*3 4.8 C 4.8 km/h
3112 04-12-2013 22:55:00 4.9 C 6.48 g/m*3 4.9 C 3.2 km/h
3113 04-12-2013 23:00:00 4.9 C 6.48 g/m*3 4.9 C 3.2 km/h
3114 04-12-2013 23:05:00 5 C 6.52 g/m*3 5 C 3.2 km/h
3115 04-12-2013 23:10:00 5.1 C 6.57 g/m*3 5.1 C 1.6 km/h
3116 04-12-2013 23:15:00 5.1 C 6.57 g/m*3 5.1 C 1.6 km/h
3117 04-12-2013 23:20:00 5 C 6.52 g/m*3 5 C 3.2 km/h
3118 04-12-2013 23:25:00 5 C 6.52 g/m*3 5 C 4.8 km/h
3119 04-12-2013 23:30:00 4.9 C 6.48 g/m*3 4.9 C 3.2 km/h
3120 04-12-2013 23:35:00 4.9 C 6.48 g/m*3 4.9 C 1.6 km/h
3121 04-12-2013 23:40:00 4.9 C 6.48 g/m*3 4.9 C 3.2 km/h
3122 04-12-2013 23:45:00 4.9 C 6.48 g/m*3 4.9 C 3.2 km/h
3123 04-12-2013 23:50:00 5 C 6.52 g/m*3 5 C 4.8 km/h
3124 04-12-2013 23:55:00 4.9 C 6.48 g/m*3 4.9 C 4.8 km/h
3125 05-12-2013 00:00:00 4.9 C 6.48 g/m*3 4.9 C 3.2 km/h
Sensor: Nr:Datum:Temp:Abs-Feuchte:Windchill:Wind:
Aussen-T/F 3126 05-12-2013 00:05:00 4.8 C 6.44 g/m*3 4.8 C 4.8 km/h
3127 05-12-2013 00:10:00 4.6 C 6.29 g/m*3 4.6 C 1.6 km/h
3128 05-12-2013 00:15:00 4.4 C 6.27 g/m*3 4.4 C 1.6 km/h
3129 05-12-2013 00:20:00 4.4 C 6.27 g/m*3 4.4 C 1.6 km/h
3130 05-12-2013 00:25:00 4.3 C 6.23 g/m*3 4.3 C 3.2 km/h
3131 05-12-2013 00:30:00 4.3 C 6.23 g/m*3 4.3 C 1.6 km/h
3132 05-12-2013 00:35:00 4.2 C 6.19 g/m*3 4.2 C 0 km/h
3133 05-12-2013 00:40:00 4.1 C 6.14 g/m*3 4.1 C 3.2 km/h
3134 05-12-2013 00:45:00 3.9 C 6.06 g/m*3 3.9 C 3.2 km/h
3135 05-12-2013 00:50:00 3.8 C 6.02 g/m*3 3.8 C 3.2 km/h
3136 05-12-2013 00:55:00 3.6 C 5.94 g/m*3 3.6 C 3.2 km/h
3137 05-12-2013 01:00:00 3.4 C 5.86 g/m*3 3.4 C 3.2 km/h
3138 05-12-2013 01:05:00 3.3 C 5.82 g/m*3 3.3 C 3.2 km/h
3139 05-12-2013 01:10:00 3.2 C 5.79 g/m*3 3.2 C 1.6 km/h
3140 05-12-2013 01:15:00 3.1 C 5.75 g/m*3 3.1 C 3.2 km/h
3141 05-12-2013 01:20:00 3 C 5.71 g/m*3 3 C 3.2 km/h
3142 05-12-2013 01:25:00 3 C 5.71 g/m*3 3 C 3.2 km/h
3143 05-12-2013 01:30:00 3 C 5.71 g/m*3 3 C 3.2 km/h
3144 05-12-2013 01:35:00 2.9 C 5.73 g/m*3 2.9 C 1.6 km/h
3145 05-12-2013 01:40:00 2.9 C 5.73 g/m*3 2.9 C 3.2 km/h
3146 05-12-2013 01:45:00 2.9 C 5.73 g/m*3 2.9 C 0 km/h
3147 05-12-2013 01:50:00 2.8 C 5.69 g/m*3 2.8 C 0 km/h
3148 05-12-2013 01:55:00 2.8 C 5.69 g/m*3 2.8 C 0 km/h
3149 05-12-2013 02:00:00 2.7 C 5.65 g/m*3 2.7 C 0 km/h
3150 05-12-2013 02:05:00 2.6 C 5.61 g/m*3 2.6 C 1.6 km/h
Sensor: Nr:Datum:Temp:Abs-Feuchte:Windchill:Wind:
Aussen-T/F 3151 05-12-2013 02:10:00 2.6 C 5.61 g/m*3 2.6 C 1.6 km/h
3152 05-12-2013 02:15:00 2.6 C 5.61 g/m*3 2.6 C 3.2 km/h
3153 05-12-2013 02:20:00 2.5 C 5.58 g/m*3 2.5 C 1.6 km/h
3154 05-12-2013 02:25:00 2.4 C 5.54 g/m*3 2.4 C 1.6 km/h
3155 05-12-2013 02:30:00 2.4 C 5.54 g/m*3 2.4 C 3.2 km/h
3156 05-12-2013 02:35:00 2.3 C 5.5 g/m*3 2.3 C 1.6 km/h
3157 05-12-2013 02:40:00 2.3 C 5.5 g/m*3 2.3 C 0 km/h
3158 05-12-2013 02:45:00 2.3 C 5.5 g/m*3 2.3 C 3.2 km/h
3159 05-12-2013 02:50:00 2.3 C 5.5 g/m*3 2.3 C 0 km/h
3160 05-12-2013 02:55:00 2.3 C 5.5 g/m*3 2.3 C 3.2 km/h
3161 05-12-2013 03:00:00 2.2 C 5.46 g/m*3 2.2 C 1.6 km/h
3162 05-12-2013 03:05:00 2.3 C 5.5 g/m*3 2.3 C 1.6 km/h
3163 05-12-2013 03:10:00 2.3 C 5.5 g/m*3 2.3 C 1.6 km/h
3164 05-12-2013 03:15:00 2.3 C 5.5 g/m*3 2.3 C 3.2 km/h
3165 05-12-2013 03:20:00 2.3 C 5.5 g/m*3 2.3 C 3.2 km/h
3166 05-12-2013 03:25:00 2.2 C 5.46 g/m*3 0.36 C 6.4 km/h
3167 05-12-2013 03:30:00 2.2 C 5.46 g/m*3 0.36 C 6.4 km/h
3168 05-12-2013 03:35:00 2.3 C 5.5 g/m*3 0.47 C 6.4 km/h
3169 05-12-2013 03:40:00 2.3 C 5.5 g/m*3 2.3 C 3.2 km/h
3170 05-12-2013 03:45:00 2.3 C 5.5 g/m*3 0.47 C 6.4 km/h
3171 05-12-2013 03:50:00 2.3 C 5.5 g/m*3 0.47 C 6.4 km/h
3172 05-12-2013 03:55:00 2.3 C 5.5 g/m*3 -0.49 C 9.7 km/h
3173 05-12-2013 04:00:00 2.3 C 5.5 g/m*3 -0.07 C 8.1 km/h
3174 05-12-2013 04:05:00 2.3 C 5.5 g/m*3 0.47 C 6.4 km/h
3175 05-12-2013 04:10:00 2.2 C 5.46 g/m*3 0.36 C 6.4 km/h
Sensor: Nr:Datum:Temp:Abs-Feuchte:Windchill:Wind:
Aussen-T/F 3176 05-12-2013 04:15:00 2.3 C 5.5 g/m*3 -0.07 C 8.1 km/h
3177 05-12-2013 04:20:00 2.3 C 5.5 g/m*3 0.47 C 6.4 km/h
3178 05-12-2013 04:25:00 2.3 C 5.5 g/m*3 -0.07 C 8.1 km/h
3179 05-12-2013 04:30:00 2.2 C 5.46 g/m*3 -0.18 C 8.1 km/h
3180 05-12-2013 04:35:00 2.2 C 5.46 g/m*3 -0.61 C 9.7 km/h
3181 05-12-2013 04:40:00 2.2 C 5.46 g/m*3 0.36 C 6.4 km/h
3182 05-12-2013 04:45:00 2.2 C 5.46 g/m*3 -0.61 C 9.7 km/h
3183 05-12-2013 04:50:00 2.2 C 5.46 g/m*3 -0.99 C 11.3 km/h
3184 05-12-2013 04:55:00 2.2 C 5.46 g/m*3 -0.99 C 11.3 km/h
3185 05-12-2013 05:00:00 2.2 C 5.46 g/m*3 -0.99 C 11.3 km/h
3186 05-12-2013 05:05:00 2.2 C 5.46 g/m*3 -0.61 C 9.7 km/h
3187 05-12-2013 05:10:00 2.2 C 5.46 g/m*3 -0.18 C 8.1 km/h
3188 05-12-2013 05:15:00 2.2 C 5.46 g/m*3 -0.61 C 9.7 km/h
3189 05-12-2013 05:20:00 2.1 C 5.43 g/m*3 0.24 C 6.4 km/h
3190 05-12-2013 05:25:00 2.1 C 5.43 g/m*3 0.24 C 6.4 km/h
3191 05-12-2013 05:30:00 2.1 C 5.43 g/m*3 2.1 C 4.8 km/h
3192 05-12-2013 05:35:00 2.1 C 5.43 g/m*3 -0.73 C 9.7 km/h
3193 05-12-2013 05:40:00 2.1 C 5.43 g/m*3 2.1 C 3.2 km/h
3194 05-12-2013 05:45:00 2.2 C 5.46 g/m*3 -0.18 C 8.1 km/h
3195 05-12-2013 05:50:00 2.2 C 5.46 g/m*3 -0.18 C 8.1 km/h
3196 05-12-2013 05:55:00 2.2 C 5.46 g/m*3 0.36 C 6.4 km/h
3197 05-12-2013 06:00:00 2.2 C 5.46 g/m*3 0.36 C 6.4 km/h
3198 05-12-2013 06:05:00 2.2 C 5.46 g/m*3 0.36 C 6.4 km/h
3199 05-12-2013 06:10:00 2.2 C 5.46 g/m*3 -0.61 C 9.7 km/h
3200 05-12-2013 06:15:00 2.3 C 5.5 g/m*3 -0.07 C 8.1 km/h
Sensor: Nr:Datum:Temp:Abs-Feuchte:Windchill:Wind:
Aussen-T/F 3201 05-12-2013 06:20:00 2.3 C 5.5 g/m*3 -0.07 C 8.1 km/h
3202 05-12-2013 06:25:00 2.3 C 5.5 g/m*3 -0.07 C 8.1 km/h
3203 05-12-2013 06:30:00 2.4 C 5.54 g/m*3 2.4 C 4.8 km/h
3204 05-12-2013 06:35:00 2.5 C 5.58 g/m*3 0.71 C 6.4 km/h
3205 05-12-2013 06:40:00 2.6 C 5.61 g/m*3 2.6 C 4.8 km/h
3206 05-12-2013 06:45:00 2.6 C 5.61 g/m*3 0.82 C 6.4 km/h
3207 05-12-2013 06:50:00 2.6 C 5.56 g/m*3 0.82 C 6.4 km/h
3208 05-12-2013 06:55:00 2.6 C 5.56 g/m*3 -0.14 C 9.7 km/h
3209 05-12-2013 07:00:00 2.6 C 5.56 g/m*3 -0.5 C 11.3 km/h
3210 05-12-2013 07:05:00 2.6 C 5.56 g/m*3 -0.83 C 12.9 km/h
3211 05-12-2013 07:10:00 2.4 C 5.48 g/m*3 -1.07 C 12.9 km/h
3212 05-12-2013 07:15:00 2.4 C 5.48 g/m*3 -0.37 C 9.7 km/h
3213 05-12-2013 07:20:00 2.4 C 5.48 g/m*3 -0.37 C 9.7 km/h
3214 05-12-2013 07:28:00 2.3 C 5.44 g/m*3 0.47 C 6.4 km/h
3215 05-12-2013 07:30:00 2.2 C 5.41 g/m*3 2.2 C 0 km/h
3216 05-12-2013 07:35:00 2.1 C 5.31 g/m*3 2.1 C 4.8 km/h
3217 05-12-2013 07:56:00 2.1 C 5.31 g/m*3 2.1 C 1.6 km/h
3218 05-12-2013 08:00:00 1.7 C 5.17 g/m*3 1.7 C 4.8 km/h
3219 05-12-2013 08:05:00 1.6 C 5.14 g/m*3 -1.33 C 9.7 km/h
3220 05-12-2013 08:10:00 1.6 C 5.14 g/m*3 1.6 C 4.8 km/h
3221 05-12-2013 08:15:00 1.4 C 5.07 g/m*3 1.4 C 3.2 km/h
3222 05-12-2013 08:20:00 1.4 C 5.07 g/m*3 1.4 C 4.8 km/h
3223 05-12-2013 08:25:00 1.2 C 5 g/m*3 1.2 C 3.2 km/h
3224 05-12-2013 08:30:00 1.2 C 5.05 g/m*3 1.2 C 4.8 km/h
3225 05-12-2013 08:35:00 1.3 C 5.09 g/m*3 1.3 C 3.2 km/h
Sensor: Nr:Datum:Temp:Abs-Feuchte:Windchill:Wind:
Aussen-T/F 3226 05-12-2013 08:40:00 1.4 C 5.12 g/m*3 1.4 C 4.8 km/h
3227 05-12-2013 08:45:00 1.4 C 5.12 g/m*3 -1.12 C 8.1 km/h
3228 05-12-2013 08:50:00 1.4 C 5.12 g/m*3 1.4 C 3.2 km/h
3229 05-12-2013 08:55:00 1.4 C 5.12 g/m*3 1.4 C 3.2 km/h
3230 05-12-2013 09:00:00 1.6 C 5.19 g/m*3 -0.89 C 8.1 km/h
3231 05-12-2013 09:05:00 1.7 C 5.23 g/m*3 1.7 C 4.8 km/h
3232 05-12-2013 09:10:00 1.9 C 5.3 g/m*3 </